<?xml version="1.0" encoding="UTF-8" standalone="no" ?>
<gpx xmlns="http://www.topografix.com/GPX/1/1" xmlns:xsi="http://www.w3.org/2001/XMLSchema-instance" xsi:schemaLocation="http://www.topografix.com/GPX/1/1 http://www.topografix.com/GPX/1/1/gpx.xsd" version="1.1" creator="VisuGPX - https://www.visugpx.com">
  <metadata>
    <name>J3 La Roche en Ardenne - St Hubert</name>
    <desc><![CDATA[La traversée des Ardennes Belge VTT
J3 La Roche en Ardenne - St Hubert 42km 1000m]]></desc>
  </metadata>
  <trk>
    <name><![CDATA[J3 La Roche en Ardenne-St Hubert]]></name>
    <trkseg>
      <trkpt lat="50.18001" lon="5.57606">
        <ele>221</ele>
        <time>2000-01-01T02:01:07Z</time>
      </trkpt>
      <trkpt lat="50.18001" lon="5.57605">
        <ele>221.2</ele>
        <time>2000-01-01T02:01:17Z</time>
      </trkpt>
      <trkpt lat="50.17996" lon="5.57605">
        <ele>221.4</ele>
        <time>2000-01-01T02:01:27Z</time>
      </trkpt>
      <trkpt lat="50.17916" lon="5.57631">
        <ele>224</ele>
        <time>2000-01-01T02:01:37Z</time>
      </trkpt>
      <trkpt lat="50.17899" lon="5.57632">
        <ele>225.2</ele>
        <time>2000-01-01T02:01:47Z</time>
      </trkpt>
      <trkpt lat="50.17896" lon="5.57645">
        <ele>229</ele>
        <time>2000-01-01T02:01:57Z</time>
      </trkpt>
      <trkpt lat="50.1787" lon="5.57642">
        <ele>229</ele>
        <time>2000-01-01T02:02:07Z</time>
      </trkpt>
      <trkpt lat="50.17843" lon="5.57633">
        <ele>230</ele>
        <time>2000-01-01T02:02:17Z</time>
      </trkpt>
      <trkpt lat="50.17821" lon="5.57626">
        <ele>231</ele>
        <time>2000-01-01T02:02:27Z</time>
      </trkpt>
      <trkpt lat="50.17795" lon="5.57618">
        <ele>233</ele>
        <time>2000-01-01T02:02:37Z</time>
      </trkpt>
      <trkpt lat="50.17765" lon="5.57618">
        <ele>236</ele>
        <time>2000-01-01T02:02:47Z</time>
      </trkpt>
      <trkpt lat="50.17739" lon="5.57626">
        <ele>232</ele>
        <time>2000-01-01T02:02:57Z</time>
      </trkpt>
      <trkpt lat="50.17717" lon="5.57637">
        <ele>229</ele>
        <time>2000-01-01T02:03:07Z</time>
      </trkpt>
      <trkpt lat="50.17691" lon="5.5764">
        <ele>228</ele>
        <time>2000-01-01T02:03:17Z</time>
      </trkpt>
      <trkpt lat="50.17658" lon="5.57628">
        <ele>226</ele>
        <time>2000-01-01T02:03:27Z</time>
      </trkpt>
      <trkpt lat="50.17649" lon="5.57627">
        <ele>227</ele>
        <time>2000-01-01T02:03:37Z</time>
      </trkpt>
      <trkpt lat="50.17639" lon="5.5763">
        <ele>224</ele>
        <time>2000-01-01T02:03:47Z</time>
      </trkpt>
      <trkpt lat="50.17634" lon="5.57636">
        <ele>226.7</ele>
        <time>2000-01-01T02:03:57Z</time>
      </trkpt>
      <trkpt lat="50.17602" lon="5.57679">
        <ele>224</ele>
        <time>2000-01-01T02:04:07Z</time>
      </trkpt>
      <trkpt lat="50.17592" lon="5.57697">
        <ele>226.7</ele>
        <time>2000-01-01T02:04:17Z</time>
      </trkpt>
      <trkpt lat="50.17586" lon="5.57706">
        <ele>224</ele>
        <time>2000-01-01T02:04:27Z</time>
      </trkpt>
      <trkpt lat="50.17559" lon="5.57733">
        <ele>224</ele>
        <time>2000-01-01T02:04:37Z</time>
      </trkpt>
      <trkpt lat="50.17586" lon="5.57706">
        <ele>224</ele>
        <time>2000-01-01T02:04:47Z</time>
      </trkpt>
      <trkpt lat="50.17592" lon="5.57697">
        <ele>226.7</ele>
        <time>2000-01-01T02:04:57Z</time>
      </trkpt>
      <trkpt lat="50.17602" lon="5.57679">
        <ele>224</ele>
        <time>2000-01-01T02:05:07Z</time>
      </trkpt>
      <trkpt lat="50.17581" lon="5.57699">
        <ele>224</ele>
        <time>2000-01-01T02:05:17Z</time>
      </trkpt>
      <trkpt lat="50.17555" lon="5.57724">
        <ele>224</ele>
        <time>2000-01-01T02:05:27Z</time>
      </trkpt>
      <trkpt lat="50.17521" lon="5.57754">
        <ele>224</ele>
        <time>2000-01-01T02:05:37Z</time>
      </trkpt>
      <trkpt lat="50.17494" lon="5.57769">
        <ele>226</ele>
        <time>2000-01-01T02:05:47Z</time>
      </trkpt>
      <trkpt lat="50.17454" lon="5.57789">
        <ele>230</ele>
        <time>2000-01-01T02:05:57Z</time>
      </trkpt>
      <trkpt lat="50.17432" lon="5.57791">
        <ele>236</ele>
        <time>2000-01-01T02:06:07Z</time>
      </trkpt>
      <trkpt lat="50.17409" lon="5.57793">
        <ele>238</ele>
        <time>2000-01-01T02:06:17Z</time>
      </trkpt>
      <trkpt lat="50.17378" lon="5.57793">
        <ele>236</ele>
        <time>2000-01-01T02:06:27Z</time>
      </trkpt>
      <trkpt lat="50.1737" lon="5.57792">
        <ele>235.8</ele>
        <time>2000-01-01T02:06:37Z</time>
      </trkpt>
      <trkpt lat="50.17343" lon="5.57771">
        <ele>247</ele>
        <time>2000-01-01T02:06:47Z</time>
      </trkpt>
      <trkpt lat="50.17327" lon="5.57764">
        <ele>242</ele>
        <time>2000-01-01T02:06:57Z</time>
      </trkpt>
      <trkpt lat="50.17229" lon="5.57695">
        <ele>259</ele>
        <time>2000-01-01T02:07:07Z</time>
      </trkpt>
      <trkpt lat="50.17196" lon="5.57667">
        <ele>272</ele>
        <time>2000-01-01T02:07:17Z</time>
      </trkpt>
      <trkpt lat="50.17163" lon="5.5764">
        <ele>290</ele>
        <time>2000-01-01T02:07:27Z</time>
      </trkpt>
      <trkpt lat="50.1713" lon="5.57613">
        <ele>293</ele>
        <time>2000-01-01T02:07:37Z</time>
      </trkpt>
      <trkpt lat="50.17097" lon="5.57586">
        <ele>310</ele>
        <time>2000-01-01T02:07:47Z</time>
      </trkpt>
      <trkpt lat="50.17064" lon="5.57559">
        <ele>322</ele>
        <time>2000-01-01T02:07:57Z</time>
      </trkpt>
      <trkpt lat="50.17031" lon="5.57532">
        <ele>324</ele>
        <time>2000-01-01T02:08:07Z</time>
      </trkpt>
      <trkpt lat="50.1701" lon="5.57515">
        <ele>331</ele>
        <time>2000-01-01T02:08:17Z</time>
      </trkpt>
      <trkpt lat="50.16985" lon="5.57494">
        <ele>336</ele>
        <time>2000-01-01T02:08:27Z</time>
      </trkpt>
      <trkpt lat="50.16955" lon="5.57486">
        <ele>340</ele>
        <time>2000-01-01T02:08:37Z</time>
      </trkpt>
      <trkpt lat="50.16925" lon="5.57479">
        <ele>340</ele>
        <time>2000-01-01T02:08:47Z</time>
      </trkpt>
      <trkpt lat="50.16887" lon="5.57469">
        <ele>344</ele>
        <time>2000-01-01T02:08:57Z</time>
      </trkpt>
      <trkpt lat="50.16855" lon="5.57455">
        <ele>345</ele>
        <time>2000-01-01T02:09:07Z</time>
      </trkpt>
      <trkpt lat="50.16832" lon="5.57441">
        <ele>349</ele>
        <time>2000-01-01T02:09:17Z</time>
      </trkpt>
      <trkpt lat="50.16802" lon="5.57422">
        <ele>354</ele>
        <time>2000-01-01T02:09:27Z</time>
      </trkpt>
      <trkpt lat="50.16778" lon="5.57397">
        <ele>354</ele>
        <time>2000-01-01T02:09:37Z</time>
      </trkpt>
      <trkpt lat="50.16758" lon="5.57376">
        <ele>357</ele>
        <time>2000-01-01T02:09:47Z</time>
      </trkpt>
      <trkpt lat="50.16732" lon="5.57347">
        <ele>359</ele>
        <time>2000-01-01T02:09:57Z</time>
      </trkpt>
      <trkpt lat="50.16703" lon="5.57335">
        <ele>363</ele>
        <time>2000-01-01T02:10:07Z</time>
      </trkpt>
      <trkpt lat="50.16674" lon="5.57323">
        <ele>362</ele>
        <time>2000-01-01T02:10:17Z</time>
      </trkpt>
      <trkpt lat="50.16636" lon="5.57307">
        <ele>362</ele>
        <time>2000-01-01T02:10:27Z</time>
      </trkpt>
      <trkpt lat="50.16605" lon="5.57306">
        <ele>363</ele>
        <time>2000-01-01T02:10:37Z</time>
      </trkpt>
      <trkpt lat="50.16579" lon="5.57321">
        <ele>365</ele>
        <time>2000-01-01T02:10:47Z</time>
      </trkpt>
      <trkpt lat="50.16554" lon="5.57348">
        <ele>367</ele>
        <time>2000-01-01T02:10:57Z</time>
      </trkpt>
      <trkpt lat="50.16529" lon="5.57376">
        <ele>368</ele>
        <time>2000-01-01T02:11:07Z</time>
      </trkpt>
      <trkpt lat="50.16511" lon="5.57395">
        <ele>368</ele>
        <time>2000-01-01T02:11:17Z</time>
      </trkpt>
      <trkpt lat="50.16492" lon="5.57416">
        <ele>370</ele>
        <time>2000-01-01T02:11:27Z</time>
      </trkpt>
      <trkpt lat="50.16456" lon="5.57445">
        <ele>372</ele>
        <time>2000-01-01T02:11:37Z</time>
      </trkpt>
      <trkpt lat="50.16426" lon="5.57458">
        <ele>373</ele>
        <time>2000-01-01T02:11:47Z</time>
      </trkpt>
      <trkpt lat="50.16396" lon="5.57472">
        <ele>374</ele>
        <time>2000-01-01T02:11:57Z</time>
      </trkpt>
      <trkpt lat="50.16374" lon="5.57482">
        <ele>374</ele>
        <time>2000-01-01T02:12:07Z</time>
      </trkpt>
      <trkpt lat="50.16349" lon="5.57493">
        <ele>376</ele>
        <time>2000-01-01T02:12:17Z</time>
      </trkpt>
      <trkpt lat="50.16317" lon="5.57501">
        <ele>378</ele>
        <time>2000-01-01T02:12:27Z</time>
      </trkpt>
      <trkpt lat="50.16284" lon="5.57508">
        <ele>386</ele>
        <time>2000-01-01T02:12:37Z</time>
      </trkpt>
      <trkpt lat="50.16252" lon="5.57515">
        <ele>386</ele>
        <time>2000-01-01T02:12:47Z</time>
      </trkpt>
      <trkpt lat="50.16215" lon="5.57523">
        <ele>385</ele>
        <time>2000-01-01T02:12:57Z</time>
      </trkpt>
      <trkpt lat="50.16185" lon="5.57517">
        <ele>384</ele>
        <time>2000-01-01T02:13:07Z</time>
      </trkpt>
      <trkpt lat="50.16154" lon="5.5752">
        <ele>381</ele>
        <time>2000-01-01T02:13:17Z</time>
      </trkpt>
      <trkpt lat="50.16123" lon="5.57523">
        <ele>381</ele>
        <time>2000-01-01T02:13:27Z</time>
      </trkpt>
      <trkpt lat="50.161" lon="5.57526">
        <ele>381</ele>
        <time>2000-01-01T02:13:37Z</time>
      </trkpt>
      <trkpt lat="50.16075" lon="5.57528">
        <ele>382</ele>
        <time>2000-01-01T02:13:47Z</time>
      </trkpt>
      <trkpt lat="50.16047" lon="5.5753">
        <ele>388</ele>
        <time>2000-01-01T02:13:57Z</time>
      </trkpt>
      <trkpt lat="50.16023" lon="5.57531">
        <ele>388</ele>
        <time>2000-01-01T02:14:07Z</time>
      </trkpt>
      <trkpt lat="50.15993" lon="5.57533">
        <ele>387</ele>
        <time>2000-01-01T02:14:17Z</time>
      </trkpt>
      <trkpt lat="50.15965" lon="5.57538">
        <ele>386</ele>
        <time>2000-01-01T02:14:27Z</time>
      </trkpt>
      <trkpt lat="50.15936" lon="5.57543">
        <ele>386</ele>
        <time>2000-01-01T02:14:37Z</time>
      </trkpt>
      <trkpt lat="50.15906" lon="5.57549">
        <ele>379</ele>
        <time>2000-01-01T02:14:47Z</time>
      </trkpt>
      <trkpt lat="50.15882" lon="5.57549">
        <ele>379</ele>
        <time>2000-01-01T02:14:57Z</time>
      </trkpt>
      <trkpt lat="50.15864" lon="5.5755">
        <ele>375</ele>
        <time>2000-01-01T02:15:07Z</time>
      </trkpt>
      <trkpt lat="50.15836" lon="5.57557">
        <ele>375</ele>
        <time>2000-01-01T02:15:17Z</time>
      </trkpt>
      <trkpt lat="50.15807" lon="5.57564">
        <ele>375</ele>
        <time>2000-01-01T02:15:27Z</time>
      </trkpt>
      <trkpt lat="50.15776" lon="5.57572">
        <ele>371</ele>
        <time>2000-01-01T02:15:37Z</time>
      </trkpt>
      <trkpt lat="50.15747" lon="5.57574">
        <ele>372</ele>
        <time>2000-01-01T02:15:47Z</time>
      </trkpt>
      <trkpt lat="50.15717" lon="5.57576">
        <ele>374</ele>
        <time>2000-01-01T02:15:57Z</time>
      </trkpt>
      <trkpt lat="50.15681" lon="5.57579">
        <ele>374</ele>
        <time>2000-01-01T02:16:07Z</time>
      </trkpt>
      <trkpt lat="50.15658" lon="5.57586">
        <ele>374</ele>
        <time>2000-01-01T02:16:17Z</time>
      </trkpt>
      <trkpt lat="50.1565" lon="5.57592">
        <ele>384.1</ele>
        <time>2000-01-01T02:16:27Z</time>
      </trkpt>
      <trkpt lat="50.15633" lon="5.57606">
        <ele>374</ele>
        <time>2000-01-01T02:16:37Z</time>
      </trkpt>
      <trkpt lat="50.15615" lon="5.57626">
        <ele>374</ele>
        <time>2000-01-01T02:16:47Z</time>
      </trkpt>
      <trkpt lat="50.15597" lon="5.57646">
        <ele>371</ele>
        <time>2000-01-01T02:16:57Z</time>
      </trkpt>
      <trkpt lat="50.15578" lon="5.57656">
        <ele>371</ele>
        <time>2000-01-01T02:17:07Z</time>
      </trkpt>
      <trkpt lat="50.15556" lon="5.57661">
        <ele>369</ele>
        <time>2000-01-01T02:17:17Z</time>
      </trkpt>
      <trkpt lat="50.15533" lon="5.57666">
        <ele>368</ele>
        <time>2000-01-01T02:17:27Z</time>
      </trkpt>
      <trkpt lat="50.15499" lon="5.57667">
        <ele>368</ele>
        <time>2000-01-01T02:17:37Z</time>
      </trkpt>
      <trkpt lat="50.15468" lon="5.57662">
        <ele>373</ele>
        <time>2000-01-01T02:17:47Z</time>
      </trkpt>
      <trkpt lat="50.15437" lon="5.57657">
        <ele>375</ele>
        <time>2000-01-01T02:17:57Z</time>
      </trkpt>
      <trkpt lat="50.15412" lon="5.57653">
        <ele>375</ele>
        <time>2000-01-01T02:18:07Z</time>
      </trkpt>
      <trkpt lat="50.15382" lon="5.57648">
        <ele>378</ele>
        <time>2000-01-01T02:18:17Z</time>
      </trkpt>
      <trkpt lat="50.15368" lon="5.57643">
        <ele>391</ele>
        <time>2000-01-01T02:18:27Z</time>
      </trkpt>
      <trkpt lat="50.15364" lon="5.57631">
        <ele>381</ele>
        <time>2000-01-01T02:18:37Z</time>
      </trkpt>
      <trkpt lat="50.15358" lon="5.57621">
        <ele>391.9</ele>
        <time>2000-01-01T02:18:47Z</time>
      </trkpt>
      <trkpt lat="50.1534" lon="5.57604">
        <ele>383</ele>
        <time>2000-01-01T02:18:57Z</time>
      </trkpt>
      <trkpt lat="50.1532" lon="5.57589">
        <ele>386</ele>
        <time>2000-01-01T02:19:07Z</time>
      </trkpt>
      <trkpt lat="50.15292" lon="5.57577">
        <ele>387</ele>
        <time>2000-01-01T02:19:17Z</time>
      </trkpt>
      <trkpt lat="50.15263" lon="5.5757">
        <ele>387</ele>
        <time>2000-01-01T02:19:27Z</time>
      </trkpt>
      <trkpt lat="50.15234" lon="5.57564">
        <ele>387</ele>
        <time>2000-01-01T02:19:37Z</time>
      </trkpt>
      <trkpt lat="50.15199" lon="5.57556">
        <ele>388</ele>
        <time>2000-01-01T02:19:47Z</time>
      </trkpt>
      <trkpt lat="50.15184" lon="5.57555">
        <ele>398.6</ele>
        <time>2000-01-01T02:19:57Z</time>
      </trkpt>
      <trkpt lat="50.15138" lon="5.57556">
        <ele>388</ele>
        <time>2000-01-01T02:20:07Z</time>
      </trkpt>
      <trkpt lat="50.15119" lon="5.57561">
        <ele>388</ele>
        <time>2000-01-01T02:20:17Z</time>
      </trkpt>
      <trkpt lat="50.15093" lon="5.57574">
        <ele>388</ele>
        <time>2000-01-01T02:20:27Z</time>
      </trkpt>
      <trkpt lat="50.15069" lon="5.5757">
        <ele>387</ele>
        <time>2000-01-01T02:20:37Z</time>
      </trkpt>
      <trkpt lat="50.1504" lon="5.57565">
        <ele>387</ele>
        <time>2000-01-01T02:20:47Z</time>
      </trkpt>
      <trkpt lat="50.14998" lon="5.57577">
        <ele>386</ele>
        <time>2000-01-01T02:20:57Z</time>
      </trkpt>
      <trkpt lat="50.14974" lon="5.5758">
        <ele>386</ele>
        <time>2000-01-01T02:21:07Z</time>
      </trkpt>
      <trkpt lat="50.14943" lon="5.57584">
        <ele>391</ele>
        <time>2000-01-01T02:21:17Z</time>
      </trkpt>
      <trkpt lat="50.14916" lon="5.57577">
        <ele>396</ele>
        <time>2000-01-01T02:21:27Z</time>
      </trkpt>
      <trkpt lat="50.14893" lon="5.57571">
        <ele>396</ele>
        <time>2000-01-01T02:21:37Z</time>
      </trkpt>
      <trkpt lat="50.14867" lon="5.57564">
        <ele>394</ele>
        <time>2000-01-01T02:21:47Z</time>
      </trkpt>
      <trkpt lat="50.14839" lon="5.57557">
        <ele>393</ele>
        <time>2000-01-01T02:21:57Z</time>
      </trkpt>
      <trkpt lat="50.14816" lon="5.57551">
        <ele>392</ele>
        <time>2000-01-01T02:22:07Z</time>
      </trkpt>
      <trkpt lat="50.14788" lon="5.57544">
        <ele>392</ele>
        <time>2000-01-01T02:22:17Z</time>
      </trkpt>
      <trkpt lat="50.14762" lon="5.57534">
        <ele>394</ele>
        <time>2000-01-01T02:22:27Z</time>
      </trkpt>
      <trkpt lat="50.1474" lon="5.57523">
        <ele>398</ele>
        <time>2000-01-01T02:22:37Z</time>
      </trkpt>
      <trkpt lat="50.14711" lon="5.57506">
        <ele>396</ele>
        <time>2000-01-01T02:22:47Z</time>
      </trkpt>
      <trkpt lat="50.14682" lon="5.57488">
        <ele>394</ele>
        <time>2000-01-01T02:22:57Z</time>
      </trkpt>
      <trkpt lat="50.1466" lon="5.57475">
        <ele>394</ele>
        <time>2000-01-01T02:23:07Z</time>
      </trkpt>
      <trkpt lat="50.14637" lon="5.57461">
        <ele>394</ele>
        <time>2000-01-01T02:23:17Z</time>
      </trkpt>
      <trkpt lat="50.14616" lon="5.57448">
        <ele>391</ele>
        <time>2000-01-01T02:23:27Z</time>
      </trkpt>
      <trkpt lat="50.14596" lon="5.57435">
        <ele>388</ele>
        <time>2000-01-01T02:23:37Z</time>
      </trkpt>
      <trkpt lat="50.1458" lon="5.5742">
        <ele>388</ele>
        <time>2000-01-01T02:23:47Z</time>
      </trkpt>
      <trkpt lat="50.1457" lon="5.57404">
        <ele>392.3</ele>
        <time>2000-01-01T02:23:57Z</time>
      </trkpt>
      <trkpt lat="50.14518" lon="5.57305">
        <ele>377</ele>
        <time>2000-01-01T02:24:07Z</time>
      </trkpt>
      <trkpt lat="50.1449" lon="5.57268">
        <ele>375</ele>
        <time>2000-01-01T02:24:17Z</time>
      </trkpt>
      <trkpt lat="50.14474" lon="5.57256">
        <ele>375</ele>
        <time>2000-01-01T02:24:27Z</time>
      </trkpt>
      <trkpt lat="50.14463" lon="5.5725">
        <ele>377</ele>
        <time>2000-01-01T02:24:37Z</time>
      </trkpt>
      <trkpt lat="50.14449" lon="5.57247">
        <ele>369</ele>
        <time>2000-01-01T02:24:47Z</time>
      </trkpt>
      <trkpt lat="50.14431" lon="5.5725">
        <ele>362</ele>
        <time>2000-01-01T02:24:57Z</time>
      </trkpt>
      <trkpt lat="50.14409" lon="5.57258">
        <ele>358</ele>
        <time>2000-01-01T02:25:07Z</time>
      </trkpt>
      <trkpt lat="50.14385" lon="5.57267">
        <ele>358</ele>
        <time>2000-01-01T02:25:17Z</time>
      </trkpt>
      <trkpt lat="50.14355" lon="5.57282">
        <ele>356</ele>
        <time>2000-01-01T02:25:27Z</time>
      </trkpt>
      <trkpt lat="50.14342" lon="5.5729">
        <ele>366.6</ele>
        <time>2000-01-01T02:25:37Z</time>
      </trkpt>
      <trkpt lat="50.14324" lon="5.57274">
        <ele>355</ele>
        <time>2000-01-01T02:25:47Z</time>
      </trkpt>
      <trkpt lat="50.1431" lon="5.57263">
        <ele>363.2</ele>
        <time>2000-01-01T02:25:57Z</time>
      </trkpt>
      <trkpt lat="50.14283" lon="5.57251">
        <ele>354</ele>
        <time>2000-01-01T02:26:07Z</time>
      </trkpt>
      <trkpt lat="50.14272" lon="5.57232">
        <ele>360.4</ele>
        <time>2000-01-01T02:26:17Z</time>
      </trkpt>
      <trkpt lat="50.14211" lon="5.57141">
        <ele>354</ele>
        <time>2000-01-01T02:26:27Z</time>
      </trkpt>
      <trkpt lat="50.14208" lon="5.57125">
        <ele>359</ele>
        <time>2000-01-01T02:26:37Z</time>
      </trkpt>
      <trkpt lat="50.142" lon="5.57118">
        <ele>354</ele>
        <time>2000-01-01T02:26:47Z</time>
      </trkpt>
      <trkpt lat="50.14194" lon="5.57109">
        <ele>360.1</ele>
        <time>2000-01-01T02:26:57Z</time>
      </trkpt>
      <trkpt lat="50.14191" lon="5.57093">
        <ele>355</ele>
        <time>2000-01-01T02:27:07Z</time>
      </trkpt>
      <trkpt lat="50.14187" lon="5.57051">
        <ele>356</ele>
        <time>2000-01-01T02:27:17Z</time>
      </trkpt>
      <trkpt lat="50.14184" lon="5.57016">
        <ele>358</ele>
        <time>2000-01-01T02:27:27Z</time>
      </trkpt>
      <trkpt lat="50.14181" lon="5.56978">
        <ele>359</ele>
        <time>2000-01-01T02:27:37Z</time>
      </trkpt>
      <trkpt lat="50.14168" lon="5.56973">
        <ele>367</ele>
        <time>2000-01-01T02:27:47Z</time>
      </trkpt>
      <trkpt lat="50.14129" lon="5.56945">
        <ele>360</ele>
        <time>2000-01-01T02:27:57Z</time>
      </trkpt>
      <trkpt lat="50.14097" lon="5.56926">
        <ele>368</ele>
        <time>2000-01-01T02:28:07Z</time>
      </trkpt>
      <trkpt lat="50.1408" lon="5.56912">
        <ele>368</ele>
        <time>2000-01-01T02:28:17Z</time>
      </trkpt>
      <trkpt lat="50.14074" lon="5.56904">
        <ele>369.8</ele>
        <time>2000-01-01T02:28:27Z</time>
      </trkpt>
      <trkpt lat="50.14066" lon="5.56888">
        <ele>368</ele>
        <time>2000-01-01T02:28:37Z</time>
      </trkpt>
      <trkpt lat="50.14059" lon="5.56866">
        <ele>370</ele>
        <time>2000-01-01T02:28:47Z</time>
      </trkpt>
      <trkpt lat="50.14054" lon="5.56855">
        <ele>368</ele>
        <time>2000-01-01T02:28:57Z</time>
      </trkpt>
      <trkpt lat="50.14049" lon="5.56851">
        <ele>370.6</ele>
        <time>2000-01-01T02:29:07Z</time>
      </trkpt>
      <trkpt lat="50.14041" lon="5.56852">
        <ele>370.3</ele>
        <time>2000-01-01T02:29:17Z</time>
      </trkpt>
      <trkpt lat="50.14015" lon="5.56864">
        <ele>366</ele>
        <time>2000-01-01T02:29:27Z</time>
      </trkpt>
      <trkpt lat="50.14006" lon="5.56864">
        <ele>371.5</ele>
        <time>2000-01-01T02:29:37Z</time>
      </trkpt>
      <trkpt lat="50.14" lon="5.5686">
        <ele>372</ele>
        <time>2000-01-01T02:29:47Z</time>
      </trkpt>
      <trkpt lat="50.13982" lon="5.56833">
        <ele>366</ele>
        <time>2000-01-01T02:29:57Z</time>
      </trkpt>
      <trkpt lat="50.13969" lon="5.56819">
        <ele>373.7</ele>
        <time>2000-01-01T02:30:07Z</time>
      </trkpt>
      <trkpt lat="50.13955" lon="5.56809">
        <ele>366</ele>
        <time>2000-01-01T02:30:17Z</time>
      </trkpt>
      <trkpt lat="50.13942" lon="5.56805">
        <ele>376.1</ele>
        <time>2000-01-01T02:30:27Z</time>
      </trkpt>
      <trkpt lat="50.13929" lon="5.56803">
        <ele>366</ele>
        <time>2000-01-01T02:30:37Z</time>
      </trkpt>
      <trkpt lat="50.13901" lon="5.56804">
        <ele>368</ele>
        <time>2000-01-01T02:30:47Z</time>
      </trkpt>
      <trkpt lat="50.13878" lon="5.56799">
        <ele>368</ele>
        <time>2000-01-01T02:30:57Z</time>
      </trkpt>
      <trkpt lat="50.1385" lon="5.56794">
        <ele>369</ele>
        <time>2000-01-01T02:31:07Z</time>
      </trkpt>
      <trkpt lat="50.13829" lon="5.56788">
        <ele>369</ele>
        <time>2000-01-01T02:31:17Z</time>
      </trkpt>
      <trkpt lat="50.13794" lon="5.56773">
        <ele>374</ele>
        <time>2000-01-01T02:31:27Z</time>
      </trkpt>
      <trkpt lat="50.13766" lon="5.56768">
        <ele>376</ele>
        <time>2000-01-01T02:31:37Z</time>
      </trkpt>
      <trkpt lat="50.13743" lon="5.56763">
        <ele>376</ele>
        <time>2000-01-01T02:31:47Z</time>
      </trkpt>
      <trkpt lat="50.13716" lon="5.56758">
        <ele>378</ele>
        <time>2000-01-01T02:31:57Z</time>
      </trkpt>
      <trkpt lat="50.13701" lon="5.56752">
        <ele>389.1</ele>
        <time>2000-01-01T02:32:07Z</time>
      </trkpt>
      <trkpt lat="50.13692" lon="5.56746">
        <ele>380</ele>
        <time>2000-01-01T02:32:17Z</time>
      </trkpt>
      <trkpt lat="50.13679" lon="5.56733">
        <ele>389.1</ele>
        <time>2000-01-01T02:32:27Z</time>
      </trkpt>
      <trkpt lat="50.13668" lon="5.56719">
        <ele>384</ele>
        <time>2000-01-01T02:32:37Z</time>
      </trkpt>
      <trkpt lat="50.13652" lon="5.56685">
        <ele>385</ele>
        <time>2000-01-01T02:32:47Z</time>
      </trkpt>
      <trkpt lat="50.13639" lon="5.56658">
        <ele>386</ele>
        <time>2000-01-01T02:32:57Z</time>
      </trkpt>
      <trkpt lat="50.13626" lon="5.56629">
        <ele>387</ele>
        <time>2000-01-01T02:33:07Z</time>
      </trkpt>
      <trkpt lat="50.13618" lon="5.56617">
        <ele>393</ele>
        <time>2000-01-01T02:33:17Z</time>
      </trkpt>
      <trkpt lat="50.1358" lon="5.56577">
        <ele>389</ele>
        <time>2000-01-01T02:33:27Z</time>
      </trkpt>
      <trkpt lat="50.13556" lon="5.56559">
        <ele>389</ele>
        <time>2000-01-01T02:33:37Z</time>
      </trkpt>
      <trkpt lat="50.13517" lon="5.56531">
        <ele>389</ele>
        <time>2000-01-01T02:33:47Z</time>
      </trkpt>
      <trkpt lat="50.13506" lon="5.56515">
        <ele>392.6</ele>
        <time>2000-01-01T02:33:57Z</time>
      </trkpt>
      <trkpt lat="50.1348" lon="5.56457">
        <ele>390</ele>
        <time>2000-01-01T02:34:07Z</time>
      </trkpt>
      <trkpt lat="50.13466" lon="5.56441">
        <ele>390</ele>
        <time>2000-01-01T02:34:17Z</time>
      </trkpt>
      <trkpt lat="50.13456" lon="5.56434">
        <ele>392.8</ele>
        <time>2000-01-01T02:34:27Z</time>
      </trkpt>
      <trkpt lat="50.13447" lon="5.5643">
        <ele>390</ele>
        <time>2000-01-01T02:34:37Z</time>
      </trkpt>
      <trkpt lat="50.13436" lon="5.56429">
        <ele>393.2</ele>
        <time>2000-01-01T02:34:47Z</time>
      </trkpt>
      <trkpt lat="50.13425" lon="5.56431">
        <ele>389</ele>
        <time>2000-01-01T02:34:57Z</time>
      </trkpt>
      <trkpt lat="50.13412" lon="5.56436">
        <ele>394.7</ele>
        <time>2000-01-01T02:35:07Z</time>
      </trkpt>
      <trkpt lat="50.13403" lon="5.56445">
        <ele>388</ele>
        <time>2000-01-01T02:35:17Z</time>
      </trkpt>
      <trkpt lat="50.13383" lon="5.56471">
        <ele>388</ele>
        <time>2000-01-01T02:35:27Z</time>
      </trkpt>
      <trkpt lat="50.13352" lon="5.5651">
        <ele>388</ele>
        <time>2000-01-01T02:35:37Z</time>
      </trkpt>
      <trkpt lat="50.13327" lon="5.56533">
        <ele>391</ele>
        <time>2000-01-01T02:35:47Z</time>
      </trkpt>
      <trkpt lat="50.13301" lon="5.56556">
        <ele>392</ele>
        <time>2000-01-01T02:35:57Z</time>
      </trkpt>
      <trkpt lat="50.13274" lon="5.5658">
        <ele>393</ele>
        <time>2000-01-01T02:36:07Z</time>
      </trkpt>
      <trkpt lat="50.13256" lon="5.56593">
        <ele>395</ele>
        <time>2000-01-01T02:36:17Z</time>
      </trkpt>
      <trkpt lat="50.13238" lon="5.56601">
        <ele>395</ele>
        <time>2000-01-01T02:36:27Z</time>
      </trkpt>
      <trkpt lat="50.13209" lon="5.56612">
        <ele>410</ele>
        <time>2000-01-01T02:36:37Z</time>
      </trkpt>
      <trkpt lat="50.1318" lon="5.56622">
        <ele>411</ele>
        <time>2000-01-01T02:36:47Z</time>
      </trkpt>
      <trkpt lat="50.13144" lon="5.56635">
        <ele>411</ele>
        <time>2000-01-01T02:36:57Z</time>
      </trkpt>
      <trkpt lat="50.13124" lon="5.5663">
        <ele>411</ele>
        <time>2000-01-01T02:37:07Z</time>
      </trkpt>
      <trkpt lat="50.13106" lon="5.56618">
        <ele>409</ele>
        <time>2000-01-01T02:37:17Z</time>
      </trkpt>
      <trkpt lat="50.13093" lon="5.566">
        <ele>410.6</ele>
        <time>2000-01-01T02:37:27Z</time>
      </trkpt>
      <trkpt lat="50.13051" lon="5.56552">
        <ele>409</ele>
        <time>2000-01-01T02:37:37Z</time>
      </trkpt>
      <trkpt lat="50.13027" lon="5.56532">
        <ele>409</ele>
        <time>2000-01-01T02:37:47Z</time>
      </trkpt>
      <trkpt lat="50.12991" lon="5.56501">
        <ele>413</ele>
        <time>2000-01-01T02:37:57Z</time>
      </trkpt>
      <trkpt lat="50.12968" lon="5.56482">
        <ele>413</ele>
        <time>2000-01-01T02:38:07Z</time>
      </trkpt>
      <trkpt lat="50.1293" lon="5.56452">
        <ele>418</ele>
        <time>2000-01-01T02:38:17Z</time>
      </trkpt>
      <trkpt lat="50.12915" lon="5.56436">
        <ele>418</ele>
        <time>2000-01-01T02:38:27Z</time>
      </trkpt>
      <trkpt lat="50.12888" lon="5.56416">
        <ele>420</ele>
        <time>2000-01-01T02:38:37Z</time>
      </trkpt>
      <trkpt lat="50.12858" lon="5.56384">
        <ele>421</ele>
        <time>2000-01-01T02:38:47Z</time>
      </trkpt>
      <trkpt lat="50.12835" lon="5.56363">
        <ele>424</ele>
        <time>2000-01-01T02:38:57Z</time>
      </trkpt>
      <trkpt lat="50.12807" lon="5.5634">
        <ele>428</ele>
        <time>2000-01-01T02:39:07Z</time>
      </trkpt>
      <trkpt lat="50.12776" lon="5.56319">
        <ele>427</ele>
        <time>2000-01-01T02:39:17Z</time>
      </trkpt>
      <trkpt lat="50.12745" lon="5.56301">
        <ele>427</ele>
        <time>2000-01-01T02:39:27Z</time>
      </trkpt>
      <trkpt lat="50.12731" lon="5.56293">
        <ele>431.8</ele>
        <time>2000-01-01T02:39:37Z</time>
      </trkpt>
      <trkpt lat="50.12724" lon="5.56292">
        <ele>428</ele>
        <time>2000-01-01T02:39:47Z</time>
      </trkpt>
      <trkpt lat="50.12701" lon="5.56301">
        <ele>430</ele>
        <time>2000-01-01T02:39:57Z</time>
      </trkpt>
      <trkpt lat="50.12674" lon="5.56312">
        <ele>433</ele>
        <time>2000-01-01T02:40:07Z</time>
      </trkpt>
      <trkpt lat="50.12645" lon="5.56326">
        <ele>436</ele>
        <time>2000-01-01T02:40:17Z</time>
      </trkpt>
      <trkpt lat="50.12618" lon="5.56342">
        <ele>436</ele>
        <time>2000-01-01T02:40:27Z</time>
      </trkpt>
      <trkpt lat="50.12601" lon="5.56349">
        <ele>438.2</ele>
        <time>2000-01-01T02:40:37Z</time>
      </trkpt>
      <trkpt lat="50.12555" lon="5.56392">
        <ele>436</ele>
        <time>2000-01-01T02:40:47Z</time>
      </trkpt>
      <trkpt lat="50.12542" lon="5.56398">
        <ele>439.3</ele>
        <time>2000-01-01T02:40:57Z</time>
      </trkpt>
      <trkpt lat="50.12524" lon="5.56402">
        <ele>439</ele>
        <time>2000-01-01T02:41:07Z</time>
      </trkpt>
      <trkpt lat="50.12493" lon="5.56399">
        <ele>442</ele>
        <time>2000-01-01T02:41:17Z</time>
      </trkpt>
      <trkpt lat="50.12462" lon="5.56397">
        <ele>441</ele>
        <time>2000-01-01T02:41:27Z</time>
      </trkpt>
      <trkpt lat="50.1244" lon="5.56395">
        <ele>441</ele>
        <time>2000-01-01T02:41:37Z</time>
      </trkpt>
      <trkpt lat="50.12416" lon="5.56393">
        <ele>441</ele>
        <time>2000-01-01T02:41:47Z</time>
      </trkpt>
      <trkpt lat="50.12384" lon="5.56394">
        <ele>440</ele>
        <time>2000-01-01T02:41:57Z</time>
      </trkpt>
      <trkpt lat="50.12351" lon="5.56395">
        <ele>434</ele>
        <time>2000-01-01T02:42:07Z</time>
      </trkpt>
      <trkpt lat="50.12319" lon="5.56396">
        <ele>435</ele>
        <time>2000-01-01T02:42:17Z</time>
      </trkpt>
      <trkpt lat="50.12286" lon="5.56397">
        <ele>436</ele>
        <time>2000-01-01T02:42:27Z</time>
      </trkpt>
      <trkpt lat="50.12265" lon="5.56399">
        <ele>437</ele>
        <time>2000-01-01T02:42:37Z</time>
      </trkpt>
      <trkpt lat="50.12255" lon="5.56403">
        <ele>444.3</ele>
        <time>2000-01-01T02:42:47Z</time>
      </trkpt>
      <trkpt lat="50.12237" lon="5.56416">
        <ele>438</ele>
        <time>2000-01-01T02:42:57Z</time>
      </trkpt>
      <trkpt lat="50.12202" lon="5.56455">
        <ele>437</ele>
        <time>2000-01-01T02:43:07Z</time>
      </trkpt>
      <trkpt lat="50.12167" lon="5.56484">
        <ele>437</ele>
        <time>2000-01-01T02:43:17Z</time>
      </trkpt>
      <trkpt lat="50.12139" lon="5.56497">
        <ele>440</ele>
        <time>2000-01-01T02:43:27Z</time>
      </trkpt>
      <trkpt lat="50.12111" lon="5.5651">
        <ele>440</ele>
        <time>2000-01-01T02:43:37Z</time>
      </trkpt>
      <trkpt lat="50.1208" lon="5.56523">
        <ele>441</ele>
        <time>2000-01-01T02:43:47Z</time>
      </trkpt>
      <trkpt lat="50.12069" lon="5.56514">
        <ele>447</ele>
        <time>2000-01-01T02:43:57Z</time>
      </trkpt>
      <trkpt lat="50.12047" lon="5.56501">
        <ele>439</ele>
        <time>2000-01-01T02:44:07Z</time>
      </trkpt>
      <trkpt lat="50.12038" lon="5.56493">
        <ele>446.7</ele>
        <time>2000-01-01T02:44:17Z</time>
      </trkpt>
      <trkpt lat="50.11923" lon="5.56285">
        <ele>443</ele>
        <time>2000-01-01T02:44:27Z</time>
      </trkpt>
      <trkpt lat="50.11903" lon="5.56253">
        <ele>448</ele>
        <time>2000-01-01T02:44:37Z</time>
      </trkpt>
      <trkpt lat="50.11886" lon="5.56226">
        <ele>447</ele>
        <time>2000-01-01T02:44:47Z</time>
      </trkpt>
      <trkpt lat="50.11865" lon="5.56191">
        <ele>447</ele>
        <time>2000-01-01T02:44:57Z</time>
      </trkpt>
      <trkpt lat="50.11852" lon="5.56163">
        <ele>446</ele>
        <time>2000-01-01T02:45:07Z</time>
      </trkpt>
      <trkpt lat="50.11838" lon="5.56132">
        <ele>446</ele>
        <time>2000-01-01T02:45:17Z</time>
      </trkpt>
      <trkpt lat="50.11816" lon="5.56093">
        <ele>447</ele>
        <time>2000-01-01T02:45:27Z</time>
      </trkpt>
      <trkpt lat="50.11811" lon="5.56052">
        <ele>449</ele>
        <time>2000-01-01T02:45:37Z</time>
      </trkpt>
      <trkpt lat="50.11804" lon="5.55986">
        <ele>449</ele>
        <time>2000-01-01T02:45:47Z</time>
      </trkpt>
      <trkpt lat="50.11787" lon="5.5593">
        <ele>449</ele>
        <time>2000-01-01T02:45:57Z</time>
      </trkpt>
      <trkpt lat="50.11773" lon="5.55895">
        <ele>445</ele>
        <time>2000-01-01T02:46:07Z</time>
      </trkpt>
      <trkpt lat="50.1175" lon="5.55838">
        <ele>433</ele>
        <time>2000-01-01T02:46:17Z</time>
      </trkpt>
      <trkpt lat="50.11739" lon="5.55805">
        <ele>428</ele>
        <time>2000-01-01T02:46:27Z</time>
      </trkpt>
      <trkpt lat="50.11736" lon="5.55792">
        <ele>440.8</ele>
        <time>2000-01-01T02:46:37Z</time>
      </trkpt>
      <trkpt lat="50.11726" lon="5.55717">
        <ele>427</ele>
        <time>2000-01-01T02:46:47Z</time>
      </trkpt>
      <trkpt lat="50.11703" lon="5.55728">
        <ele>426</ele>
        <time>2000-01-01T02:46:57Z</time>
      </trkpt>
      <trkpt lat="50.11675" lon="5.5575">
        <ele>427</ele>
        <time>2000-01-01T02:47:07Z</time>
      </trkpt>
      <trkpt lat="50.11647" lon="5.55771">
        <ele>429</ele>
        <time>2000-01-01T02:47:17Z</time>
      </trkpt>
      <trkpt lat="50.11626" lon="5.55787">
        <ele>430</ele>
        <time>2000-01-01T02:47:27Z</time>
      </trkpt>
      <trkpt lat="50.11603" lon="5.55806">
        <ele>430</ele>
        <time>2000-01-01T02:47:37Z</time>
      </trkpt>
      <trkpt lat="50.11589" lon="5.55823">
        <ele>430</ele>
        <time>2000-01-01T02:47:47Z</time>
      </trkpt>
      <trkpt lat="50.11572" lon="5.55854">
        <ele>432</ele>
        <time>2000-01-01T02:47:57Z</time>
      </trkpt>
      <trkpt lat="50.11546" lon="5.55902">
        <ele>433</ele>
        <time>2000-01-01T02:48:07Z</time>
      </trkpt>
      <trkpt lat="50.11521" lon="5.55942">
        <ele>434</ele>
        <time>2000-01-01T02:48:17Z</time>
      </trkpt>
      <trkpt lat="50.11495" lon="5.55982">
        <ele>434</ele>
        <time>2000-01-01T02:48:27Z</time>
      </trkpt>
      <trkpt lat="50.11469" lon="5.56023">
        <ele>434</ele>
        <time>2000-01-01T02:48:37Z</time>
      </trkpt>
      <trkpt lat="50.11444" lon="5.56063">
        <ele>432</ele>
        <time>2000-01-01T02:48:47Z</time>
      </trkpt>
      <trkpt lat="50.11418" lon="5.56104">
        <ele>432</ele>
        <time>2000-01-01T02:48:57Z</time>
      </trkpt>
      <trkpt lat="50.11402" lon="5.5613">
        <ele>432</ele>
        <time>2000-01-01T02:49:07Z</time>
      </trkpt>
      <trkpt lat="50.11382" lon="5.5616">
        <ele>432</ele>
        <time>2000-01-01T02:49:17Z</time>
      </trkpt>
      <trkpt lat="50.11364" lon="5.5619">
        <ele>432</ele>
        <time>2000-01-01T02:49:27Z</time>
      </trkpt>
      <trkpt lat="50.11335" lon="5.56238">
        <ele>432</ele>
        <time>2000-01-01T02:49:37Z</time>
      </trkpt>
      <trkpt lat="50.11298" lon="5.56257">
        <ele>432</ele>
        <time>2000-01-01T02:49:47Z</time>
      </trkpt>
      <trkpt lat="50.1127" lon="5.56266">
        <ele>431</ele>
        <time>2000-01-01T02:49:57Z</time>
      </trkpt>
      <trkpt lat="50.11247" lon="5.56274">
        <ele>430</ele>
        <time>2000-01-01T02:50:07Z</time>
      </trkpt>
      <trkpt lat="50.11218" lon="5.56283">
        <ele>427</ele>
        <time>2000-01-01T02:50:17Z</time>
      </trkpt>
      <trkpt lat="50.11198" lon="5.56294">
        <ele>423</ele>
        <time>2000-01-01T02:50:27Z</time>
      </trkpt>
      <trkpt lat="50.11171" lon="5.56315">
        <ele>421</ele>
        <time>2000-01-01T02:50:37Z</time>
      </trkpt>
      <trkpt lat="50.11143" lon="5.56336">
        <ele>421</ele>
        <time>2000-01-01T02:50:47Z</time>
      </trkpt>
      <trkpt lat="50.11123" lon="5.56351">
        <ele>424</ele>
        <time>2000-01-01T02:50:57Z</time>
      </trkpt>
      <trkpt lat="50.11102" lon="5.56367">
        <ele>424</ele>
        <time>2000-01-01T02:51:07Z</time>
      </trkpt>
      <trkpt lat="50.11072" lon="5.56386">
        <ele>428</ele>
        <time>2000-01-01T02:51:17Z</time>
      </trkpt>
      <trkpt lat="50.11043" lon="5.56406">
        <ele>428</ele>
        <time>2000-01-01T02:51:27Z</time>
      </trkpt>
      <trkpt lat="50.11019" lon="5.56421">
        <ele>428</ele>
        <time>2000-01-01T02:51:37Z</time>
      </trkpt>
      <trkpt lat="50.10984" lon="5.56443">
        <ele>428</ele>
        <time>2000-01-01T02:51:47Z</time>
      </trkpt>
      <trkpt lat="50.10957" lon="5.56465">
        <ele>428</ele>
        <time>2000-01-01T02:51:57Z</time>
      </trkpt>
      <trkpt lat="50.1093" lon="5.56487">
        <ele>427</ele>
        <time>2000-01-01T02:52:07Z</time>
      </trkpt>
      <trkpt lat="50.10911" lon="5.56502">
        <ele>425</ele>
        <time>2000-01-01T02:52:17Z</time>
      </trkpt>
      <trkpt lat="50.10892" lon="5.56518">
        <ele>423</ele>
        <time>2000-01-01T02:52:27Z</time>
      </trkpt>
      <trkpt lat="50.1086" lon="5.56547">
        <ele>421</ele>
        <time>2000-01-01T02:52:37Z</time>
      </trkpt>
      <trkpt lat="50.10828" lon="5.56577">
        <ele>417</ele>
        <time>2000-01-01T02:52:47Z</time>
      </trkpt>
      <trkpt lat="50.10797" lon="5.56606">
        <ele>412</ele>
        <time>2000-01-01T02:52:57Z</time>
      </trkpt>
      <trkpt lat="50.10765" lon="5.56635">
        <ele>412</ele>
        <time>2000-01-01T02:53:07Z</time>
      </trkpt>
      <trkpt lat="50.10734" lon="5.56665">
        <ele>407</ele>
        <time>2000-01-01T02:53:17Z</time>
      </trkpt>
      <trkpt lat="50.10711" lon="5.56685">
        <ele>407</ele>
        <time>2000-01-01T02:53:27Z</time>
      </trkpt>
      <trkpt lat="50.10679" lon="5.56715">
        <ele>405</ele>
        <time>2000-01-01T02:53:37Z</time>
      </trkpt>
      <trkpt lat="50.10651" lon="5.56738">
        <ele>403</ele>
        <time>2000-01-01T02:53:47Z</time>
      </trkpt>
      <trkpt lat="50.10624" lon="5.56761">
        <ele>403</ele>
        <time>2000-01-01T02:53:57Z</time>
      </trkpt>
      <trkpt lat="50.10603" lon="5.56778">
        <ele>404</ele>
        <time>2000-01-01T02:54:07Z</time>
      </trkpt>
      <trkpt lat="50.10578" lon="5.56799">
        <ele>405</ele>
        <time>2000-01-01T02:54:17Z</time>
      </trkpt>
      <trkpt lat="50.1056" lon="5.56812">
        <ele>406</ele>
        <time>2000-01-01T02:54:27Z</time>
      </trkpt>
      <trkpt lat="50.10573" lon="5.56868">
        <ele>406</ele>
        <time>2000-01-01T02:54:37Z</time>
      </trkpt>
      <trkpt lat="50.10586" lon="5.56923">
        <ele>407</ele>
        <time>2000-01-01T02:54:47Z</time>
      </trkpt>
      <trkpt lat="50.10599" lon="5.56979">
        <ele>407</ele>
        <time>2000-01-01T02:54:57Z</time>
      </trkpt>
      <trkpt lat="50.10612" lon="5.57034">
        <ele>405</ele>
        <time>2000-01-01T02:55:07Z</time>
      </trkpt>
      <trkpt lat="50.10625" lon="5.5709">
        <ele>402</ele>
        <time>2000-01-01T02:55:17Z</time>
      </trkpt>
      <trkpt lat="50.10638" lon="5.57146">
        <ele>400</ele>
        <time>2000-01-01T02:55:27Z</time>
      </trkpt>
      <trkpt lat="50.10651" lon="5.57201">
        <ele>396</ele>
        <time>2000-01-01T02:55:37Z</time>
      </trkpt>
      <trkpt lat="50.10658" lon="5.57234">
        <ele>394</ele>
        <time>2000-01-01T02:55:47Z</time>
      </trkpt>
      <trkpt lat="50.10666" lon="5.57269">
        <ele>391</ele>
        <time>2000-01-01T02:55:57Z</time>
      </trkpt>
      <trkpt lat="50.10675" lon="5.57307">
        <ele>387</ele>
        <time>2000-01-01T02:56:07Z</time>
      </trkpt>
      <trkpt lat="50.10688" lon="5.57367">
        <ele>387</ele>
        <time>2000-01-01T02:56:17Z</time>
      </trkpt>
      <trkpt lat="50.10694" lon="5.57405">
        <ele>387</ele>
        <time>2000-01-01T02:56:27Z</time>
      </trkpt>
      <trkpt lat="50.10697" lon="5.57456">
        <ele>387</ele>
        <time>2000-01-01T02:56:37Z</time>
      </trkpt>
      <trkpt lat="50.10695" lon="5.57472">
        <ele>398</ele>
        <time>2000-01-01T02:56:47Z</time>
      </trkpt>
      <trkpt lat="50.10678" lon="5.57519">
        <ele>383</ele>
        <time>2000-01-01T02:56:57Z</time>
      </trkpt>
      <trkpt lat="50.10667" lon="5.57557">
        <ele>382</ele>
        <time>2000-01-01T02:57:07Z</time>
      </trkpt>
      <trkpt lat="50.10665" lon="5.57593">
        <ele>381</ele>
        <time>2000-01-01T02:57:17Z</time>
      </trkpt>
      <trkpt lat="50.10659" lon="5.57609">
        <ele>392.2</ele>
        <time>2000-01-01T02:57:27Z</time>
      </trkpt>
      <trkpt lat="50.10648" lon="5.57613">
        <ele>379</ele>
        <time>2000-01-01T02:57:37Z</time>
      </trkpt>
      <trkpt lat="50.10625" lon="5.57616">
        <ele>379</ele>
        <time>2000-01-01T02:57:47Z</time>
      </trkpt>
      <trkpt lat="50.10595" lon="5.57624">
        <ele>378</ele>
        <time>2000-01-01T02:57:57Z</time>
      </trkpt>
      <trkpt lat="50.10568" lon="5.57607">
        <ele>378</ele>
        <time>2000-01-01T02:58:07Z</time>
      </trkpt>
      <trkpt lat="50.10545" lon="5.57589">
        <ele>379</ele>
        <time>2000-01-01T02:58:17Z</time>
      </trkpt>
      <trkpt lat="50.1053" lon="5.57598">
        <ele>386.4</ele>
        <time>2000-01-01T02:58:27Z</time>
      </trkpt>
      <trkpt lat="50.10513" lon="5.57596">
        <ele>379</ele>
        <time>2000-01-01T02:58:37Z</time>
      </trkpt>
      <trkpt lat="50.10486" lon="5.57587">
        <ele>379</ele>
        <time>2000-01-01T02:58:47Z</time>
      </trkpt>
      <trkpt lat="50.10474" lon="5.57587">
        <ele>388</ele>
        <time>2000-01-01T02:58:57Z</time>
      </trkpt>
      <trkpt lat="50.10461" lon="5.57589">
        <ele>379</ele>
        <time>2000-01-01T02:59:07Z</time>
      </trkpt>
      <trkpt lat="50.10453" lon="5.57594">
        <ele>389.5</ele>
        <time>2000-01-01T02:59:17Z</time>
      </trkpt>
      <trkpt lat="50.10446" lon="5.576">
        <ele>389.7</ele>
        <time>2000-01-01T02:59:27Z</time>
      </trkpt>
      <trkpt lat="50.10441" lon="5.57611">
        <ele>377</ele>
        <time>2000-01-01T02:59:37Z</time>
      </trkpt>
      <trkpt lat="50.1043" lon="5.57663">
        <ele>377</ele>
        <time>2000-01-01T02:59:47Z</time>
      </trkpt>
      <trkpt lat="50.10423" lon="5.57681">
        <ele>391.5</ele>
        <time>2000-01-01T02:59:57Z</time>
      </trkpt>
      <trkpt lat="50.10415" lon="5.57693">
        <ele>378</ele>
        <time>2000-01-01T03:00:07Z</time>
      </trkpt>
      <trkpt lat="50.10376" lon="5.5772">
        <ele>389</ele>
        <time>2000-01-01T03:00:17Z</time>
      </trkpt>
      <trkpt lat="50.10357" lon="5.57728">
        <ele>389</ele>
        <time>2000-01-01T03:00:27Z</time>
      </trkpt>
      <trkpt lat="50.10337" lon="5.57744">
        <ele>389</ele>
        <time>2000-01-01T03:00:37Z</time>
      </trkpt>
      <trkpt lat="50.1032" lon="5.57764">
        <ele>389</ele>
        <time>2000-01-01T03:00:47Z</time>
      </trkpt>
      <trkpt lat="50.10303" lon="5.57794">
        <ele>392</ele>
        <time>2000-01-01T03:00:57Z</time>
      </trkpt>
      <trkpt lat="50.10276" lon="5.57839">
        <ele>393</ele>
        <time>2000-01-01T03:01:07Z</time>
      </trkpt>
      <trkpt lat="50.10251" lon="5.57876">
        <ele>394</ele>
        <time>2000-01-01T03:01:17Z</time>
      </trkpt>
      <trkpt lat="50.10232" lon="5.57898">
        <ele>398</ele>
        <time>2000-01-01T03:01:27Z</time>
      </trkpt>
      <trkpt lat="50.1022" lon="5.57914">
        <ele>412.9</ele>
        <time>2000-01-01T03:01:37Z</time>
      </trkpt>
      <trkpt lat="50.10167" lon="5.57994">
        <ele>400</ele>
        <time>2000-01-01T03:01:47Z</time>
      </trkpt>
      <trkpt lat="50.10154" lon="5.58006">
        <ele>415.1</ele>
        <time>2000-01-01T03:01:57Z</time>
      </trkpt>
      <trkpt lat="50.1014" lon="5.58015">
        <ele>403</ele>
        <time>2000-01-01T03:02:07Z</time>
      </trkpt>
      <trkpt lat="50.10126" lon="5.58017">
        <ele>415.6</ele>
        <time>2000-01-01T03:02:17Z</time>
      </trkpt>
      <trkpt lat="50.10094" lon="5.58015">
        <ele>406</ele>
        <time>2000-01-01T03:02:27Z</time>
      </trkpt>
      <trkpt lat="50.10084" lon="5.58008">
        <ele>417</ele>
        <time>2000-01-01T03:02:37Z</time>
      </trkpt>
      <trkpt lat="50.09999" lon="5.57978">
        <ele>410</ele>
        <time>2000-01-01T03:02:47Z</time>
      </trkpt>
      <trkpt lat="50.09977" lon="5.57974">
        <ele>411</ele>
        <time>2000-01-01T03:02:57Z</time>
      </trkpt>
      <trkpt lat="50.09955" lon="5.57971">
        <ele>413</ele>
        <time>2000-01-01T03:03:07Z</time>
      </trkpt>
      <trkpt lat="50.09928" lon="5.57971">
        <ele>414</ele>
        <time>2000-01-01T03:03:17Z</time>
      </trkpt>
      <trkpt lat="50.09903" lon="5.57975">
        <ele>414</ele>
        <time>2000-01-01T03:03:27Z</time>
      </trkpt>
      <trkpt lat="50.0988" lon="5.57982">
        <ele>414</ele>
        <time>2000-01-01T03:03:37Z</time>
      </trkpt>
      <trkpt lat="50.09858" lon="5.57993">
        <ele>411</ele>
        <time>2000-01-01T03:03:47Z</time>
      </trkpt>
      <trkpt lat="50.09829" lon="5.58004">
        <ele>409</ele>
        <time>2000-01-01T03:03:57Z</time>
      </trkpt>
      <trkpt lat="50.09801" lon="5.5801">
        <ele>409</ele>
        <time>2000-01-01T03:04:07Z</time>
      </trkpt>
      <trkpt lat="50.09778" lon="5.58016">
        <ele>409</ele>
        <time>2000-01-01T03:04:17Z</time>
      </trkpt>
      <trkpt lat="50.09749" lon="5.58022">
        <ele>407</ele>
        <time>2000-01-01T03:04:27Z</time>
      </trkpt>
      <trkpt lat="50.09732" lon="5.58029">
        <ele>418.3</ele>
        <time>2000-01-01T03:04:37Z</time>
      </trkpt>
      <trkpt lat="50.09708" lon="5.58045">
        <ele>407</ele>
        <time>2000-01-01T03:04:47Z</time>
      </trkpt>
      <trkpt lat="50.09678" lon="5.58069">
        <ele>407</ele>
        <time>2000-01-01T03:04:57Z</time>
      </trkpt>
      <trkpt lat="50.09649" lon="5.58093">
        <ele>403</ele>
        <time>2000-01-01T03:05:07Z</time>
      </trkpt>
      <trkpt lat="50.0962" lon="5.58117">
        <ele>398</ele>
        <time>2000-01-01T03:05:17Z</time>
      </trkpt>
      <trkpt lat="50.09585" lon="5.58146">
        <ele>396</ele>
        <time>2000-01-01T03:05:27Z</time>
      </trkpt>
      <trkpt lat="50.09561" lon="5.58157">
        <ele>392</ele>
        <time>2000-01-01T03:05:37Z</time>
      </trkpt>
      <trkpt lat="50.09531" lon="5.58172">
        <ele>390</ele>
        <time>2000-01-01T03:05:47Z</time>
      </trkpt>
      <trkpt lat="50.09514" lon="5.58182">
        <ele>389</ele>
        <time>2000-01-01T03:05:57Z</time>
      </trkpt>
      <trkpt lat="50.09486" lon="5.582">
        <ele>389</ele>
        <time>2000-01-01T03:06:07Z</time>
      </trkpt>
      <trkpt lat="50.09458" lon="5.58219">
        <ele>389</ele>
        <time>2000-01-01T03:06:17Z</time>
      </trkpt>
      <trkpt lat="50.09422" lon="5.58243">
        <ele>389</ele>
        <time>2000-01-01T03:06:27Z</time>
      </trkpt>
      <trkpt lat="50.09391" lon="5.58253">
        <ele>389</ele>
        <time>2000-01-01T03:06:37Z</time>
      </trkpt>
      <trkpt lat="50.09378" lon="5.58253">
        <ele>397.7</ele>
        <time>2000-01-01T03:06:47Z</time>
      </trkpt>
      <trkpt lat="50.09359" lon="5.58241">
        <ele>389</ele>
        <time>2000-01-01T03:06:57Z</time>
      </trkpt>
      <trkpt lat="50.09341" lon="5.58234">
        <ele>389</ele>
        <time>2000-01-01T03:07:07Z</time>
      </trkpt>
      <trkpt lat="50.09325" lon="5.58225">
        <ele>397.2</ele>
        <time>2000-01-01T03:07:17Z</time>
      </trkpt>
      <trkpt lat="50.09283" lon="5.58216">
        <ele>392</ele>
        <time>2000-01-01T03:07:27Z</time>
      </trkpt>
      <trkpt lat="50.09243" lon="5.58198">
        <ele>392</ele>
        <time>2000-01-01T03:07:37Z</time>
      </trkpt>
      <trkpt lat="50.09217" lon="5.58188">
        <ele>391</ele>
        <time>2000-01-01T03:07:47Z</time>
      </trkpt>
      <trkpt lat="50.09175" lon="5.58171">
        <ele>391</ele>
        <time>2000-01-01T03:07:57Z</time>
      </trkpt>
      <trkpt lat="50.09148" lon="5.58156">
        <ele>384</ele>
        <time>2000-01-01T03:08:07Z</time>
      </trkpt>
      <trkpt lat="50.09129" lon="5.58141">
        <ele>380</ele>
        <time>2000-01-01T03:08:17Z</time>
      </trkpt>
      <trkpt lat="50.0911" lon="5.58125">
        <ele>378</ele>
        <time>2000-01-01T03:08:27Z</time>
      </trkpt>
      <trkpt lat="50.09078" lon="5.58112">
        <ele>380</ele>
        <time>2000-01-01T03:08:37Z</time>
      </trkpt>
      <trkpt lat="50.09057" lon="5.58101">
        <ele>382</ele>
        <time>2000-01-01T03:08:47Z</time>
      </trkpt>
      <trkpt lat="50.09033" lon="5.58088">
        <ele>381</ele>
        <time>2000-01-01T03:08:57Z</time>
      </trkpt>
      <trkpt lat="50.09008" lon="5.58069">
        <ele>380</ele>
        <time>2000-01-01T03:09:07Z</time>
      </trkpt>
      <trkpt lat="50.08987" lon="5.58049">
        <ele>375</ele>
        <time>2000-01-01T03:09:17Z</time>
      </trkpt>
      <trkpt lat="50.08967" lon="5.58024">
        <ele>375</ele>
        <time>2000-01-01T03:09:27Z</time>
      </trkpt>
      <trkpt lat="50.08936" lon="5.57985">
        <ele>367</ele>
        <time>2000-01-01T03:09:37Z</time>
      </trkpt>
      <trkpt lat="50.08913" lon="5.57951">
        <ele>369</ele>
        <time>2000-01-01T03:09:47Z</time>
      </trkpt>
      <trkpt lat="50.0889" lon="5.57917">
        <ele>371</ele>
        <time>2000-01-01T03:09:57Z</time>
      </trkpt>
      <trkpt lat="50.08873" lon="5.57891">
        <ele>371</ele>
        <time>2000-01-01T03:10:07Z</time>
      </trkpt>
      <trkpt lat="50.08852" lon="5.5786">
        <ele>370</ele>
        <time>2000-01-01T03:10:17Z</time>
      </trkpt>
      <trkpt lat="50.08824" lon="5.57833">
        <ele>369</ele>
        <time>2000-01-01T03:10:27Z</time>
      </trkpt>
      <trkpt lat="50.08796" lon="5.57806">
        <ele>356</ele>
        <time>2000-01-01T03:10:37Z</time>
      </trkpt>
      <trkpt lat="50.08767" lon="5.5778">
        <ele>352</ele>
        <time>2000-01-01T03:10:47Z</time>
      </trkpt>
      <trkpt lat="50.08731" lon="5.57746">
        <ele>345</ele>
        <time>2000-01-01T03:10:57Z</time>
      </trkpt>
      <trkpt lat="50.08706" lon="5.57724">
        <ele>339</ele>
        <time>2000-01-01T03:11:07Z</time>
      </trkpt>
      <trkpt lat="50.0868" lon="5.57702">
        <ele>333</ele>
        <time>2000-01-01T03:11:17Z</time>
      </trkpt>
      <trkpt lat="50.08653" lon="5.5768">
        <ele>330</ele>
        <time>2000-01-01T03:11:27Z</time>
      </trkpt>
      <trkpt lat="50.08646" lon="5.57662">
        <ele>330.2</ele>
        <time>2000-01-01T03:11:37Z</time>
      </trkpt>
      <trkpt lat="50.08646" lon="5.57641">
        <ele>332</ele>
        <time>2000-01-01T03:11:47Z</time>
      </trkpt>
      <trkpt lat="50.08661" lon="5.5759">
        <ele>330</ele>
        <time>2000-01-01T03:11:57Z</time>
      </trkpt>
      <trkpt lat="50.08662" lon="5.57575">
        <ele>333.2</ele>
        <time>2000-01-01T03:12:07Z</time>
      </trkpt>
      <trkpt lat="50.08658" lon="5.57555">
        <ele>330</ele>
        <time>2000-01-01T03:12:17Z</time>
      </trkpt>
      <trkpt lat="50.08645" lon="5.57512">
        <ele>330</ele>
        <time>2000-01-01T03:12:27Z</time>
      </trkpt>
      <trkpt lat="50.08631" lon="5.57469">
        <ele>330</ele>
        <time>2000-01-01T03:12:37Z</time>
      </trkpt>
      <trkpt lat="50.08613" lon="5.57411">
        <ele>330</ele>
        <time>2000-01-01T03:12:47Z</time>
      </trkpt>
      <trkpt lat="50.08604" lon="5.57367">
        <ele>327</ele>
        <time>2000-01-01T03:12:57Z</time>
      </trkpt>
      <trkpt lat="50.08594" lon="5.57323">
        <ele>324</ele>
        <time>2000-01-01T03:13:07Z</time>
      </trkpt>
      <trkpt lat="50.08583" lon="5.57268">
        <ele>322</ele>
        <time>2000-01-01T03:13:17Z</time>
      </trkpt>
      <trkpt lat="50.08584" lon="5.57206">
        <ele>322</ele>
        <time>2000-01-01T03:13:27Z</time>
      </trkpt>
      <trkpt lat="50.08588" lon="5.57158">
        <ele>322</ele>
        <time>2000-01-01T03:13:37Z</time>
      </trkpt>
      <trkpt lat="50.08559" lon="5.57174">
        <ele>322</ele>
        <time>2000-01-01T03:13:47Z</time>
      </trkpt>
      <trkpt lat="50.08531" lon="5.5719">
        <ele>320</ele>
        <time>2000-01-01T03:13:57Z</time>
      </trkpt>
      <trkpt lat="50.08491" lon="5.57211">
        <ele>320</ele>
        <time>2000-01-01T03:14:07Z</time>
      </trkpt>
      <trkpt lat="50.08472" lon="5.57186">
        <ele>320</ele>
        <time>2000-01-01T03:14:17Z</time>
      </trkpt>
      <trkpt lat="50.08451" lon="5.57173">
        <ele>324</ele>
        <time>2000-01-01T03:14:27Z</time>
      </trkpt>
      <trkpt lat="50.08425" lon="5.57158">
        <ele>330</ele>
        <time>2000-01-01T03:14:37Z</time>
      </trkpt>
      <trkpt lat="50.08396" lon="5.57133">
        <ele>331</ele>
        <time>2000-01-01T03:14:47Z</time>
      </trkpt>
      <trkpt lat="50.08382" lon="5.57101">
        <ele>331</ele>
        <time>2000-01-01T03:14:57Z</time>
      </trkpt>
      <trkpt lat="50.08362" lon="5.57056">
        <ele>328</ele>
        <time>2000-01-01T03:15:07Z</time>
      </trkpt>
      <trkpt lat="50.08348" lon="5.57032">
        <ele>328</ele>
        <time>2000-01-01T03:15:17Z</time>
      </trkpt>
      <trkpt lat="50.08319" lon="5.56991">
        <ele>330</ele>
        <time>2000-01-01T03:15:27Z</time>
      </trkpt>
      <trkpt lat="50.08297" lon="5.56967">
        <ele>329</ele>
        <time>2000-01-01T03:15:37Z</time>
      </trkpt>
      <trkpt lat="50.08276" lon="5.56951">
        <ele>329</ele>
        <time>2000-01-01T03:15:47Z</time>
      </trkpt>
      <trkpt lat="50.08251" lon="5.56932">
        <ele>324</ele>
        <time>2000-01-01T03:15:57Z</time>
      </trkpt>
      <trkpt lat="50.08227" lon="5.56908">
        <ele>325</ele>
        <time>2000-01-01T03:16:07Z</time>
      </trkpt>
      <trkpt lat="50.08206" lon="5.56888">
        <ele>325</ele>
        <time>2000-01-01T03:16:17Z</time>
      </trkpt>
      <trkpt lat="50.0818" lon="5.56863">
        <ele>325</ele>
        <time>2000-01-01T03:16:27Z</time>
      </trkpt>
      <trkpt lat="50.08152" lon="5.56832">
        <ele>332</ele>
        <time>2000-01-01T03:16:37Z</time>
      </trkpt>
      <trkpt lat="50.08125" lon="5.56801">
        <ele>333</ele>
        <time>2000-01-01T03:16:47Z</time>
      </trkpt>
      <trkpt lat="50.08097" lon="5.5677">
        <ele>334</ele>
        <time>2000-01-01T03:16:57Z</time>
      </trkpt>
      <trkpt lat="50.08077" lon="5.56747">
        <ele>334</ele>
        <time>2000-01-01T03:17:07Z</time>
      </trkpt>
      <trkpt lat="50.08049" lon="5.56715">
        <ele>341</ele>
        <time>2000-01-01T03:17:17Z</time>
      </trkpt>
      <trkpt lat="50.08029" lon="5.56703">
        <ele>341</ele>
        <time>2000-01-01T03:17:27Z</time>
      </trkpt>
      <trkpt lat="50.08008" lon="5.5669">
        <ele>342</ele>
        <time>2000-01-01T03:17:37Z</time>
      </trkpt>
      <trkpt lat="50.0799" lon="5.56667">
        <ele>344</ele>
        <time>2000-01-01T03:17:47Z</time>
      </trkpt>
      <trkpt lat="50.07968" lon="5.5664">
        <ele>343</ele>
        <time>2000-01-01T03:17:57Z</time>
      </trkpt>
      <trkpt lat="50.07941" lon="5.56617">
        <ele>343</ele>
        <time>2000-01-01T03:18:07Z</time>
      </trkpt>
      <trkpt lat="50.07915" lon="5.56588">
        <ele>344</ele>
        <time>2000-01-01T03:18:17Z</time>
      </trkpt>
      <trkpt lat="50.07889" lon="5.5656">
        <ele>346</ele>
        <time>2000-01-01T03:18:27Z</time>
      </trkpt>
      <trkpt lat="50.07868" lon="5.56537">
        <ele>346</ele>
        <time>2000-01-01T03:18:37Z</time>
      </trkpt>
      <trkpt lat="50.07839" lon="5.56505">
        <ele>342</ele>
        <time>2000-01-01T03:18:47Z</time>
      </trkpt>
      <trkpt lat="50.07823" lon="5.56478">
        <ele>346</ele>
        <time>2000-01-01T03:18:57Z</time>
      </trkpt>
      <trkpt lat="50.07804" lon="5.56446">
        <ele>351</ele>
        <time>2000-01-01T03:19:07Z</time>
      </trkpt>
      <trkpt lat="50.07782" lon="5.56418">
        <ele>354</ele>
        <time>2000-01-01T03:19:17Z</time>
      </trkpt>
      <trkpt lat="50.07763" lon="5.56395">
        <ele>353</ele>
        <time>2000-01-01T03:19:27Z</time>
      </trkpt>
      <trkpt lat="50.07738" lon="5.56364">
        <ele>353</ele>
        <time>2000-01-01T03:19:37Z</time>
      </trkpt>
      <trkpt lat="50.07719" lon="5.56316">
        <ele>343</ele>
        <time>2000-01-01T03:19:47Z</time>
      </trkpt>
      <trkpt lat="50.077" lon="5.56267">
        <ele>343</ele>
        <time>2000-01-01T03:19:57Z</time>
      </trkpt>
      <trkpt lat="50.07681" lon="5.56218">
        <ele>342</ele>
        <time>2000-01-01T03:20:07Z</time>
      </trkpt>
      <trkpt lat="50.07662" lon="5.56169">
        <ele>341</ele>
        <time>2000-01-01T03:20:17Z</time>
      </trkpt>
      <trkpt lat="50.07642" lon="5.56121">
        <ele>339</ele>
        <time>2000-01-01T03:20:27Z</time>
      </trkpt>
      <trkpt lat="50.0763" lon="5.56088">
        <ele>338</ele>
        <time>2000-01-01T03:20:37Z</time>
      </trkpt>
      <trkpt lat="50.07613" lon="5.56045">
        <ele>338</ele>
        <time>2000-01-01T03:20:47Z</time>
      </trkpt>
      <trkpt lat="50.07606" lon="5.56002">
        <ele>339</ele>
        <time>2000-01-01T03:20:57Z</time>
      </trkpt>
      <trkpt lat="50.076" lon="5.55966">
        <ele>339</ele>
        <time>2000-01-01T03:21:07Z</time>
      </trkpt>
      <trkpt lat="50.07592" lon="5.55921">
        <ele>339</ele>
        <time>2000-01-01T03:21:17Z</time>
      </trkpt>
      <trkpt lat="50.07594" lon="5.55918">
        <ele>340.7</ele>
        <time>2000-01-01T03:21:27Z</time>
      </trkpt>
      <trkpt lat="50.07586" lon="5.5591">
        <ele>342</ele>
        <time>2000-01-01T03:21:37Z</time>
      </trkpt>
      <trkpt lat="50.07577" lon="5.55881">
        <ele>339</ele>
        <time>2000-01-01T03:21:47Z</time>
      </trkpt>
      <trkpt lat="50.07569" lon="5.55867">
        <ele>342.4</ele>
        <time>2000-01-01T03:21:57Z</time>
      </trkpt>
      <trkpt lat="50.07558" lon="5.55858">
        <ele>345</ele>
        <time>2000-01-01T03:22:07Z</time>
      </trkpt>
      <trkpt lat="50.07548" lon="5.55853">
        <ele>346.7</ele>
        <time>2000-01-01T03:22:17Z</time>
      </trkpt>
      <trkpt lat="50.07535" lon="5.5585">
        <ele>351</ele>
        <time>2000-01-01T03:22:27Z</time>
      </trkpt>
      <trkpt lat="50.07514" lon="5.5585">
        <ele>361</ele>
        <time>2000-01-01T03:22:37Z</time>
      </trkpt>
      <trkpt lat="50.07492" lon="5.5585">
        <ele>361</ele>
        <time>2000-01-01T03:22:47Z</time>
      </trkpt>
      <trkpt lat="50.07452" lon="5.55837">
        <ele>364</ele>
        <time>2000-01-01T03:22:57Z</time>
      </trkpt>
      <trkpt lat="50.07427" lon="5.55839">
        <ele>366</ele>
        <time>2000-01-01T03:23:07Z</time>
      </trkpt>
      <trkpt lat="50.07403" lon="5.55837">
        <ele>367</ele>
        <time>2000-01-01T03:23:17Z</time>
      </trkpt>
      <trkpt lat="50.07369" lon="5.55834">
        <ele>368</ele>
        <time>2000-01-01T03:23:27Z</time>
      </trkpt>
      <trkpt lat="50.07356" lon="5.55841">
        <ele>374.4</ele>
        <time>2000-01-01T03:23:37Z</time>
      </trkpt>
      <trkpt lat="50.07338" lon="5.55873">
        <ele>368</ele>
        <time>2000-01-01T03:23:47Z</time>
      </trkpt>
      <trkpt lat="50.07324" lon="5.5589">
        <ele>375</ele>
        <time>2000-01-01T03:23:57Z</time>
      </trkpt>
      <trkpt lat="50.0731" lon="5.55903">
        <ele>383</ele>
        <time>2000-01-01T03:24:07Z</time>
      </trkpt>
      <trkpt lat="50.07292" lon="5.55904">
        <ele>386</ele>
        <time>2000-01-01T03:24:17Z</time>
      </trkpt>
      <trkpt lat="50.07268" lon="5.55889">
        <ele>390</ele>
        <time>2000-01-01T03:24:27Z</time>
      </trkpt>
      <trkpt lat="50.07247" lon="5.55859">
        <ele>388</ele>
        <time>2000-01-01T03:24:37Z</time>
      </trkpt>
      <trkpt lat="50.07224" lon="5.55845">
        <ele>387</ele>
        <time>2000-01-01T03:24:47Z</time>
      </trkpt>
      <trkpt lat="50.07212" lon="5.55843">
        <ele>392</ele>
        <time>2000-01-01T03:24:57Z</time>
      </trkpt>
      <trkpt lat="50.07191" lon="5.55844">
        <ele>387</ele>
        <time>2000-01-01T03:25:07Z</time>
      </trkpt>
      <trkpt lat="50.07165" lon="5.55859">
        <ele>388</ele>
        <time>2000-01-01T03:25:17Z</time>
      </trkpt>
      <trkpt lat="50.0714" lon="5.55879">
        <ele>389</ele>
        <time>2000-01-01T03:25:27Z</time>
      </trkpt>
      <trkpt lat="50.07119" lon="5.55897">
        <ele>393</ele>
        <time>2000-01-01T03:25:37Z</time>
      </trkpt>
      <trkpt lat="50.07094" lon="5.55918">
        <ele>398</ele>
        <time>2000-01-01T03:25:47Z</time>
      </trkpt>
      <trkpt lat="50.07085" lon="5.55894">
        <ele>400</ele>
        <time>2000-01-01T03:25:57Z</time>
      </trkpt>
      <trkpt lat="50.07076" lon="5.55867">
        <ele>399</ele>
        <time>2000-01-01T03:26:07Z</time>
      </trkpt>
      <trkpt lat="50.07055" lon="5.55879">
        <ele>399</ele>
        <time>2000-01-01T03:26:17Z</time>
      </trkpt>
      <trkpt lat="50.07036" lon="5.55845">
        <ele>399</ele>
        <time>2000-01-01T03:26:27Z</time>
      </trkpt>
      <trkpt lat="50.07013" lon="5.55815">
        <ele>399</ele>
        <time>2000-01-01T03:26:37Z</time>
      </trkpt>
      <trkpt lat="50.06992" lon="5.55798">
        <ele>402</ele>
        <time>2000-01-01T03:26:47Z</time>
      </trkpt>
      <trkpt lat="50.06963" lon="5.55783">
        <ele>403</ele>
        <time>2000-01-01T03:26:57Z</time>
      </trkpt>
      <trkpt lat="50.06945" lon="5.55777">
        <ele>406</ele>
        <time>2000-01-01T03:27:07Z</time>
      </trkpt>
      <trkpt lat="50.06908" lon="5.55771">
        <ele>406</ele>
        <time>2000-01-01T03:27:17Z</time>
      </trkpt>
      <trkpt lat="50.06886" lon="5.5577">
        <ele>406</ele>
        <time>2000-01-01T03:27:27Z</time>
      </trkpt>
      <trkpt lat="50.06862" lon="5.55769">
        <ele>407</ele>
        <time>2000-01-01T03:27:37Z</time>
      </trkpt>
      <trkpt lat="50.06839" lon="5.55769">
        <ele>408</ele>
        <time>2000-01-01T03:27:47Z</time>
      </trkpt>
      <trkpt lat="50.06809" lon="5.55769">
        <ele>408</ele>
        <time>2000-01-01T03:27:57Z</time>
      </trkpt>
      <trkpt lat="50.06788" lon="5.55767">
        <ele>410</ele>
        <time>2000-01-01T03:28:07Z</time>
      </trkpt>
      <trkpt lat="50.06781" lon="5.55776">
        <ele>419.8</ele>
        <time>2000-01-01T03:28:17Z</time>
      </trkpt>
      <trkpt lat="50.06747" lon="5.5579">
        <ele>411</ele>
        <time>2000-01-01T03:28:27Z</time>
      </trkpt>
      <trkpt lat="50.06725" lon="5.55809">
        <ele>412</ele>
        <time>2000-01-01T03:28:37Z</time>
      </trkpt>
      <trkpt lat="50.06695" lon="5.55837">
        <ele>414</ele>
        <time>2000-01-01T03:28:47Z</time>
      </trkpt>
      <trkpt lat="50.06675" lon="5.55859">
        <ele>421</ele>
        <time>2000-01-01T03:28:57Z</time>
      </trkpt>
      <trkpt lat="50.06661" lon="5.5588">
        <ele>422</ele>
        <time>2000-01-01T03:29:07Z</time>
      </trkpt>
      <trkpt lat="50.06645" lon="5.55907">
        <ele>422</ele>
        <time>2000-01-01T03:29:17Z</time>
      </trkpt>
      <trkpt lat="50.0664" lon="5.55922">
        <ele>431.1</ele>
        <time>2000-01-01T03:29:27Z</time>
      </trkpt>
      <trkpt lat="50.06627" lon="5.55942">
        <ele>426</ele>
        <time>2000-01-01T03:29:37Z</time>
      </trkpt>
      <trkpt lat="50.06612" lon="5.5596">
        <ele>426</ele>
        <time>2000-01-01T03:29:47Z</time>
      </trkpt>
      <trkpt lat="50.06601" lon="5.55969">
        <ele>435.7</ele>
        <time>2000-01-01T03:29:57Z</time>
      </trkpt>
      <trkpt lat="50.06583" lon="5.5598">
        <ele>428</ele>
        <time>2000-01-01T03:30:07Z</time>
      </trkpt>
      <trkpt lat="50.06563" lon="5.5599">
        <ele>428</ele>
        <time>2000-01-01T03:30:17Z</time>
      </trkpt>
      <trkpt lat="50.06549" lon="5.55993">
        <ele>440.5</ele>
        <time>2000-01-01T03:30:27Z</time>
      </trkpt>
      <trkpt lat="50.06502" lon="5.55995">
        <ele>435</ele>
        <time>2000-01-01T03:30:37Z</time>
      </trkpt>
      <trkpt lat="50.06468" lon="5.56">
        <ele>437</ele>
        <time>2000-01-01T03:30:47Z</time>
      </trkpt>
      <trkpt lat="50.06451" lon="5.55998">
        <ele>448.6</ele>
        <time>2000-01-01T03:30:57Z</time>
      </trkpt>
      <trkpt lat="50.06435" lon="5.55993">
        <ele>445</ele>
        <time>2000-01-01T03:31:07Z</time>
      </trkpt>
      <trkpt lat="50.06403" lon="5.55976">
        <ele>449</ele>
        <time>2000-01-01T03:31:17Z</time>
      </trkpt>
      <trkpt lat="50.06379" lon="5.55965">
        <ele>451</ele>
        <time>2000-01-01T03:31:27Z</time>
      </trkpt>
      <trkpt lat="50.06348" lon="5.5595">
        <ele>456</ele>
        <time>2000-01-01T03:31:37Z</time>
      </trkpt>
      <trkpt lat="50.06324" lon="5.55946">
        <ele>456</ele>
        <time>2000-01-01T03:31:47Z</time>
      </trkpt>
      <trkpt lat="50.06293" lon="5.5594">
        <ele>455</ele>
        <time>2000-01-01T03:31:57Z</time>
      </trkpt>
      <trkpt lat="50.06259" lon="5.55931">
        <ele>455</ele>
        <time>2000-01-01T03:32:07Z</time>
      </trkpt>
      <trkpt lat="50.06234" lon="5.55934">
        <ele>454</ele>
        <time>2000-01-01T03:32:17Z</time>
      </trkpt>
      <trkpt lat="50.06199" lon="5.55938">
        <ele>453</ele>
        <time>2000-01-01T03:32:27Z</time>
      </trkpt>
      <trkpt lat="50.06176" lon="5.55945">
        <ele>453</ele>
        <time>2000-01-01T03:32:37Z</time>
      </trkpt>
      <trkpt lat="50.06152" lon="5.55945">
        <ele>459</ele>
        <time>2000-01-01T03:32:47Z</time>
      </trkpt>
      <trkpt lat="50.0612" lon="5.55945">
        <ele>463</ele>
        <time>2000-01-01T03:32:57Z</time>
      </trkpt>
      <trkpt lat="50.0609" lon="5.55947">
        <ele>462</ele>
        <time>2000-01-01T03:33:07Z</time>
      </trkpt>
      <trkpt lat="50.06069" lon="5.55944">
        <ele>462</ele>
        <time>2000-01-01T03:33:17Z</time>
      </trkpt>
      <trkpt lat="50.06051" lon="5.55947">
        <ele>462</ele>
        <time>2000-01-01T03:33:27Z</time>
      </trkpt>
      <trkpt lat="50.06016" lon="5.55936">
        <ele>476</ele>
        <time>2000-01-01T03:33:37Z</time>
      </trkpt>
      <trkpt lat="50.05989" lon="5.55931">
        <ele>476</ele>
        <time>2000-01-01T03:33:47Z</time>
      </trkpt>
      <trkpt lat="50.05965" lon="5.55933">
        <ele>476</ele>
        <time>2000-01-01T03:33:57Z</time>
      </trkpt>
      <trkpt lat="50.05936" lon="5.55936">
        <ele>469</ele>
        <time>2000-01-01T03:34:07Z</time>
      </trkpt>
      <trkpt lat="50.05907" lon="5.5592">
        <ele>469</ele>
        <time>2000-01-01T03:34:17Z</time>
      </trkpt>
      <trkpt lat="50.05895" lon="5.55916">
        <ele>467.8</ele>
        <time>2000-01-01T03:34:27Z</time>
      </trkpt>
      <trkpt lat="50.05859" lon="5.55922">
        <ele>469</ele>
        <time>2000-01-01T03:34:37Z</time>
      </trkpt>
      <trkpt lat="50.05832" lon="5.55921">
        <ele>469</ele>
        <time>2000-01-01T03:34:47Z</time>
      </trkpt>
      <trkpt lat="50.05809" lon="5.55921">
        <ele>469</ele>
        <time>2000-01-01T03:34:57Z</time>
      </trkpt>
      <trkpt lat="50.05786" lon="5.5592">
        <ele>473</ele>
        <time>2000-01-01T03:35:07Z</time>
      </trkpt>
      <trkpt lat="50.05758" lon="5.55923">
        <ele>475</ele>
        <time>2000-01-01T03:35:17Z</time>
      </trkpt>
      <trkpt lat="50.05735" lon="5.55936">
        <ele>475</ele>
        <time>2000-01-01T03:35:27Z</time>
      </trkpt>
      <trkpt lat="50.05701" lon="5.55955">
        <ele>471</ele>
        <time>2000-01-01T03:35:37Z</time>
      </trkpt>
      <trkpt lat="50.0568" lon="5.55984">
        <ele>470</ele>
        <time>2000-01-01T03:35:47Z</time>
      </trkpt>
      <trkpt lat="50.05661" lon="5.56015">
        <ele>470</ele>
        <time>2000-01-01T03:35:57Z</time>
      </trkpt>
      <trkpt lat="50.05644" lon="5.56041">
        <ele>470</ele>
        <time>2000-01-01T03:36:07Z</time>
      </trkpt>
      <trkpt lat="50.05623" lon="5.56073">
        <ele>470</ele>
        <time>2000-01-01T03:36:17Z</time>
      </trkpt>
      <trkpt lat="50.05616" lon="5.56084">
        <ele>480.6</ele>
        <time>2000-01-01T03:36:27Z</time>
      </trkpt>
      <trkpt lat="50.05607" lon="5.56089">
        <ele>470</ele>
        <time>2000-01-01T03:36:37Z</time>
      </trkpt>
      <trkpt lat="50.05584" lon="5.56096">
        <ele>470</ele>
        <time>2000-01-01T03:36:47Z</time>
      </trkpt>
      <trkpt lat="50.05569" lon="5.56096">
        <ele>482.7</ele>
        <time>2000-01-01T03:36:57Z</time>
      </trkpt>
      <trkpt lat="50.05536" lon="5.56078">
        <ele>480</ele>
        <time>2000-01-01T03:37:07Z</time>
      </trkpt>
      <trkpt lat="50.05514" lon="5.56071">
        <ele>480</ele>
        <time>2000-01-01T03:37:17Z</time>
      </trkpt>
      <trkpt lat="50.0549" lon="5.56062">
        <ele>480</ele>
        <time>2000-01-01T03:37:27Z</time>
      </trkpt>
      <trkpt lat="50.05466" lon="5.56073">
        <ele>480</ele>
        <time>2000-01-01T03:37:37Z</time>
      </trkpt>
      <trkpt lat="50.05453" lon="5.56083">
        <ele>481.3</ele>
        <time>2000-01-01T03:37:47Z</time>
      </trkpt>
      <trkpt lat="50.05415" lon="5.56078">
        <ele>480</ele>
        <time>2000-01-01T03:37:57Z</time>
      </trkpt>
      <trkpt lat="50.05402" lon="5.56068">
        <ele>478.2</ele>
        <time>2000-01-01T03:38:07Z</time>
      </trkpt>
      <trkpt lat="50.0537" lon="5.56032">
        <ele>468</ele>
        <time>2000-01-01T03:38:17Z</time>
      </trkpt>
      <trkpt lat="50.05347" lon="5.56021">
        <ele>466</ele>
        <time>2000-01-01T03:38:27Z</time>
      </trkpt>
      <trkpt lat="50.05333" lon="5.56016">
        <ele>475</ele>
        <time>2000-01-01T03:38:37Z</time>
      </trkpt>
      <trkpt lat="50.05339" lon="5.56035">
        <ele>466</ele>
        <time>2000-01-01T03:38:47Z</time>
      </trkpt>
      <trkpt lat="50.05335" lon="5.5606">
        <ele>475.1</ele>
        <time>2000-01-01T03:38:57Z</time>
      </trkpt>
      <trkpt lat="50.05306" lon="5.56172">
        <ele>465</ele>
        <time>2000-01-01T03:39:07Z</time>
      </trkpt>
      <trkpt lat="50.05267" lon="5.56179">
        <ele>465</ele>
        <time>2000-01-01T03:39:17Z</time>
      </trkpt>
      <trkpt lat="50.0524" lon="5.56203">
        <ele>464</ele>
        <time>2000-01-01T03:39:27Z</time>
      </trkpt>
      <trkpt lat="50.0521" lon="5.56207">
        <ele>464</ele>
        <time>2000-01-01T03:39:37Z</time>
      </trkpt>
      <trkpt lat="50.0518" lon="5.56211">
        <ele>460</ele>
        <time>2000-01-01T03:39:47Z</time>
      </trkpt>
      <trkpt lat="50.05139" lon="5.56216">
        <ele>460</ele>
        <time>2000-01-01T03:39:57Z</time>
      </trkpt>
      <trkpt lat="50.05103" lon="5.56224">
        <ele>454</ele>
        <time>2000-01-01T03:40:07Z</time>
      </trkpt>
      <trkpt lat="50.0507" lon="5.56235">
        <ele>451</ele>
        <time>2000-01-01T03:40:17Z</time>
      </trkpt>
      <trkpt lat="50.0505" lon="5.56246">
        <ele>452</ele>
        <time>2000-01-01T03:40:27Z</time>
      </trkpt>
      <trkpt lat="50.0504" lon="5.5626">
        <ele>456.5</ele>
        <time>2000-01-01T03:40:37Z</time>
      </trkpt>
      <trkpt lat="50.05027" lon="5.56271">
        <ele>452</ele>
        <time>2000-01-01T03:40:47Z</time>
      </trkpt>
      <trkpt lat="50.05003" lon="5.56282">
        <ele>452</ele>
        <time>2000-01-01T03:40:57Z</time>
      </trkpt>
      <trkpt lat="50.04963" lon="5.56286">
        <ele>447</ele>
        <time>2000-01-01T03:41:07Z</time>
      </trkpt>
      <trkpt lat="50.04932" lon="5.56286">
        <ele>435</ele>
        <time>2000-01-01T03:41:17Z</time>
      </trkpt>
      <trkpt lat="50.04907" lon="5.56297">
        <ele>435</ele>
        <time>2000-01-01T03:41:27Z</time>
      </trkpt>
      <trkpt lat="50.04888" lon="5.5634">
        <ele>436</ele>
        <time>2000-01-01T03:41:37Z</time>
      </trkpt>
      <trkpt lat="50.04869" lon="5.56383">
        <ele>436</ele>
        <time>2000-01-01T03:41:47Z</time>
      </trkpt>
      <trkpt lat="50.0485" lon="5.56426">
        <ele>437</ele>
        <time>2000-01-01T03:41:57Z</time>
      </trkpt>
      <trkpt lat="50.04838" lon="5.56454">
        <ele>437</ele>
        <time>2000-01-01T03:42:07Z</time>
      </trkpt>
      <trkpt lat="50.04824" lon="5.56485">
        <ele>437</ele>
        <time>2000-01-01T03:42:17Z</time>
      </trkpt>
      <trkpt lat="50.04808" lon="5.56509">
        <ele>436</ele>
        <time>2000-01-01T03:42:27Z</time>
      </trkpt>
      <trkpt lat="50.04782" lon="5.5654">
        <ele>436</ele>
        <time>2000-01-01T03:42:37Z</time>
      </trkpt>
      <trkpt lat="50.04754" lon="5.56565">
        <ele>436</ele>
        <time>2000-01-01T03:42:47Z</time>
      </trkpt>
      <trkpt lat="50.04736" lon="5.56545">
        <ele>437</ele>
        <time>2000-01-01T03:42:57Z</time>
      </trkpt>
      <trkpt lat="50.04718" lon="5.56524">
        <ele>437</ele>
        <time>2000-01-01T03:43:07Z</time>
      </trkpt>
      <trkpt lat="50.04708" lon="5.56517">
        <ele>447.7</ele>
        <time>2000-01-01T03:43:17Z</time>
      </trkpt>
      <trkpt lat="50.04698" lon="5.56518">
        <ele>443</ele>
        <time>2000-01-01T03:43:27Z</time>
      </trkpt>
      <trkpt lat="50.04689" lon="5.56524">
        <ele>447.9</ele>
        <time>2000-01-01T03:43:37Z</time>
      </trkpt>
      <trkpt lat="50.04591" lon="5.56721">
        <ele>449</ele>
        <time>2000-01-01T03:43:47Z</time>
      </trkpt>
      <trkpt lat="50.04588" lon="5.56739">
        <ele>455.2</ele>
        <time>2000-01-01T03:43:57Z</time>
      </trkpt>
      <trkpt lat="50.04587" lon="5.56786">
        <ele>450</ele>
        <time>2000-01-01T03:44:07Z</time>
      </trkpt>
      <trkpt lat="50.04584" lon="5.56801">
        <ele>455.1</ele>
        <time>2000-01-01T03:44:17Z</time>
      </trkpt>
      <trkpt lat="50.04601" lon="5.56828">
        <ele>453</ele>
        <time>2000-01-01T03:44:27Z</time>
      </trkpt>
      <trkpt lat="50.04606" lon="5.56839">
        <ele>455.8</ele>
        <time>2000-01-01T03:44:37Z</time>
      </trkpt>
      <trkpt lat="50.0461" lon="5.56862">
        <ele>453</ele>
        <time>2000-01-01T03:44:47Z</time>
      </trkpt>
      <trkpt lat="50.04611" lon="5.56875">
        <ele>456</ele>
        <time>2000-01-01T03:44:57Z</time>
      </trkpt>
      <trkpt lat="50.04594" lon="5.56944">
        <ele>453</ele>
        <time>2000-01-01T03:45:07Z</time>
      </trkpt>
      <trkpt lat="50.04567" lon="5.56934">
        <ele>453</ele>
        <time>2000-01-01T03:45:17Z</time>
      </trkpt>
      <trkpt lat="50.04543" lon="5.56922">
        <ele>455</ele>
        <time>2000-01-01T03:45:27Z</time>
      </trkpt>
      <trkpt lat="50.04517" lon="5.56895">
        <ele>454</ele>
        <time>2000-01-01T03:45:37Z</time>
      </trkpt>
      <trkpt lat="50.04498" lon="5.56872">
        <ele>454</ele>
        <time>2000-01-01T03:45:47Z</time>
      </trkpt>
      <trkpt lat="50.04481" lon="5.56847">
        <ele>450</ele>
        <time>2000-01-01T03:45:57Z</time>
      </trkpt>
      <trkpt lat="50.04461" lon="5.56817">
        <ele>449</ele>
        <time>2000-01-01T03:46:07Z</time>
      </trkpt>
      <trkpt lat="50.04448" lon="5.5679">
        <ele>449</ele>
        <time>2000-01-01T03:46:17Z</time>
      </trkpt>
      <trkpt lat="50.04436" lon="5.56756">
        <ele>447</ele>
        <time>2000-01-01T03:46:27Z</time>
      </trkpt>
      <trkpt lat="50.04427" lon="5.56703">
        <ele>445</ele>
        <time>2000-01-01T03:46:37Z</time>
      </trkpt>
      <trkpt lat="50.04425" lon="5.56678">
        <ele>448.2</ele>
        <time>2000-01-01T03:46:47Z</time>
      </trkpt>
      <trkpt lat="50.04419" lon="5.56676">
        <ele>444</ele>
        <time>2000-01-01T03:46:57Z</time>
      </trkpt>
      <trkpt lat="50.04415" lon="5.56672">
        <ele>447.8</ele>
        <time>2000-01-01T03:47:07Z</time>
      </trkpt>
      <trkpt lat="50.04412" lon="5.56663">
        <ele>447.5</ele>
        <time>2000-01-01T03:47:17Z</time>
      </trkpt>
      <trkpt lat="50.0441" lon="5.56645">
        <ele>439</ele>
        <time>2000-01-01T03:47:27Z</time>
      </trkpt>
      <trkpt lat="50.04409" lon="5.56601">
        <ele>437</ele>
        <time>2000-01-01T03:47:37Z</time>
      </trkpt>
      <trkpt lat="50.04406" lon="5.56584">
        <ele>448.5</ele>
        <time>2000-01-01T03:47:47Z</time>
      </trkpt>
      <trkpt lat="50.04348" lon="5.56458">
        <ele>434</ele>
        <time>2000-01-01T03:47:57Z</time>
      </trkpt>
      <trkpt lat="50.04337" lon="5.5643">
        <ele>434</ele>
        <time>2000-01-01T03:48:07Z</time>
      </trkpt>
      <trkpt lat="50.04319" lon="5.56374">
        <ele>431</ele>
        <time>2000-01-01T03:48:17Z</time>
      </trkpt>
      <trkpt lat="50.04306" lon="5.56324">
        <ele>430</ele>
        <time>2000-01-01T03:48:27Z</time>
      </trkpt>
      <trkpt lat="50.04293" lon="5.56274">
        <ele>430</ele>
        <time>2000-01-01T03:48:37Z</time>
      </trkpt>
      <trkpt lat="50.04281" lon="5.56225">
        <ele>430</ele>
        <time>2000-01-01T03:48:47Z</time>
      </trkpt>
      <trkpt lat="50.04271" lon="5.56187">
        <ele>432</ele>
        <time>2000-01-01T03:48:57Z</time>
      </trkpt>
      <trkpt lat="50.04257" lon="5.56131">
        <ele>432</ele>
        <time>2000-01-01T03:49:07Z</time>
      </trkpt>
      <trkpt lat="50.04247" lon="5.56095">
        <ele>432</ele>
        <time>2000-01-01T03:49:17Z</time>
      </trkpt>
      <trkpt lat="50.04234" lon="5.56044">
        <ele>430</ele>
        <time>2000-01-01T03:49:27Z</time>
      </trkpt>
      <trkpt lat="50.04222" lon="5.55993">
        <ele>429</ele>
        <time>2000-01-01T03:49:37Z</time>
      </trkpt>
      <trkpt lat="50.04211" lon="5.55941">
        <ele>428</ele>
        <time>2000-01-01T03:49:47Z</time>
      </trkpt>
      <trkpt lat="50.042" lon="5.5589">
        <ele>426</ele>
        <time>2000-01-01T03:49:57Z</time>
      </trkpt>
      <trkpt lat="50.04188" lon="5.55838">
        <ele>424</ele>
        <time>2000-01-01T03:50:07Z</time>
      </trkpt>
      <trkpt lat="50.04181" lon="5.55806">
        <ele>422</ele>
        <time>2000-01-01T03:50:17Z</time>
      </trkpt>
      <trkpt lat="50.04174" lon="5.55773">
        <ele>418</ele>
        <time>2000-01-01T03:50:27Z</time>
      </trkpt>
      <trkpt lat="50.04164" lon="5.5574">
        <ele>417</ele>
        <time>2000-01-01T03:50:37Z</time>
      </trkpt>
      <trkpt lat="50.04152" lon="5.55698">
        <ele>417</ele>
        <time>2000-01-01T03:50:47Z</time>
      </trkpt>
      <trkpt lat="50.04145" lon="5.55653">
        <ele>414</ele>
        <time>2000-01-01T03:50:57Z</time>
      </trkpt>
      <trkpt lat="50.0414" lon="5.55608">
        <ele>414</ele>
        <time>2000-01-01T03:51:07Z</time>
      </trkpt>
      <trkpt lat="50.04136" lon="5.55563">
        <ele>412</ele>
        <time>2000-01-01T03:51:17Z</time>
      </trkpt>
      <trkpt lat="50.0413" lon="5.55511">
        <ele>409</ele>
        <time>2000-01-01T03:51:27Z</time>
      </trkpt>
      <trkpt lat="50.04124" lon="5.55476">
        <ele>409</ele>
        <time>2000-01-01T03:51:37Z</time>
      </trkpt>
      <trkpt lat="50.04114" lon="5.55512">
        <ele>409</ele>
        <time>2000-01-01T03:51:47Z</time>
      </trkpt>
      <trkpt lat="50.04101" lon="5.55546">
        <ele>410</ele>
        <time>2000-01-01T03:51:57Z</time>
      </trkpt>
      <trkpt lat="50.04084" lon="5.5559">
        <ele>414</ele>
        <time>2000-01-01T03:52:07Z</time>
      </trkpt>
      <trkpt lat="50.04076" lon="5.55617">
        <ele>414</ele>
        <time>2000-01-01T03:52:17Z</time>
      </trkpt>
      <trkpt lat="50.04074" lon="5.55653">
        <ele>415</ele>
        <time>2000-01-01T03:52:27Z</time>
      </trkpt>
      <trkpt lat="50.04071" lon="5.55693">
        <ele>418</ele>
        <time>2000-01-01T03:52:37Z</time>
      </trkpt>
      <trkpt lat="50.0406" lon="5.55678">
        <ele>427.1</ele>
        <time>2000-01-01T03:52:47Z</time>
      </trkpt>
      <trkpt lat="50.0399" lon="5.5544">
        <ele>418</ele>
        <time>2000-01-01T03:52:57Z</time>
      </trkpt>
      <trkpt lat="50.03984" lon="5.55428">
        <ele>427.4</ele>
        <time>2000-01-01T03:53:07Z</time>
      </trkpt>
      <trkpt lat="50.03837" lon="5.55579">
        <ele>400</ele>
        <time>2000-01-01T03:53:17Z</time>
      </trkpt>
      <trkpt lat="50.03825" lon="5.55542">
        <ele>400</ele>
        <time>2000-01-01T03:53:27Z</time>
      </trkpt>
      <trkpt lat="50.03806" lon="5.55483">
        <ele>402</ele>
        <time>2000-01-01T03:53:37Z</time>
      </trkpt>
      <trkpt lat="50.03795" lon="5.55457">
        <ele>403</ele>
        <time>2000-01-01T03:53:47Z</time>
      </trkpt>
      <trkpt lat="50.03778" lon="5.55427">
        <ele>403</ele>
        <time>2000-01-01T03:53:57Z</time>
      </trkpt>
      <trkpt lat="50.03755" lon="5.55385">
        <ele>401</ele>
        <time>2000-01-01T03:54:07Z</time>
      </trkpt>
      <trkpt lat="50.03739" lon="5.55352">
        <ele>401</ele>
        <time>2000-01-01T03:54:17Z</time>
      </trkpt>
      <trkpt lat="50.03726" lon="5.55325">
        <ele>401</ele>
        <time>2000-01-01T03:54:27Z</time>
      </trkpt>
      <trkpt lat="50.03713" lon="5.55298">
        <ele>402</ele>
        <time>2000-01-01T03:54:37Z</time>
      </trkpt>
      <trkpt lat="50.03698" lon="5.55269">
        <ele>401</ele>
        <time>2000-01-01T03:54:47Z</time>
      </trkpt>
      <trkpt lat="50.0368" lon="5.55235">
        <ele>401</ele>
        <time>2000-01-01T03:54:57Z</time>
      </trkpt>
      <trkpt lat="50.03663" lon="5.55207">
        <ele>401</ele>
        <time>2000-01-01T03:55:07Z</time>
      </trkpt>
      <trkpt lat="50.03645" lon="5.5518">
        <ele>399</ele>
        <time>2000-01-01T03:55:17Z</time>
      </trkpt>
      <trkpt lat="50.0362" lon="5.55144">
        <ele>398</ele>
        <time>2000-01-01T03:55:27Z</time>
      </trkpt>
      <trkpt lat="50.03599" lon="5.55116">
        <ele>396</ele>
        <time>2000-01-01T03:55:37Z</time>
      </trkpt>
      <trkpt lat="50.03583" lon="5.55094">
        <ele>396</ele>
        <time>2000-01-01T03:55:47Z</time>
      </trkpt>
      <trkpt lat="50.03566" lon="5.55072">
        <ele>391</ele>
        <time>2000-01-01T03:55:57Z</time>
      </trkpt>
      <trkpt lat="50.03545" lon="5.55045">
        <ele>384</ele>
        <time>2000-01-01T03:56:07Z</time>
      </trkpt>
      <trkpt lat="50.03528" lon="5.55024">
        <ele>384</ele>
        <time>2000-01-01T03:56:17Z</time>
      </trkpt>
      <trkpt lat="50.03511" lon="5.55002">
        <ele>379</ele>
        <time>2000-01-01T03:56:27Z</time>
      </trkpt>
      <trkpt lat="50.03505" lon="5.54985">
        <ele>386</ele>
        <time>2000-01-01T03:56:37Z</time>
      </trkpt>
      <trkpt lat="50.03505" lon="5.54976">
        <ele>377</ele>
        <time>2000-01-01T03:56:47Z</time>
      </trkpt>
      <trkpt lat="50.03511" lon="5.54954">
        <ele>383.8</ele>
        <time>2000-01-01T03:56:57Z</time>
      </trkpt>
      <trkpt lat="50.03521" lon="5.54927">
        <ele>378</ele>
        <time>2000-01-01T03:57:07Z</time>
      </trkpt>
      <trkpt lat="50.03527" lon="5.54897">
        <ele>375</ele>
        <time>2000-01-01T03:57:17Z</time>
      </trkpt>
      <trkpt lat="50.03542" lon="5.54899">
        <ele>381.4</ele>
        <time>2000-01-01T03:57:27Z</time>
      </trkpt>
      <trkpt lat="50.03587" lon="5.54893">
        <ele>373</ele>
        <time>2000-01-01T03:57:37Z</time>
      </trkpt>
      <trkpt lat="50.03612" lon="5.54886">
        <ele>371</ele>
        <time>2000-01-01T03:57:47Z</time>
      </trkpt>
      <trkpt lat="50.03649" lon="5.54875">
        <ele>372</ele>
        <time>2000-01-01T03:57:57Z</time>
      </trkpt>
      <trkpt lat="50.03673" lon="5.54866">
        <ele>374</ele>
        <time>2000-01-01T03:58:07Z</time>
      </trkpt>
      <trkpt lat="50.03703" lon="5.54854">
        <ele>376</ele>
        <time>2000-01-01T03:58:17Z</time>
      </trkpt>
      <trkpt lat="50.03711" lon="5.54861">
        <ele>383</ele>
        <time>2000-01-01T03:58:27Z</time>
      </trkpt>
      <trkpt lat="50.03721" lon="5.54867">
        <ele>374</ele>
        <time>2000-01-01T03:58:37Z</time>
      </trkpt>
      <trkpt lat="50.03732" lon="5.5487">
        <ele>385</ele>
        <time>2000-01-01T03:58:47Z</time>
      </trkpt>
      <trkpt lat="50.03823" lon="5.54879">
        <ele>375</ele>
        <time>2000-01-01T03:58:57Z</time>
      </trkpt>
      <trkpt lat="50.03841" lon="5.54883">
        <ele>376</ele>
        <time>2000-01-01T03:59:07Z</time>
      </trkpt>
      <trkpt lat="50.03854" lon="5.54887">
        <ele>386.9</ele>
        <time>2000-01-01T03:59:17Z</time>
      </trkpt>
      <trkpt lat="50.03891" lon="5.54905">
        <ele>376</ele>
        <time>2000-01-01T03:59:27Z</time>
      </trkpt>
      <trkpt lat="50.03906" lon="5.54874">
        <ele>374</ele>
        <time>2000-01-01T03:59:37Z</time>
      </trkpt>
      <trkpt lat="50.03926" lon="5.54832">
        <ele>377</ele>
        <time>2000-01-01T03:59:47Z</time>
      </trkpt>
      <trkpt lat="50.03943" lon="5.54795">
        <ele>380</ele>
        <time>2000-01-01T03:59:57Z</time>
      </trkpt>
      <trkpt lat="50.03959" lon="5.54757">
        <ele>382</ele>
        <time>2000-01-01T04:00:07Z</time>
      </trkpt>
      <trkpt lat="50.03977" lon="5.54716">
        <ele>383</ele>
        <time>2000-01-01T04:00:17Z</time>
      </trkpt>
      <trkpt lat="50.03986" lon="5.54705">
        <ele>390.8</ele>
        <time>2000-01-01T04:00:27Z</time>
      </trkpt>
      <trkpt lat="50.04049" lon="5.54644">
        <ele>385</ele>
        <time>2000-01-01T04:00:37Z</time>
      </trkpt>
      <trkpt lat="50.04055" lon="5.54636">
        <ele>391.8</ele>
        <time>2000-01-01T04:00:47Z</time>
      </trkpt>
      <trkpt lat="50.04061" lon="5.54621">
        <ele>384</ele>
        <time>2000-01-01T04:00:57Z</time>
      </trkpt>
      <trkpt lat="50.04054" lon="5.54579">
        <ele>384</ele>
        <time>2000-01-01T04:01:07Z</time>
      </trkpt>
      <trkpt lat="50.04049" lon="5.54544">
        <ele>374</ele>
        <time>2000-01-01T04:01:17Z</time>
      </trkpt>
      <trkpt lat="50.04042" lon="5.54503">
        <ele>371</ele>
        <time>2000-01-01T04:01:27Z</time>
      </trkpt>
      <trkpt lat="50.0404" lon="5.54472">
        <ele>371</ele>
        <time>2000-01-01T04:01:37Z</time>
      </trkpt>
      <trkpt lat="50.04044" lon="5.54442">
        <ele>369</ele>
        <time>2000-01-01T04:01:47Z</time>
      </trkpt>
      <trkpt lat="50.04065" lon="5.54384">
        <ele>368</ele>
        <time>2000-01-01T04:01:57Z</time>
      </trkpt>
      <trkpt lat="50.04068" lon="5.54359">
        <ele>377.7</ele>
        <time>2000-01-01T04:02:07Z</time>
      </trkpt>
      <trkpt lat="50.04069" lon="5.54338">
        <ele>368</ele>
        <time>2000-01-01T04:02:17Z</time>
      </trkpt>
      <trkpt lat="50.04064" lon="5.54301">
        <ele>371</ele>
        <time>2000-01-01T04:02:27Z</time>
      </trkpt>
      <trkpt lat="50.04058" lon="5.54254">
        <ele>372</ele>
        <time>2000-01-01T04:02:37Z</time>
      </trkpt>
      <trkpt lat="50.04049" lon="5.5422">
        <ele>374</ele>
        <time>2000-01-01T04:02:47Z</time>
      </trkpt>
      <trkpt lat="50.04038" lon="5.5418">
        <ele>377</ele>
        <time>2000-01-01T04:02:57Z</time>
      </trkpt>
      <trkpt lat="50.04025" lon="5.54146">
        <ele>377</ele>
        <time>2000-01-01T04:03:07Z</time>
      </trkpt>
      <trkpt lat="50.04008" lon="5.54094">
        <ele>377</ele>
        <time>2000-01-01T04:03:17Z</time>
      </trkpt>
      <trkpt lat="50.03996" lon="5.54067">
        <ele>378</ele>
        <time>2000-01-01T04:03:27Z</time>
      </trkpt>
      <trkpt lat="50.03994" lon="5.5406">
        <ele>374.8</ele>
        <time>2000-01-01T04:03:37Z</time>
      </trkpt>
      <trkpt lat="50.03981" lon="5.53962">
        <ele>378</ele>
        <time>2000-01-01T04:03:47Z</time>
      </trkpt>
      <trkpt lat="50.03978" lon="5.53927">
        <ele>378</ele>
        <time>2000-01-01T04:03:57Z</time>
      </trkpt>
      <trkpt lat="50.03975" lon="5.5389">
        <ele>377</ele>
        <time>2000-01-01T04:04:07Z</time>
      </trkpt>
      <trkpt lat="50.03975" lon="5.53855">
        <ele>377</ele>
        <time>2000-01-01T04:04:17Z</time>
      </trkpt>
      <trkpt lat="50.03979" lon="5.53826">
        <ele>373</ele>
        <time>2000-01-01T04:04:27Z</time>
      </trkpt>
      <trkpt lat="50.03988" lon="5.53797">
        <ele>370</ele>
        <time>2000-01-01T04:04:37Z</time>
      </trkpt>
      <trkpt lat="50.04009" lon="5.53747">
        <ele>371</ele>
        <time>2000-01-01T04:04:47Z</time>
      </trkpt>
      <trkpt lat="50.04028" lon="5.53708">
        <ele>370</ele>
        <time>2000-01-01T04:04:57Z</time>
      </trkpt>
      <trkpt lat="50.0403" lon="5.53694">
        <ele>375.3</ele>
        <time>2000-01-01T04:05:07Z</time>
      </trkpt>
      <trkpt lat="50.04029" lon="5.53679">
        <ele>370</ele>
        <time>2000-01-01T04:05:17Z</time>
      </trkpt>
      <trkpt lat="50.04026" lon="5.53661">
        <ele>374.6</ele>
        <time>2000-01-01T04:05:27Z</time>
      </trkpt>
      <trkpt lat="50.04024" lon="5.53643">
        <ele>369</ele>
        <time>2000-01-01T04:05:37Z</time>
      </trkpt>
      <trkpt lat="50.04029" lon="5.53576">
        <ele>366</ele>
        <time>2000-01-01T04:05:47Z</time>
      </trkpt>
      <trkpt lat="50.04035" lon="5.53531">
        <ele>366</ele>
        <time>2000-01-01T04:05:57Z</time>
      </trkpt>
      <trkpt lat="50.04043" lon="5.53507">
        <ele>372</ele>
        <time>2000-01-01T04:06:07Z</time>
      </trkpt>
      <trkpt lat="50.04061" lon="5.53479">
        <ele>366</ele>
        <time>2000-01-01T04:06:17Z</time>
      </trkpt>
      <trkpt lat="50.04061" lon="5.53474">
        <ele>372</ele>
        <time>2000-01-01T04:06:27Z</time>
      </trkpt>
      <trkpt lat="50.04045" lon="5.5346">
        <ele>367</ele>
        <time>2000-01-01T04:06:37Z</time>
      </trkpt>
      <trkpt lat="50.04038" lon="5.53452">
        <ele>371.4</ele>
        <time>2000-01-01T04:06:47Z</time>
      </trkpt>
      <trkpt lat="50.03998" lon="5.53386">
        <ele>367</ele>
        <time>2000-01-01T04:06:57Z</time>
      </trkpt>
      <trkpt lat="50.03988" lon="5.53377">
        <ele>371</ele>
        <time>2000-01-01T04:07:07Z</time>
      </trkpt>
      <trkpt lat="50.03977" lon="5.53374">
        <ele>368</ele>
        <time>2000-01-01T04:07:17Z</time>
      </trkpt>
      <trkpt lat="50.03972" lon="5.53375">
        <ele>371</ele>
        <time>2000-01-01T04:07:27Z</time>
      </trkpt>
      <trkpt lat="50.03962" lon="5.53382">
        <ele>371</ele>
        <time>2000-01-01T04:07:37Z</time>
      </trkpt>
      <trkpt lat="50.03959" lon="5.53383">
        <ele>368</ele>
        <time>2000-01-01T04:07:47Z</time>
      </trkpt>
      <trkpt lat="50.03939" lon="5.53368">
        <ele>368</ele>
        <time>2000-01-01T04:07:57Z</time>
      </trkpt>
      <trkpt lat="50.03918" lon="5.53352">
        <ele>368</ele>
        <time>2000-01-01T04:08:07Z</time>
      </trkpt>
      <trkpt lat="50.03912" lon="5.53343">
        <ele>374.6</ele>
        <time>2000-01-01T04:08:17Z</time>
      </trkpt>
      <trkpt lat="50.039" lon="5.5332">
        <ele>371</ele>
        <time>2000-01-01T04:08:27Z</time>
      </trkpt>
      <trkpt lat="50.03888" lon="5.533">
        <ele>371</ele>
        <time>2000-01-01T04:08:37Z</time>
      </trkpt>
      <trkpt lat="50.03867" lon="5.53277">
        <ele>378</ele>
        <time>2000-01-01T04:08:47Z</time>
      </trkpt>
      <trkpt lat="50.03837" lon="5.53244">
        <ele>384</ele>
        <time>2000-01-01T04:08:57Z</time>
      </trkpt>
      <trkpt lat="50.0382" lon="5.53197">
        <ele>384</ele>
        <time>2000-01-01T04:09:07Z</time>
      </trkpt>
      <trkpt lat="50.03803" lon="5.53171">
        <ele>384</ele>
        <time>2000-01-01T04:09:17Z</time>
      </trkpt>
      <trkpt lat="50.03782" lon="5.53139">
        <ele>385</ele>
        <time>2000-01-01T04:09:27Z</time>
      </trkpt>
      <trkpt lat="50.0376" lon="5.53114">
        <ele>385</ele>
        <time>2000-01-01T04:09:37Z</time>
      </trkpt>
      <trkpt lat="50.03742" lon="5.53093">
        <ele>385</ele>
        <time>2000-01-01T04:09:47Z</time>
      </trkpt>
      <trkpt lat="50.03721" lon="5.53071">
        <ele>386</ele>
        <time>2000-01-01T04:09:57Z</time>
      </trkpt>
      <trkpt lat="50.03701" lon="5.5305">
        <ele>386</ele>
        <time>2000-01-01T04:10:07Z</time>
      </trkpt>
      <trkpt lat="50.03679" lon="5.53031">
        <ele>385</ele>
        <time>2000-01-01T04:10:17Z</time>
      </trkpt>
      <trkpt lat="50.03661" lon="5.5302">
        <ele>385</ele>
        <time>2000-01-01T04:10:27Z</time>
      </trkpt>
      <trkpt lat="50.03637" lon="5.53008">
        <ele>385</ele>
        <time>2000-01-01T04:10:37Z</time>
      </trkpt>
      <trkpt lat="50.03601" lon="5.52989">
        <ele>381</ele>
        <time>2000-01-01T04:10:47Z</time>
      </trkpt>
      <trkpt lat="50.03571" lon="5.52967">
        <ele>376</ele>
        <time>2000-01-01T04:10:57Z</time>
      </trkpt>
      <trkpt lat="50.03539" lon="5.52939">
        <ele>371</ele>
        <time>2000-01-01T04:11:07Z</time>
      </trkpt>
      <trkpt lat="50.03549" lon="5.52911">
        <ele>371</ele>
        <time>2000-01-01T04:11:17Z</time>
      </trkpt>
      <trkpt lat="50.03583" lon="5.52902">
        <ele>361</ele>
        <time>2000-01-01T04:11:27Z</time>
      </trkpt>
      <trkpt lat="50.03616" lon="5.52892">
        <ele>360</ele>
        <time>2000-01-01T04:11:37Z</time>
      </trkpt>
      <trkpt lat="50.03649" lon="5.52883">
        <ele>360</ele>
        <time>2000-01-01T04:11:47Z</time>
      </trkpt>
      <trkpt lat="50.03672" lon="5.52876">
        <ele>359</ele>
        <time>2000-01-01T04:11:57Z</time>
      </trkpt>
      <trkpt lat="50.03699" lon="5.52869">
        <ele>360</ele>
        <time>2000-01-01T04:12:07Z</time>
      </trkpt>
      <trkpt lat="50.03727" lon="5.5286">
        <ele>359</ele>
        <time>2000-01-01T04:12:17Z</time>
      </trkpt>
      <trkpt lat="50.0375" lon="5.52852">
        <ele>359</ele>
        <time>2000-01-01T04:12:27Z</time>
      </trkpt>
      <trkpt lat="50.0378" lon="5.52842">
        <ele>357</ele>
        <time>2000-01-01T04:12:37Z</time>
      </trkpt>
      <trkpt lat="50.03808" lon="5.5282">
        <ele>357</ele>
        <time>2000-01-01T04:12:47Z</time>
      </trkpt>
      <trkpt lat="50.0384" lon="5.52791">
        <ele>358</ele>
        <time>2000-01-01T04:12:57Z</time>
      </trkpt>
      <trkpt lat="50.03872" lon="5.52762">
        <ele>359</ele>
        <time>2000-01-01T04:13:07Z</time>
      </trkpt>
      <trkpt lat="50.03904" lon="5.52733">
        <ele>359</ele>
        <time>2000-01-01T04:13:17Z</time>
      </trkpt>
      <trkpt lat="50.03936" lon="5.52704">
        <ele>360</ele>
        <time>2000-01-01T04:13:27Z</time>
      </trkpt>
      <trkpt lat="50.03968" lon="5.52675">
        <ele>362</ele>
        <time>2000-01-01T04:13:37Z</time>
      </trkpt>
      <trkpt lat="50.03991" lon="5.52654">
        <ele>363</ele>
        <time>2000-01-01T04:13:47Z</time>
      </trkpt>
      <trkpt lat="50.0401" lon="5.52636">
        <ele>363</ele>
        <time>2000-01-01T04:13:57Z</time>
      </trkpt>
      <trkpt lat="50.04031" lon="5.52618">
        <ele>363</ele>
        <time>2000-01-01T04:14:07Z</time>
      </trkpt>
      <trkpt lat="50.04062" lon="5.52588">
        <ele>363</ele>
        <time>2000-01-01T04:14:17Z</time>
      </trkpt>
      <trkpt lat="50.04093" lon="5.52559">
        <ele>363</ele>
        <time>2000-01-01T04:14:27Z</time>
      </trkpt>
      <trkpt lat="50.04124" lon="5.52529">
        <ele>363</ele>
        <time>2000-01-01T04:14:37Z</time>
      </trkpt>
      <trkpt lat="50.04155" lon="5.52499">
        <ele>365</ele>
        <time>2000-01-01T04:14:47Z</time>
      </trkpt>
      <trkpt lat="50.04186" lon="5.5247">
        <ele>365</ele>
        <time>2000-01-01T04:14:57Z</time>
      </trkpt>
      <trkpt lat="50.04205" lon="5.52451">
        <ele>365</ele>
        <time>2000-01-01T04:15:07Z</time>
      </trkpt>
      <trkpt lat="50.04226" lon="5.52431">
        <ele>365</ele>
        <time>2000-01-01T04:15:17Z</time>
      </trkpt>
      <trkpt lat="50.04261" lon="5.52398">
        <ele>366</ele>
        <time>2000-01-01T04:15:27Z</time>
      </trkpt>
      <trkpt lat="50.04296" lon="5.52365">
        <ele>368</ele>
        <time>2000-01-01T04:15:37Z</time>
      </trkpt>
      <trkpt lat="50.04331" lon="5.52332">
        <ele>368</ele>
        <time>2000-01-01T04:15:47Z</time>
      </trkpt>
      <trkpt lat="50.04366" lon="5.52299">
        <ele>366</ele>
        <time>2000-01-01T04:15:57Z</time>
      </trkpt>
      <trkpt lat="50.04401" lon="5.52266">
        <ele>364</ele>
        <time>2000-01-01T04:16:07Z</time>
      </trkpt>
      <trkpt lat="50.04436" lon="5.52233">
        <ele>363</ele>
        <time>2000-01-01T04:16:17Z</time>
      </trkpt>
      <trkpt lat="50.04471" lon="5.522">
        <ele>363</ele>
        <time>2000-01-01T04:16:27Z</time>
      </trkpt>
      <trkpt lat="50.04506" lon="5.52167">
        <ele>362</ele>
        <time>2000-01-01T04:16:37Z</time>
      </trkpt>
      <trkpt lat="50.04541" lon="5.52133">
        <ele>362</ele>
        <time>2000-01-01T04:16:47Z</time>
      </trkpt>
      <trkpt lat="50.04576" lon="5.521">
        <ele>364</ele>
        <time>2000-01-01T04:16:57Z</time>
      </trkpt>
      <trkpt lat="50.04612" lon="5.52067">
        <ele>364</ele>
        <time>2000-01-01T04:17:07Z</time>
      </trkpt>
      <trkpt lat="50.04647" lon="5.52034">
        <ele>365</ele>
        <time>2000-01-01T04:17:17Z</time>
      </trkpt>
      <trkpt lat="50.04682" lon="5.52001">
        <ele>364</ele>
        <time>2000-01-01T04:17:27Z</time>
      </trkpt>
      <trkpt lat="50.04717" lon="5.51968">
        <ele>365</ele>
        <time>2000-01-01T04:17:37Z</time>
      </trkpt>
      <trkpt lat="50.04752" lon="5.51935">
        <ele>367</ele>
        <time>2000-01-01T04:17:47Z</time>
      </trkpt>
      <trkpt lat="50.04787" lon="5.51902">
        <ele>367</ele>
        <time>2000-01-01T04:17:57Z</time>
      </trkpt>
      <trkpt lat="50.04822" lon="5.51869">
        <ele>370</ele>
        <time>2000-01-01T04:18:07Z</time>
      </trkpt>
      <trkpt lat="50.04857" lon="5.51836">
        <ele>371</ele>
        <time>2000-01-01T04:18:17Z</time>
      </trkpt>
      <trkpt lat="50.04892" lon="5.51803">
        <ele>371</ele>
        <time>2000-01-01T04:18:27Z</time>
      </trkpt>
      <trkpt lat="50.04924" lon="5.51772">
        <ele>371</ele>
        <time>2000-01-01T04:18:37Z</time>
      </trkpt>
      <trkpt lat="50.04957" lon="5.51742">
        <ele>368</ele>
        <time>2000-01-01T04:18:47Z</time>
      </trkpt>
      <trkpt lat="50.04989" lon="5.51711">
        <ele>366</ele>
        <time>2000-01-01T04:18:57Z</time>
      </trkpt>
      <trkpt lat="50.05021" lon="5.5168">
        <ele>365</ele>
        <time>2000-01-01T04:19:07Z</time>
      </trkpt>
      <trkpt lat="50.05053" lon="5.51649">
        <ele>365</ele>
        <time>2000-01-01T04:19:17Z</time>
      </trkpt>
      <trkpt lat="50.05086" lon="5.51619">
        <ele>366</ele>
        <time>2000-01-01T04:19:27Z</time>
      </trkpt>
      <trkpt lat="50.05109" lon="5.51597">
        <ele>366</ele>
        <time>2000-01-01T04:19:37Z</time>
      </trkpt>
      <trkpt lat="50.05128" lon="5.51579">
        <ele>366</ele>
        <time>2000-01-01T04:19:47Z</time>
      </trkpt>
      <trkpt lat="50.05148" lon="5.5156">
        <ele>367</ele>
        <time>2000-01-01T04:19:57Z</time>
      </trkpt>
      <trkpt lat="50.05162" lon="5.51548">
        <ele>374</ele>
        <time>2000-01-01T04:20:07Z</time>
      </trkpt>
      <trkpt lat="50.05339" lon="5.51384">
        <ele>368</ele>
        <time>2000-01-01T04:20:17Z</time>
      </trkpt>
      <trkpt lat="50.0533" lon="5.51357">
        <ele>370</ele>
        <time>2000-01-01T04:20:27Z</time>
      </trkpt>
      <trkpt lat="50.05324" lon="5.51328">
        <ele>374</ele>
        <time>2000-01-01T04:20:37Z</time>
      </trkpt>
      <trkpt lat="50.05318" lon="5.51289">
        <ele>376</ele>
        <time>2000-01-01T04:20:47Z</time>
      </trkpt>
      <trkpt lat="50.05311" lon="5.51236">
        <ele>379</ele>
        <time>2000-01-01T04:20:57Z</time>
      </trkpt>
      <trkpt lat="50.05301" lon="5.51199">
        <ele>379</ele>
        <time>2000-01-01T04:21:07Z</time>
      </trkpt>
      <trkpt lat="50.05286" lon="5.51145">
        <ele>378</ele>
        <time>2000-01-01T04:21:17Z</time>
      </trkpt>
      <trkpt lat="50.05285" lon="5.51119">
        <ele>383.2</ele>
        <time>2000-01-01T04:21:27Z</time>
      </trkpt>
      <trkpt lat="50.05247" lon="5.51043">
        <ele>378</ele>
        <time>2000-01-01T04:21:37Z</time>
      </trkpt>
      <trkpt lat="50.0523" lon="5.51018">
        <ele>380</ele>
        <time>2000-01-01T04:21:47Z</time>
      </trkpt>
      <trkpt lat="50.05211" lon="5.5099">
        <ele>381</ele>
        <time>2000-01-01T04:21:57Z</time>
      </trkpt>
      <trkpt lat="50.05209" lon="5.50982">
        <ele>386</ele>
        <time>2000-01-01T04:22:07Z</time>
      </trkpt>
      <trkpt lat="50.05209" lon="5.50974">
        <ele>386.4</ele>
        <time>2000-01-01T04:22:17Z</time>
      </trkpt>
      <trkpt lat="50.05197" lon="5.50968">
        <ele>381</ele>
        <time>2000-01-01T04:22:27Z</time>
      </trkpt>
      <trkpt lat="50.05175" lon="5.50952">
        <ele>381</ele>
        <time>2000-01-01T04:22:37Z</time>
      </trkpt>
      <trkpt lat="50.05161" lon="5.50946">
        <ele>386</ele>
        <time>2000-01-01T04:22:47Z</time>
      </trkpt>
      <trkpt lat="50.05146" lon="5.50946">
        <ele>379</ele>
        <time>2000-01-01T04:22:57Z</time>
      </trkpt>
      <trkpt lat="50.05128" lon="5.50951">
        <ele>377</ele>
        <time>2000-01-01T04:23:07Z</time>
      </trkpt>
      <trkpt lat="50.05111" lon="5.50952">
        <ele>385</ele>
        <time>2000-01-01T04:23:17Z</time>
      </trkpt>
      <trkpt lat="50.05078" lon="5.5094">
        <ele>375</ele>
        <time>2000-01-01T04:23:27Z</time>
      </trkpt>
      <trkpt lat="50.05051" lon="5.50926">
        <ele>375</ele>
        <time>2000-01-01T04:23:37Z</time>
      </trkpt>
      <trkpt lat="50.05023" lon="5.50912">
        <ele>377</ele>
        <time>2000-01-01T04:23:47Z</time>
      </trkpt>
      <trkpt lat="50.04994" lon="5.50897">
        <ele>378</ele>
        <time>2000-01-01T04:23:57Z</time>
      </trkpt>
      <trkpt lat="50.04966" lon="5.50881">
        <ele>380</ele>
        <time>2000-01-01T04:24:07Z</time>
      </trkpt>
      <trkpt lat="50.04939" lon="5.50864">
        <ele>381</ele>
        <time>2000-01-01T04:24:17Z</time>
      </trkpt>
      <trkpt lat="50.04907" lon="5.50846">
        <ele>385</ele>
        <time>2000-01-01T04:24:27Z</time>
      </trkpt>
      <trkpt lat="50.04881" lon="5.50828">
        <ele>385</ele>
        <time>2000-01-01T04:24:37Z</time>
      </trkpt>
      <trkpt lat="50.04851" lon="5.50806">
        <ele>385</ele>
        <time>2000-01-01T04:24:47Z</time>
      </trkpt>
      <trkpt lat="50.04829" lon="5.50786">
        <ele>388</ele>
        <time>2000-01-01T04:24:57Z</time>
      </trkpt>
      <trkpt lat="50.04797" lon="5.50759">
        <ele>390</ele>
        <time>2000-01-01T04:25:07Z</time>
      </trkpt>
      <trkpt lat="50.04781" lon="5.50747">
        <ele>396.3</ele>
        <time>2000-01-01T04:25:17Z</time>
      </trkpt>
      <trkpt lat="50.04763" lon="5.50737">
        <ele>390</ele>
        <time>2000-01-01T04:25:27Z</time>
      </trkpt>
      <trkpt lat="50.04737" lon="5.50725">
        <ele>391</ele>
        <time>2000-01-01T04:25:37Z</time>
      </trkpt>
      <trkpt lat="50.04716" lon="5.50721">
        <ele>391</ele>
        <time>2000-01-01T04:25:47Z</time>
      </trkpt>
      <trkpt lat="50.04699" lon="5.50721">
        <ele>404.5</ele>
        <time>2000-01-01T04:25:57Z</time>
      </trkpt>
      <trkpt lat="50.04684" lon="5.50722">
        <ele>396</ele>
        <time>2000-01-01T04:26:07Z</time>
      </trkpt>
      <trkpt lat="50.04657" lon="5.50729">
        <ele>399</ele>
        <time>2000-01-01T04:26:17Z</time>
      </trkpt>
      <trkpt lat="50.0463" lon="5.50742">
        <ele>399</ele>
        <time>2000-01-01T04:26:27Z</time>
      </trkpt>
      <trkpt lat="50.04608" lon="5.50753">
        <ele>399</ele>
        <time>2000-01-01T04:26:37Z</time>
      </trkpt>
      <trkpt lat="50.04583" lon="5.50765">
        <ele>404</ele>
        <time>2000-01-01T04:26:47Z</time>
      </trkpt>
      <trkpt lat="50.04556" lon="5.50776">
        <ele>405</ele>
        <time>2000-01-01T04:26:57Z</time>
      </trkpt>
      <trkpt lat="50.04532" lon="5.50786">
        <ele>407</ele>
        <time>2000-01-01T04:27:07Z</time>
      </trkpt>
      <trkpt lat="50.04501" lon="5.50798">
        <ele>409</ele>
        <time>2000-01-01T04:27:17Z</time>
      </trkpt>
      <trkpt lat="50.04471" lon="5.50814">
        <ele>411</ele>
        <time>2000-01-01T04:27:27Z</time>
      </trkpt>
      <trkpt lat="50.04441" lon="5.5083">
        <ele>416</ele>
        <time>2000-01-01T04:27:37Z</time>
      </trkpt>
      <trkpt lat="50.04418" lon="5.50843">
        <ele>416</ele>
        <time>2000-01-01T04:27:47Z</time>
      </trkpt>
      <trkpt lat="50.04389" lon="5.50859">
        <ele>417</ele>
        <time>2000-01-01T04:27:57Z</time>
      </trkpt>
      <trkpt lat="50.04352" lon="5.5087">
        <ele>418</ele>
        <time>2000-01-01T04:28:07Z</time>
      </trkpt>
      <trkpt lat="50.04328" lon="5.50875">
        <ele>418</ele>
        <time>2000-01-01T04:28:17Z</time>
      </trkpt>
      <trkpt lat="50.04297" lon="5.50882">
        <ele>419</ele>
        <time>2000-01-01T04:28:27Z</time>
      </trkpt>
      <trkpt lat="50.04282" lon="5.50892">
        <ele>421.9</ele>
        <time>2000-01-01T04:28:37Z</time>
      </trkpt>
      <trkpt lat="50.04276" lon="5.50898">
        <ele>419</ele>
        <time>2000-01-01T04:28:47Z</time>
      </trkpt>
      <trkpt lat="50.04267" lon="5.50894">
        <ele>422.2</ele>
        <time>2000-01-01T04:28:57Z</time>
      </trkpt>
      <trkpt lat="50.04244" lon="5.50891">
        <ele>420</ele>
        <time>2000-01-01T04:29:07Z</time>
      </trkpt>
      <trkpt lat="50.04212" lon="5.50902">
        <ele>422</ele>
        <time>2000-01-01T04:29:17Z</time>
      </trkpt>
      <trkpt lat="50.04179" lon="5.50912">
        <ele>425</ele>
        <time>2000-01-01T04:29:27Z</time>
      </trkpt>
      <trkpt lat="50.04146" lon="5.50923">
        <ele>437</ele>
        <time>2000-01-01T04:29:37Z</time>
      </trkpt>
      <trkpt lat="50.04124" lon="5.5093">
        <ele>444</ele>
        <time>2000-01-01T04:29:47Z</time>
      </trkpt>
      <trkpt lat="50.04101" lon="5.50938">
        <ele>444</ele>
        <time>2000-01-01T04:29:57Z</time>
      </trkpt>
      <trkpt lat="50.04075" lon="5.50939">
        <ele>445</ele>
        <time>2000-01-01T04:30:07Z</time>
      </trkpt>
      <trkpt lat="50.04037" lon="5.50941">
        <ele>448</ele>
        <time>2000-01-01T04:30:17Z</time>
      </trkpt>
      <trkpt lat="50.04013" lon="5.50935">
        <ele>452</ele>
        <time>2000-01-01T04:30:27Z</time>
      </trkpt>
      <trkpt lat="50.03972" lon="5.50916">
        <ele>452</ele>
        <time>2000-01-01T04:30:37Z</time>
      </trkpt>
      <trkpt lat="50.03944" lon="5.50905">
        <ele>456</ele>
        <time>2000-01-01T04:30:47Z</time>
      </trkpt>
      <trkpt lat="50.03916" lon="5.50894">
        <ele>457</ele>
        <time>2000-01-01T04:30:57Z</time>
      </trkpt>
      <trkpt lat="50.03888" lon="5.50883">
        <ele>458</ele>
        <time>2000-01-01T04:31:07Z</time>
      </trkpt>
      <trkpt lat="50.03872" lon="5.50882">
        <ele>454.9</ele>
        <time>2000-01-01T04:31:17Z</time>
      </trkpt>
      <trkpt lat="50.03847" lon="5.50905">
        <ele>460</ele>
        <time>2000-01-01T04:31:27Z</time>
      </trkpt>
      <trkpt lat="50.03823" lon="5.50922">
        <ele>458</ele>
        <time>2000-01-01T04:31:37Z</time>
      </trkpt>
      <trkpt lat="50.03788" lon="5.50947">
        <ele>457</ele>
        <time>2000-01-01T04:31:47Z</time>
      </trkpt>
      <trkpt lat="50.03747" lon="5.50958">
        <ele>457</ele>
        <time>2000-01-01T04:31:57Z</time>
      </trkpt>
      <trkpt lat="50.03725" lon="5.50958">
        <ele>458</ele>
        <time>2000-01-01T04:32:07Z</time>
      </trkpt>
      <trkpt lat="50.0369" lon="5.50959">
        <ele>458</ele>
        <time>2000-01-01T04:32:17Z</time>
      </trkpt>
      <trkpt lat="50.03665" lon="5.50965">
        <ele>458</ele>
        <time>2000-01-01T04:32:27Z</time>
      </trkpt>
      <trkpt lat="50.03642" lon="5.50969">
        <ele>457</ele>
        <time>2000-01-01T04:32:37Z</time>
      </trkpt>
      <trkpt lat="50.03613" lon="5.50973">
        <ele>457</ele>
        <time>2000-01-01T04:32:47Z</time>
      </trkpt>
      <trkpt lat="50.03589" lon="5.50974">
        <ele>456</ele>
        <time>2000-01-01T04:32:57Z</time>
      </trkpt>
      <trkpt lat="50.03556" lon="5.50976">
        <ele>454</ele>
        <time>2000-01-01T04:33:07Z</time>
      </trkpt>
      <trkpt lat="50.03533" lon="5.5097">
        <ele>451</ele>
        <time>2000-01-01T04:33:17Z</time>
      </trkpt>
      <trkpt lat="50.03505" lon="5.50962">
        <ele>451</ele>
        <time>2000-01-01T04:33:27Z</time>
      </trkpt>
      <trkpt lat="50.03483" lon="5.50953">
        <ele>456</ele>
        <time>2000-01-01T04:33:37Z</time>
      </trkpt>
      <trkpt lat="50.03458" lon="5.50944">
        <ele>456</ele>
        <time>2000-01-01T04:33:47Z</time>
      </trkpt>
      <trkpt lat="50.03429" lon="5.50938">
        <ele>453</ele>
        <time>2000-01-01T04:33:57Z</time>
      </trkpt>
      <trkpt lat="50.03407" lon="5.50927">
        <ele>450</ele>
        <time>2000-01-01T04:34:07Z</time>
      </trkpt>
      <trkpt lat="50.03375" lon="5.50905">
        <ele>444</ele>
        <time>2000-01-01T04:34:17Z</time>
      </trkpt>
      <trkpt lat="50.03352" lon="5.50892">
        <ele>444</ele>
        <time>2000-01-01T04:34:27Z</time>
      </trkpt>
      <trkpt lat="50.03318" lon="5.50874">
        <ele>435</ele>
        <time>2000-01-01T04:34:37Z</time>
      </trkpt>
      <trkpt lat="50.03305" lon="5.50868">
        <ele>445.9</ele>
        <time>2000-01-01T04:34:47Z</time>
      </trkpt>
      <trkpt lat="50.03234" lon="5.50843">
        <ele>432</ele>
        <time>2000-01-01T04:34:57Z</time>
      </trkpt>
      <trkpt lat="50.03204" lon="5.50828">
        <ele>427</ele>
        <time>2000-01-01T04:35:07Z</time>
      </trkpt>
      <trkpt lat="50.0318" lon="5.50807">
        <ele>428</ele>
        <time>2000-01-01T04:35:17Z</time>
      </trkpt>
      <trkpt lat="50.0315" lon="5.50776">
        <ele>429</ele>
        <time>2000-01-01T04:35:27Z</time>
      </trkpt>
      <trkpt lat="50.03129" lon="5.50743">
        <ele>429</ele>
        <time>2000-01-01T04:35:37Z</time>
      </trkpt>
      <trkpt lat="50.03107" lon="5.50704">
        <ele>432</ele>
        <time>2000-01-01T04:35:47Z</time>
      </trkpt>
      <trkpt lat="50.03093" lon="5.50677">
        <ele>437</ele>
        <time>2000-01-01T04:35:57Z</time>
      </trkpt>
      <trkpt lat="50.03078" lon="5.50648">
        <ele>438</ele>
        <time>2000-01-01T04:36:07Z</time>
      </trkpt>
      <trkpt lat="50.03057" lon="5.50602">
        <ele>437</ele>
        <time>2000-01-01T04:36:17Z</time>
      </trkpt>
      <trkpt lat="50.0304" lon="5.50571">
        <ele>439</ele>
        <time>2000-01-01T04:36:27Z</time>
      </trkpt>
      <trkpt lat="50.03023" lon="5.50545">
        <ele>438</ele>
        <time>2000-01-01T04:36:37Z</time>
      </trkpt>
      <trkpt lat="50.03011" lon="5.50532">
        <ele>446.6</ele>
        <time>2000-01-01T04:36:47Z</time>
      </trkpt>
      <trkpt lat="50.02994" lon="5.50518">
        <ele>437</ele>
        <time>2000-01-01T04:36:57Z</time>
      </trkpt>
      <trkpt lat="50.02957" lon="5.50504">
        <ele>436</ele>
        <time>2000-01-01T04:37:07Z</time>
      </trkpt>
      <trkpt lat="50.02928" lon="5.50497">
        <ele>433</ele>
        <time>2000-01-01T04:37:17Z</time>
      </trkpt>
      <trkpt lat="50.029" lon="5.50489">
        <ele>431</ele>
        <time>2000-01-01T04:37:27Z</time>
      </trkpt>
      <trkpt lat="50.0287" lon="5.50482">
        <ele>427</ele>
        <time>2000-01-01T04:37:37Z</time>
      </trkpt>
      <trkpt lat="50.02829" lon="5.5047">
        <ele>424</ele>
        <time>2000-01-01T04:37:47Z</time>
      </trkpt>
      <trkpt lat="50.02803" lon="5.50454">
        <ele>422</ele>
        <time>2000-01-01T04:37:57Z</time>
      </trkpt>
      <trkpt lat="50.02782" lon="5.50441">
        <ele>421</ele>
        <time>2000-01-01T04:38:07Z</time>
      </trkpt>
      <trkpt lat="50.02757" lon="5.50427">
        <ele>421</ele>
        <time>2000-01-01T04:38:17Z</time>
      </trkpt>
      <trkpt lat="50.02736" lon="5.50413">
        <ele>421</ele>
        <time>2000-01-01T04:38:27Z</time>
      </trkpt>
      <trkpt lat="50.02714" lon="5.50398">
        <ele>421</ele>
        <time>2000-01-01T04:38:37Z</time>
      </trkpt>
      <trkpt lat="50.02691" lon="5.5044">
        <ele>417</ele>
        <time>2000-01-01T04:38:47Z</time>
      </trkpt>
      <trkpt lat="50.02668" lon="5.50482">
        <ele>411</ele>
        <time>2000-01-01T04:38:57Z</time>
      </trkpt>
      <trkpt lat="50.02645" lon="5.50524">
        <ele>407</ele>
        <time>2000-01-01T04:39:07Z</time>
      </trkpt>
      <trkpt lat="50.02622" lon="5.50566">
        <ele>402</ele>
        <time>2000-01-01T04:39:17Z</time>
      </trkpt>
      <trkpt lat="50.02606" lon="5.50596">
        <ele>401</ele>
        <time>2000-01-01T04:39:27Z</time>
      </trkpt>
      <trkpt lat="50.02585" lon="5.50635">
        <ele>397</ele>
        <time>2000-01-01T04:39:37Z</time>
      </trkpt>
      <trkpt lat="50.02573" lon="5.50661">
        <ele>396</ele>
        <time>2000-01-01T04:39:47Z</time>
      </trkpt>
      <trkpt lat="50.02555" lon="5.50618">
        <ele>395</ele>
        <time>2000-01-01T04:39:57Z</time>
      </trkpt>
      <trkpt lat="50.02537" lon="5.50575">
        <ele>395</ele>
        <time>2000-01-01T04:40:07Z</time>
      </trkpt>
      <trkpt lat="50.02519" lon="5.50531">
        <ele>395</ele>
        <time>2000-01-01T04:40:17Z</time>
      </trkpt>
      <trkpt lat="50.02498" lon="5.5048">
        <ele>395</ele>
        <time>2000-01-01T04:40:27Z</time>
      </trkpt>
      <trkpt lat="50.02492" lon="5.50456">
        <ele>403.7</ele>
        <time>2000-01-01T04:40:37Z</time>
      </trkpt>
      <trkpt lat="50.02488" lon="5.50379">
        <ele>401</ele>
        <time>2000-01-01T04:40:47Z</time>
      </trkpt>
      <trkpt lat="50.02484" lon="5.50334">
        <ele>403</ele>
        <time>2000-01-01T04:40:57Z</time>
      </trkpt>
      <trkpt lat="50.0248" lon="5.50296">
        <ele>410</ele>
        <time>2000-01-01T04:41:07Z</time>
      </trkpt>
      <trkpt lat="50.02475" lon="5.50246">
        <ele>412</ele>
        <time>2000-01-01T04:41:17Z</time>
      </trkpt>
      <trkpt lat="50.02469" lon="5.50198">
        <ele>415</ele>
        <time>2000-01-01T04:41:27Z</time>
      </trkpt>
      <trkpt lat="50.02464" lon="5.50149">
        <ele>414</ele>
        <time>2000-01-01T04:41:37Z</time>
      </trkpt>
      <trkpt lat="50.02459" lon="5.50113">
        <ele>414</ele>
        <time>2000-01-01T04:41:47Z</time>
      </trkpt>
      <trkpt lat="50.02454" lon="5.50069">
        <ele>421</ele>
        <time>2000-01-01T04:41:57Z</time>
      </trkpt>
      <trkpt lat="50.02448" lon="5.50009">
        <ele>424</ele>
        <time>2000-01-01T04:42:07Z</time>
      </trkpt>
      <trkpt lat="50.02442" lon="5.49949">
        <ele>426</ele>
        <time>2000-01-01T04:42:17Z</time>
      </trkpt>
      <trkpt lat="50.02437" lon="5.49889">
        <ele>429</ele>
        <time>2000-01-01T04:42:27Z</time>
      </trkpt>
      <trkpt lat="50.02431" lon="5.49829">
        <ele>432</ele>
        <time>2000-01-01T04:42:37Z</time>
      </trkpt>
      <trkpt lat="50.02425" lon="5.49769">
        <ele>438</ele>
        <time>2000-01-01T04:42:47Z</time>
      </trkpt>
      <trkpt lat="50.0242" lon="5.49709">
        <ele>442</ele>
        <time>2000-01-01T04:42:57Z</time>
      </trkpt>
      <trkpt lat="50.02414" lon="5.49649">
        <ele>447</ele>
        <time>2000-01-01T04:43:07Z</time>
      </trkpt>
      <trkpt lat="50.02408" lon="5.49589">
        <ele>448</ele>
        <time>2000-01-01T04:43:17Z</time>
      </trkpt>
      <trkpt lat="50.02402" lon="5.49529">
        <ele>449</ele>
        <time>2000-01-01T04:43:27Z</time>
      </trkpt>
      <trkpt lat="50.02396" lon="5.49466">
        <ele>451</ele>
        <time>2000-01-01T04:43:37Z</time>
      </trkpt>
      <trkpt lat="50.0239" lon="5.49406">
        <ele>451</ele>
        <time>2000-01-01T04:43:47Z</time>
      </trkpt>
      <trkpt lat="50.02383" lon="5.49346">
        <ele>450</ele>
        <time>2000-01-01T04:43:57Z</time>
      </trkpt>
      <trkpt lat="50.02376" lon="5.49286">
        <ele>450</ele>
        <time>2000-01-01T04:44:07Z</time>
      </trkpt>
      <trkpt lat="50.0237" lon="5.49226">
        <ele>451</ele>
        <time>2000-01-01T04:44:17Z</time>
      </trkpt>
      <trkpt lat="50.02363" lon="5.49166">
        <ele>453</ele>
        <time>2000-01-01T04:44:27Z</time>
      </trkpt>
      <trkpt lat="50.02356" lon="5.49106">
        <ele>453</ele>
        <time>2000-01-01T04:44:37Z</time>
      </trkpt>
      <trkpt lat="50.0235" lon="5.49047">
        <ele>456</ele>
        <time>2000-01-01T04:44:47Z</time>
      </trkpt>
      <trkpt lat="50.02343" lon="5.48987">
        <ele>456</ele>
        <time>2000-01-01T04:44:57Z</time>
      </trkpt>
      <trkpt lat="50.02336" lon="5.48927">
        <ele>454</ele>
        <time>2000-01-01T04:45:07Z</time>
      </trkpt>
      <trkpt lat="50.02333" lon="5.48893">
        <ele>453</ele>
        <time>2000-01-01T04:45:17Z</time>
      </trkpt>
      <trkpt lat="50.02329" lon="5.48857">
        <ele>453</ele>
        <time>2000-01-01T04:45:27Z</time>
      </trkpt>
      <trkpt lat="50.02343" lon="5.48817">
        <ele>454</ele>
        <time>2000-01-01T04:45:37Z</time>
      </trkpt>
      <trkpt lat="50.02358" lon="5.48778">
        <ele>459</ele>
        <time>2000-01-01T04:45:47Z</time>
      </trkpt>
      <trkpt lat="50.02375" lon="5.48733">
        <ele>461</ele>
        <time>2000-01-01T04:45:57Z</time>
      </trkpt>
      <trkpt lat="50.02384" lon="5.48692">
        <ele>465</ele>
        <time>2000-01-01T04:46:07Z</time>
      </trkpt>
      <trkpt lat="50.0239" lon="5.4866">
        <ele>469</ele>
        <time>2000-01-01T04:46:17Z</time>
      </trkpt>
      <trkpt lat="50.02397" lon="5.48625">
        <ele>474</ele>
        <time>2000-01-01T04:46:27Z</time>
      </trkpt>
      <trkpt lat="50.024" lon="5.48576">
        <ele>479</ele>
        <time>2000-01-01T04:46:37Z</time>
      </trkpt>
      <trkpt lat="50.02403" lon="5.48526">
        <ele>483</ele>
        <time>2000-01-01T04:46:47Z</time>
      </trkpt>
      <trkpt lat="50.02405" lon="5.48487">
        <ele>486</ele>
        <time>2000-01-01T04:46:57Z</time>
      </trkpt>
      <trkpt lat="50.02408" lon="5.48434">
        <ele>489</ele>
        <time>2000-01-01T04:47:07Z</time>
      </trkpt>
      <trkpt lat="50.02404" lon="5.48387">
        <ele>490</ele>
        <time>2000-01-01T04:47:17Z</time>
      </trkpt>
      <trkpt lat="50.024" lon="5.4834">
        <ele>490</ele>
        <time>2000-01-01T04:47:27Z</time>
      </trkpt>
      <trkpt lat="50.02398" lon="5.48306">
        <ele>491</ele>
        <time>2000-01-01T04:47:37Z</time>
      </trkpt>
      <trkpt lat="50.02395" lon="5.48271">
        <ele>491</ele>
        <time>2000-01-01T04:47:47Z</time>
      </trkpt>
      <trkpt lat="50.02386" lon="5.48228">
        <ele>491</ele>
        <time>2000-01-01T04:47:57Z</time>
      </trkpt>
      <trkpt lat="50.02377" lon="5.48184">
        <ele>489</ele>
        <time>2000-01-01T04:48:07Z</time>
      </trkpt>
      <trkpt lat="50.02366" lon="5.48136">
        <ele>488</ele>
        <time>2000-01-01T04:48:17Z</time>
      </trkpt>
      <trkpt lat="50.02367" lon="5.481">
        <ele>488</ele>
        <time>2000-01-01T04:48:27Z</time>
      </trkpt>
      <trkpt lat="50.02367" lon="5.48057">
        <ele>487</ele>
        <time>2000-01-01T04:48:37Z</time>
      </trkpt>
      <trkpt lat="50.02366" lon="5.48012">
        <ele>487</ele>
        <time>2000-01-01T04:48:47Z</time>
      </trkpt>
      <trkpt lat="50.02364" lon="5.47966">
        <ele>488</ele>
        <time>2000-01-01T04:48:57Z</time>
      </trkpt>
      <trkpt lat="50.02362" lon="5.47916">
        <ele>489</ele>
        <time>2000-01-01T04:49:07Z</time>
      </trkpt>
      <trkpt lat="50.02356" lon="5.47874">
        <ele>494</ele>
        <time>2000-01-01T04:49:17Z</time>
      </trkpt>
      <trkpt lat="50.02351" lon="5.4784">
        <ele>493</ele>
        <time>2000-01-01T04:49:27Z</time>
      </trkpt>
      <trkpt lat="50.02345" lon="5.47804">
        <ele>496</ele>
        <time>2000-01-01T04:49:37Z</time>
      </trkpt>
      <trkpt lat="50.02337" lon="5.47762">
        <ele>499</ele>
        <time>2000-01-01T04:49:47Z</time>
      </trkpt>
      <trkpt lat="50.0233" lon="5.47726">
        <ele>500</ele>
        <time>2000-01-01T04:49:57Z</time>
      </trkpt>
      <trkpt lat="50.02322" lon="5.47682">
        <ele>500</ele>
        <time>2000-01-01T04:50:07Z</time>
      </trkpt>
      <trkpt lat="50.02318" lon="5.47638">
        <ele>500</ele>
        <time>2000-01-01T04:50:17Z</time>
      </trkpt>
      <trkpt lat="50.02315" lon="5.47602">
        <ele>501</ele>
        <time>2000-01-01T04:50:27Z</time>
      </trkpt>
      <trkpt lat="50.02311" lon="5.47557">
        <ele>501</ele>
        <time>2000-01-01T04:50:37Z</time>
      </trkpt>
      <trkpt lat="50.02313" lon="5.47517">
        <ele>502</ele>
        <time>2000-01-01T04:50:47Z</time>
      </trkpt>
      <trkpt lat="50.02316" lon="5.47459">
        <ele>505</ele>
        <time>2000-01-01T04:50:57Z</time>
      </trkpt>
      <trkpt lat="50.02323" lon="5.47418">
        <ele>512</ele>
        <time>2000-01-01T04:51:07Z</time>
      </trkpt>
      <trkpt lat="50.02334" lon="5.47353">
        <ele>512</ele>
        <time>2000-01-01T04:51:17Z</time>
      </trkpt>
      <trkpt lat="50.02346" lon="5.47314">
        <ele>514</ele>
        <time>2000-01-01T04:51:27Z</time>
      </trkpt>
      <trkpt lat="50.02355" lon="5.47281">
        <ele>517</ele>
        <time>2000-01-01T04:51:37Z</time>
      </trkpt>
      <trkpt lat="50.02366" lon="5.47244">
        <ele>518</ele>
        <time>2000-01-01T04:51:47Z</time>
      </trkpt>
      <trkpt lat="50.02368" lon="5.47208">
        <ele>520</ele>
        <time>2000-01-01T04:51:57Z</time>
      </trkpt>
      <trkpt lat="50.0237" lon="5.47165">
        <ele>522</ele>
        <time>2000-01-01T04:52:07Z</time>
      </trkpt>
      <trkpt lat="50.02378" lon="5.47119">
        <ele>525</ele>
        <time>2000-01-01T04:52:17Z</time>
      </trkpt>
      <trkpt lat="50.02386" lon="5.47073">
        <ele>527</ele>
        <time>2000-01-01T04:52:27Z</time>
      </trkpt>
      <trkpt lat="50.02396" lon="5.47012">
        <ele>527</ele>
        <time>2000-01-01T04:52:37Z</time>
      </trkpt>
      <trkpt lat="50.02403" lon="5.46965">
        <ele>528</ele>
        <time>2000-01-01T04:52:47Z</time>
      </trkpt>
      <trkpt lat="50.0241" lon="5.46918">
        <ele>528</ele>
        <time>2000-01-01T04:52:57Z</time>
      </trkpt>
      <trkpt lat="50.02415" lon="5.46884">
        <ele>527</ele>
        <time>2000-01-01T04:53:07Z</time>
      </trkpt>
      <trkpt lat="50.0242" lon="5.46847">
        <ele>523</ele>
        <time>2000-01-01T04:53:17Z</time>
      </trkpt>
      <trkpt lat="50.0243" lon="5.46803">
        <ele>522</ele>
        <time>2000-01-01T04:53:27Z</time>
      </trkpt>
      <trkpt lat="50.02441" lon="5.46759">
        <ele>521</ele>
        <time>2000-01-01T04:53:37Z</time>
      </trkpt>
      <trkpt lat="50.02455" lon="5.467">
        <ele>517</ele>
        <time>2000-01-01T04:53:47Z</time>
      </trkpt>
      <trkpt lat="50.02467" lon="5.46656">
        <ele>513</ele>
        <time>2000-01-01T04:53:57Z</time>
      </trkpt>
      <trkpt lat="50.02478" lon="5.46612">
        <ele>511</ele>
        <time>2000-01-01T04:54:07Z</time>
      </trkpt>
      <trkpt lat="50.02495" lon="5.46551">
        <ele>507</ele>
        <time>2000-01-01T04:54:17Z</time>
      </trkpt>
      <trkpt lat="50.02505" lon="5.46521">
        <ele>507</ele>
        <time>2000-01-01T04:54:27Z</time>
      </trkpt>
      <trkpt lat="50.02515" lon="5.46491">
        <ele>506</ele>
        <time>2000-01-01T04:54:37Z</time>
      </trkpt>
      <trkpt lat="50.02522" lon="5.46428">
        <ele>506</ele>
        <time>2000-01-01T04:54:47Z</time>
      </trkpt>
      <trkpt lat="50.02521" lon="5.46361">
        <ele>506</ele>
        <time>2000-01-01T04:54:57Z</time>
      </trkpt>
      <trkpt lat="50.02522" lon="5.46323">
        <ele>505</ele>
        <time>2000-01-01T04:55:07Z</time>
      </trkpt>
      <trkpt lat="50.02524" lon="5.46274">
        <ele>505</ele>
        <time>2000-01-01T04:55:17Z</time>
      </trkpt>
      <trkpt lat="50.02524" lon="5.46233">
        <ele>501</ele>
        <time>2000-01-01T04:55:27Z</time>
      </trkpt>
      <trkpt lat="50.02522" lon="5.46166">
        <ele>509</ele>
        <time>2000-01-01T04:55:37Z</time>
      </trkpt>
      <trkpt lat="50.02524" lon="5.4615">
        <ele>503.7</ele>
        <time>2000-01-01T04:55:47Z</time>
      </trkpt>
      <trkpt lat="50.0252" lon="5.45982">
        <ele>510</ele>
        <time>2000-01-01T04:55:57Z</time>
      </trkpt>
      <trkpt lat="50.02518" lon="5.45936">
        <ele>510</ele>
        <time>2000-01-01T04:56:07Z</time>
      </trkpt>
      <trkpt lat="50.02516" lon="5.4589">
        <ele>511</ele>
        <time>2000-01-01T04:56:17Z</time>
      </trkpt>
      <trkpt lat="50.02513" lon="5.45836">
        <ele>512</ele>
        <time>2000-01-01T04:56:27Z</time>
      </trkpt>
      <trkpt lat="50.02512" lon="5.45791">
        <ele>519</ele>
        <time>2000-01-01T04:56:37Z</time>
      </trkpt>
      <trkpt lat="50.02511" lon="5.45745">
        <ele>518</ele>
        <time>2000-01-01T04:56:47Z</time>
      </trkpt>
      <trkpt lat="50.02509" lon="5.45693">
        <ele>517</ele>
        <time>2000-01-01T04:56:57Z</time>
      </trkpt>
      <trkpt lat="50.025" lon="5.45648">
        <ele>517</ele>
        <time>2000-01-01T04:57:07Z</time>
      </trkpt>
      <trkpt lat="50.02491" lon="5.45604">
        <ele>517</ele>
        <time>2000-01-01T04:57:17Z</time>
      </trkpt>
      <trkpt lat="50.02479" lon="5.45549">
        <ele>513</ele>
        <time>2000-01-01T04:57:27Z</time>
      </trkpt>
      <trkpt lat="50.02466" lon="5.45513">
        <ele>513</ele>
        <time>2000-01-01T04:57:37Z</time>
      </trkpt>
      <trkpt lat="50.02446" lon="5.45457">
        <ele>513</ele>
        <time>2000-01-01T04:57:47Z</time>
      </trkpt>
      <trkpt lat="50.02426" lon="5.45429">
        <ele>510</ele>
        <time>2000-01-01T04:57:57Z</time>
      </trkpt>
      <trkpt lat="50.02409" lon="5.45407">
        <ele>509</ele>
        <time>2000-01-01T04:58:07Z</time>
      </trkpt>
      <trkpt lat="50.02392" lon="5.45384">
        <ele>509</ele>
        <time>2000-01-01T04:58:17Z</time>
      </trkpt>
      <trkpt lat="50.02377" lon="5.45357">
        <ele>513</ele>
        <time>2000-01-01T04:58:27Z</time>
      </trkpt>
      <trkpt lat="50.0236" lon="5.45328">
        <ele>513</ele>
        <time>2000-01-01T04:58:37Z</time>
      </trkpt>
      <trkpt lat="50.02352" lon="5.45291">
        <ele>514</ele>
        <time>2000-01-01T04:58:47Z</time>
      </trkpt>
      <trkpt lat="50.02341" lon="5.4524">
        <ele>525</ele>
        <time>2000-01-01T04:58:57Z</time>
      </trkpt>
      <trkpt lat="50.02338" lon="5.45197">
        <ele>525</ele>
        <time>2000-01-01T04:59:07Z</time>
      </trkpt>
      <trkpt lat="50.02336" lon="5.45161">
        <ele>524</ele>
        <time>2000-01-01T04:59:17Z</time>
      </trkpt>
      <trkpt lat="50.02333" lon="5.4512">
        <ele>522</ele>
        <time>2000-01-01T04:59:27Z</time>
      </trkpt>
      <trkpt lat="50.02331" lon="5.45076">
        <ele>522</ele>
        <time>2000-01-01T04:59:37Z</time>
      </trkpt>
      <trkpt lat="50.02329" lon="5.45039">
        <ele>520</ele>
        <time>2000-01-01T04:59:47Z</time>
      </trkpt>
      <trkpt lat="50.02327" lon="5.44995">
        <ele>520</ele>
        <time>2000-01-01T04:59:57Z</time>
      </trkpt>
      <trkpt lat="50.02329" lon="5.44943">
        <ele>520</ele>
        <time>2000-01-01T05:00:07Z</time>
      </trkpt>
      <trkpt lat="50.0233" lon="5.44891">
        <ele>523</ele>
        <time>2000-01-01T05:00:17Z</time>
      </trkpt>
      <trkpt lat="50.02331" lon="5.44839">
        <ele>526</ele>
        <time>2000-01-01T05:00:27Z</time>
      </trkpt>
      <trkpt lat="50.02332" lon="5.44803">
        <ele>529</ele>
        <time>2000-01-01T05:00:37Z</time>
      </trkpt>
      <trkpt lat="50.02333" lon="5.44761">
        <ele>536</ele>
        <time>2000-01-01T05:00:47Z</time>
      </trkpt>
      <trkpt lat="50.02326" lon="5.44724">
        <ele>537</ele>
        <time>2000-01-01T05:00:57Z</time>
      </trkpt>
      <trkpt lat="50.02316" lon="5.44673">
        <ele>544</ele>
        <time>2000-01-01T05:01:07Z</time>
      </trkpt>
      <trkpt lat="50.02292" lon="5.44657">
        <ele>545</ele>
        <time>2000-01-01T05:01:17Z</time>
      </trkpt>
      <trkpt lat="50.02254" lon="5.44631">
        <ele>546</ele>
        <time>2000-01-01T05:01:27Z</time>
      </trkpt>
      <trkpt lat="50.02231" lon="5.44615">
        <ele>548</ele>
        <time>2000-01-01T05:01:37Z</time>
      </trkpt>
      <trkpt lat="50.02198" lon="5.44594">
        <ele>551</ele>
        <time>2000-01-01T05:01:47Z</time>
      </trkpt>
      <trkpt lat="50.02177" lon="5.44569">
        <ele>551</ele>
        <time>2000-01-01T05:01:57Z</time>
      </trkpt>
      <trkpt lat="50.02144" lon="5.4453">
        <ele>551</ele>
        <time>2000-01-01T05:02:07Z</time>
      </trkpt>
      <trkpt lat="50.02124" lon="5.44501">
        <ele>547</ele>
        <time>2000-01-01T05:02:17Z</time>
      </trkpt>
      <trkpt lat="50.02107" lon="5.44478">
        <ele>547</ele>
        <time>2000-01-01T05:02:27Z</time>
      </trkpt>
      <trkpt lat="50.02089" lon="5.44452">
        <ele>548</ele>
        <time>2000-01-01T05:02:37Z</time>
      </trkpt>
      <trkpt lat="50.02061" lon="5.44416">
        <ele>548</ele>
        <time>2000-01-01T05:02:47Z</time>
      </trkpt>
      <trkpt lat="50.02033" lon="5.4438">
        <ele>549</ele>
        <time>2000-01-01T05:02:57Z</time>
      </trkpt>
      <trkpt lat="50.02005" lon="5.44343">
        <ele>548</ele>
        <time>2000-01-01T05:03:07Z</time>
      </trkpt>
      <trkpt lat="50.01977" lon="5.44306">
        <ele>549</ele>
        <time>2000-01-01T05:03:17Z</time>
      </trkpt>
      <trkpt lat="50.01949" lon="5.4427">
        <ele>550</ele>
        <time>2000-01-01T05:03:27Z</time>
      </trkpt>
      <trkpt lat="50.01932" lon="5.44247">
        <ele>554</ele>
        <time>2000-01-01T05:03:37Z</time>
      </trkpt>
      <trkpt lat="50.01913" lon="5.44222">
        <ele>553</ele>
        <time>2000-01-01T05:03:47Z</time>
      </trkpt>
      <trkpt lat="50.01882" lon="5.44184">
        <ele>553</ele>
        <time>2000-01-01T05:03:57Z</time>
      </trkpt>
      <trkpt lat="50.01851" lon="5.44147">
        <ele>553</ele>
        <time>2000-01-01T05:04:07Z</time>
      </trkpt>
      <trkpt lat="50.01819" lon="5.44109">
        <ele>551</ele>
        <time>2000-01-01T05:04:17Z</time>
      </trkpt>
      <trkpt lat="50.01788" lon="5.44071">
        <ele>550</ele>
        <time>2000-01-01T05:04:27Z</time>
      </trkpt>
      <trkpt lat="50.01757" lon="5.44033">
        <ele>548</ele>
        <time>2000-01-01T05:04:37Z</time>
      </trkpt>
      <trkpt lat="50.01726" lon="5.43995">
        <ele>550</ele>
        <time>2000-01-01T05:04:47Z</time>
      </trkpt>
      <trkpt lat="50.01694" lon="5.43958">
        <ele>550</ele>
        <time>2000-01-01T05:04:57Z</time>
      </trkpt>
      <trkpt lat="50.01663" lon="5.4392">
        <ele>549</ele>
        <time>2000-01-01T05:05:07Z</time>
      </trkpt>
      <trkpt lat="50.01632" lon="5.43882">
        <ele>549</ele>
        <time>2000-01-01T05:05:17Z</time>
      </trkpt>
      <trkpt lat="50.01601" lon="5.43844">
        <ele>543</ele>
        <time>2000-01-01T05:05:27Z</time>
      </trkpt>
      <trkpt lat="50.01581" lon="5.4382">
        <ele>542</ele>
        <time>2000-01-01T05:05:37Z</time>
      </trkpt>
      <trkpt lat="50.01552" lon="5.43785">
        <ele>541</ele>
        <time>2000-01-01T05:05:47Z</time>
      </trkpt>
      <trkpt lat="50.01531" lon="5.43734">
        <ele>541</ele>
        <time>2000-01-01T05:05:57Z</time>
      </trkpt>
      <trkpt lat="50.01511" lon="5.43683">
        <ele>539</ele>
        <time>2000-01-01T05:06:07Z</time>
      </trkpt>
      <trkpt lat="50.0149" lon="5.43632">
        <ele>538</ele>
        <time>2000-01-01T05:06:17Z</time>
      </trkpt>
      <trkpt lat="50.0147" lon="5.43581">
        <ele>534</ele>
        <time>2000-01-01T05:06:27Z</time>
      </trkpt>
      <trkpt lat="50.0145" lon="5.43531">
        <ele>526</ele>
        <time>2000-01-01T05:06:37Z</time>
      </trkpt>
      <trkpt lat="50.01429" lon="5.4348">
        <ele>522</ele>
        <time>2000-01-01T05:06:47Z</time>
      </trkpt>
      <trkpt lat="50.01409" lon="5.43429">
        <ele>519</ele>
        <time>2000-01-01T05:06:57Z</time>
      </trkpt>
      <trkpt lat="50.01388" lon="5.43378">
        <ele>518</ele>
        <time>2000-01-01T05:07:07Z</time>
      </trkpt>
      <trkpt lat="50.01367" lon="5.43325">
        <ele>518</ele>
        <time>2000-01-01T05:07:17Z</time>
      </trkpt>
      <trkpt lat="50.01353" lon="5.43269">
        <ele>517</ele>
        <time>2000-01-01T05:07:27Z</time>
      </trkpt>
      <trkpt lat="50.01339" lon="5.43212">
        <ele>517</ele>
        <time>2000-01-01T05:07:37Z</time>
      </trkpt>
      <trkpt lat="50.01325" lon="5.43155">
        <ele>519</ele>
        <time>2000-01-01T05:07:47Z</time>
      </trkpt>
      <trkpt lat="50.01311" lon="5.43099">
        <ele>523</ele>
        <time>2000-01-01T05:07:57Z</time>
      </trkpt>
      <trkpt lat="50.01297" lon="5.43042">
        <ele>527</ele>
        <time>2000-01-01T05:08:07Z</time>
      </trkpt>
      <trkpt lat="50.01283" lon="5.42985">
        <ele>527</ele>
        <time>2000-01-01T05:08:17Z</time>
      </trkpt>
      <trkpt lat="50.01269" lon="5.42929">
        <ele>526</ele>
        <time>2000-01-01T05:08:27Z</time>
      </trkpt>
      <trkpt lat="50.01255" lon="5.42872">
        <ele>523</ele>
        <time>2000-01-01T05:08:37Z</time>
      </trkpt>
      <trkpt lat="50.01241" lon="5.42815">
        <ele>523</ele>
        <time>2000-01-01T05:08:47Z</time>
      </trkpt>
      <trkpt lat="50.01233" lon="5.42784">
        <ele>523</ele>
        <time>2000-01-01T05:08:57Z</time>
      </trkpt>
      <trkpt lat="50.01225" lon="5.42752">
        <ele>526</ele>
        <time>2000-01-01T05:09:07Z</time>
      </trkpt>
      <trkpt lat="50.01214" lon="5.42703">
        <ele>525</ele>
        <time>2000-01-01T05:09:17Z</time>
      </trkpt>
      <trkpt lat="50.01203" lon="5.42654">
        <ele>524</ele>
        <time>2000-01-01T05:09:27Z</time>
      </trkpt>
      <trkpt lat="50.01191" lon="5.42605">
        <ele>519</ele>
        <time>2000-01-01T05:09:37Z</time>
      </trkpt>
      <trkpt lat="50.01184" lon="5.42571">
        <ele>518</ele>
        <time>2000-01-01T05:09:47Z</time>
      </trkpt>
      <trkpt lat="50.01175" lon="5.42534">
        <ele>515</ele>
        <time>2000-01-01T05:09:57Z</time>
      </trkpt>
      <trkpt lat="50.01176" lon="5.42491">
        <ele>512</ele>
        <time>2000-01-01T05:10:07Z</time>
      </trkpt>
      <trkpt lat="50.01178" lon="5.42456">
        <ele>512</ele>
        <time>2000-01-01T05:10:17Z</time>
      </trkpt>
      <trkpt lat="50.01179" lon="5.42416">
        <ele>512</ele>
        <time>2000-01-01T05:10:27Z</time>
      </trkpt>
      <trkpt lat="50.01187" lon="5.42369">
        <ele>512</ele>
        <time>2000-01-01T05:10:37Z</time>
      </trkpt>
      <trkpt lat="50.0119" lon="5.42329">
        <ele>509</ele>
        <time>2000-01-01T05:10:47Z</time>
      </trkpt>
      <trkpt lat="50.01194" lon="5.42268">
        <ele>509</ele>
        <time>2000-01-01T05:10:57Z</time>
      </trkpt>
      <trkpt lat="50.01191" lon="5.42227">
        <ele>513</ele>
        <time>2000-01-01T05:11:07Z</time>
      </trkpt>
      <trkpt lat="50.01187" lon="5.42162">
        <ele>517</ele>
        <time>2000-01-01T05:11:17Z</time>
      </trkpt>
      <trkpt lat="50.01192" lon="5.42129">
        <ele>518</ele>
        <time>2000-01-01T05:11:27Z</time>
      </trkpt>
      <trkpt lat="50.01197" lon="5.42095">
        <ele>521</ele>
        <time>2000-01-01T05:11:37Z</time>
      </trkpt>
      <trkpt lat="50.01198" lon="5.42048">
        <ele>526</ele>
        <time>2000-01-01T05:11:47Z</time>
      </trkpt>
      <trkpt lat="50.012" lon="5.42">
        <ele>527</ele>
        <time>2000-01-01T05:11:57Z</time>
      </trkpt>
      <trkpt lat="50.01201" lon="5.41966">
        <ele>527</ele>
        <time>2000-01-01T05:12:07Z</time>
      </trkpt>
      <trkpt lat="50.01202" lon="5.41932">
        <ele>525</ele>
        <time>2000-01-01T05:12:17Z</time>
      </trkpt>
      <trkpt lat="50.01195" lon="5.41891">
        <ele>524</ele>
        <time>2000-01-01T05:12:27Z</time>
      </trkpt>
      <trkpt lat="50.01194" lon="5.41853">
        <ele>523</ele>
        <time>2000-01-01T05:12:37Z</time>
      </trkpt>
      <trkpt lat="50.01202" lon="5.41801">
        <ele>516</ele>
        <time>2000-01-01T05:12:47Z</time>
      </trkpt>
      <trkpt lat="50.01202" lon="5.41765">
        <ele>516</ele>
        <time>2000-01-01T05:12:57Z</time>
      </trkpt>
      <trkpt lat="50.01191" lon="5.4172">
        <ele>516</ele>
        <time>2000-01-01T05:13:07Z</time>
      </trkpt>
      <trkpt lat="50.01172" lon="5.4166">
        <ele>516</ele>
        <time>2000-01-01T05:13:17Z</time>
      </trkpt>
      <trkpt lat="50.01194" lon="5.41632">
        <ele>514</ele>
        <time>2000-01-01T05:13:27Z</time>
      </trkpt>
      <trkpt lat="50.01219" lon="5.41612">
        <ele>509</ele>
        <time>2000-01-01T05:13:37Z</time>
      </trkpt>
      <trkpt lat="50.01245" lon="5.41599">
        <ele>505</ele>
        <time>2000-01-01T05:13:47Z</time>
      </trkpt>
      <trkpt lat="50.01267" lon="5.41588">
        <ele>505</ele>
        <time>2000-01-01T05:13:57Z</time>
      </trkpt>
      <trkpt lat="50.01292" lon="5.41576">
        <ele>501</ele>
        <time>2000-01-01T05:14:07Z</time>
      </trkpt>
      <trkpt lat="50.01314" lon="5.41559">
        <ele>500</ele>
        <time>2000-01-01T05:14:17Z</time>
      </trkpt>
      <trkpt lat="50.01343" lon="5.41536">
        <ele>500</ele>
        <time>2000-01-01T05:14:27Z</time>
      </trkpt>
      <trkpt lat="50.01325" lon="5.41494">
        <ele>499</ele>
        <time>2000-01-01T05:14:37Z</time>
      </trkpt>
      <trkpt lat="50.01307" lon="5.41453">
        <ele>499</ele>
        <time>2000-01-01T05:14:47Z</time>
      </trkpt>
      <trkpt lat="50.01293" lon="5.4142">
        <ele>498</ele>
        <time>2000-01-01T05:14:57Z</time>
      </trkpt>
      <trkpt lat="50.01272" lon="5.41373">
        <ele>498</ele>
        <time>2000-01-01T05:15:07Z</time>
      </trkpt>
      <trkpt lat="50.01256" lon="5.41339">
        <ele>499</ele>
        <time>2000-01-01T05:15:17Z</time>
      </trkpt>
      <trkpt lat="50.01243" lon="5.41311">
        <ele>500</ele>
        <time>2000-01-01T05:15:27Z</time>
      </trkpt>
      <trkpt lat="50.01228" lon="5.4128">
        <ele>500</ele>
        <time>2000-01-01T05:15:37Z</time>
      </trkpt>
      <trkpt lat="50.01204" lon="5.41239">
        <ele>502</ele>
        <time>2000-01-01T05:15:47Z</time>
      </trkpt>
      <trkpt lat="50.01179" lon="5.41198">
        <ele>502</ele>
        <time>2000-01-01T05:15:57Z</time>
      </trkpt>
      <trkpt lat="50.01155" lon="5.41156">
        <ele>501</ele>
        <time>2000-01-01T05:16:07Z</time>
      </trkpt>
      <trkpt lat="50.0113" lon="5.41115">
        <ele>498</ele>
        <time>2000-01-01T05:16:17Z</time>
      </trkpt>
      <trkpt lat="50.01105" lon="5.41074">
        <ele>498</ele>
        <time>2000-01-01T05:16:27Z</time>
      </trkpt>
      <trkpt lat="50.01078" lon="5.41028">
        <ele>498</ele>
        <time>2000-01-01T05:16:37Z</time>
      </trkpt>
      <trkpt lat="50.01066" lon="5.40996">
        <ele>499</ele>
        <time>2000-01-01T05:16:47Z</time>
      </trkpt>
      <trkpt lat="50.01055" lon="5.40939">
        <ele>499</ele>
        <time>2000-01-01T05:16:57Z</time>
      </trkpt>
      <trkpt lat="50.01044" lon="5.40882">
        <ele>499</ele>
        <time>2000-01-01T05:17:07Z</time>
      </trkpt>
      <trkpt lat="50.01032" lon="5.40825">
        <ele>499</ele>
        <time>2000-01-01T05:17:17Z</time>
      </trkpt>
      <trkpt lat="50.01021" lon="5.40768">
        <ele>499</ele>
        <time>2000-01-01T05:17:27Z</time>
      </trkpt>
      <trkpt lat="50.0101" lon="5.40711">
        <ele>499</ele>
        <time>2000-01-01T05:17:37Z</time>
      </trkpt>
      <trkpt lat="50.00999" lon="5.40654">
        <ele>499</ele>
        <time>2000-01-01T05:17:47Z</time>
      </trkpt>
      <trkpt lat="50.00988" lon="5.40597">
        <ele>499</ele>
        <time>2000-01-01T05:17:57Z</time>
      </trkpt>
      <trkpt lat="50.0098" lon="5.40559">
        <ele>498</ele>
        <time>2000-01-01T05:18:07Z</time>
      </trkpt>
      <trkpt lat="50.0097" lon="5.40505">
        <ele>498</ele>
        <time>2000-01-01T05:18:17Z</time>
      </trkpt>
      <trkpt lat="50.00961" lon="5.40458">
        <ele>498</ele>
        <time>2000-01-01T05:18:27Z</time>
      </trkpt>
      <trkpt lat="50.00953" lon="5.40411">
        <ele>499</ele>
        <time>2000-01-01T05:18:37Z</time>
      </trkpt>
      <trkpt lat="50.00946" lon="5.40375">
        <ele>497</ele>
        <time>2000-01-01T05:18:47Z</time>
      </trkpt>
      <trkpt lat="50.00938" lon="5.40331">
        <ele>498</ele>
        <time>2000-01-01T05:18:57Z</time>
      </trkpt>
      <trkpt lat="50.00929" lon="5.403">
        <ele>499</ele>
        <time>2000-01-01T05:19:07Z</time>
      </trkpt>
      <trkpt lat="50.00919" lon="5.40265">
        <ele>499</ele>
        <time>2000-01-01T05:19:17Z</time>
      </trkpt>
      <trkpt lat="50.00941" lon="5.40302">
        <ele>499</ele>
        <time>2000-01-01T05:19:27Z</time>
      </trkpt>
      <trkpt lat="50.00962" lon="5.40339">
        <ele>499</ele>
        <time>2000-01-01T05:19:37Z</time>
      </trkpt>
      <trkpt lat="50.00979" lon="5.40368">
        <ele>499</ele>
        <time>2000-01-01T05:19:47Z</time>
      </trkpt>
      <trkpt lat="50.01003" lon="5.40409">
        <ele>494</ele>
        <time>2000-01-01T05:19:57Z</time>
      </trkpt>
      <trkpt lat="50.01024" lon="5.40438">
        <ele>493</ele>
        <time>2000-01-01T05:20:07Z</time>
      </trkpt>
      <trkpt lat="50.01041" lon="5.40462">
        <ele>492</ele>
        <time>2000-01-01T05:20:17Z</time>
      </trkpt>
      <trkpt lat="50.01061" lon="5.4049">
        <ele>490</ele>
        <time>2000-01-01T05:20:27Z</time>
      </trkpt>
      <trkpt lat="50.0108" lon="5.40511">
        <ele>489</ele>
        <time>2000-01-01T05:20:37Z</time>
      </trkpt>
      <trkpt lat="50.01102" lon="5.40535">
        <ele>488</ele>
        <time>2000-01-01T05:20:47Z</time>
      </trkpt>
      <trkpt lat="50.01124" lon="5.40549">
        <ele>488</ele>
        <time>2000-01-01T05:20:57Z</time>
      </trkpt>
      <trkpt lat="50.01148" lon="5.40565">
        <ele>485</ele>
        <time>2000-01-01T05:21:07Z</time>
      </trkpt>
      <trkpt lat="50.01173" lon="5.40568">
        <ele>484</ele>
        <time>2000-01-01T05:21:17Z</time>
      </trkpt>
      <trkpt lat="50.01204" lon="5.40571">
        <ele>484</ele>
        <time>2000-01-01T05:21:27Z</time>
      </trkpt>
      <trkpt lat="50.01225" lon="5.40577">
        <ele>479</ele>
        <time>2000-01-01T05:21:37Z</time>
      </trkpt>
      <trkpt lat="50.01244" lon="5.40595">
        <ele>478</ele>
        <time>2000-01-01T05:21:47Z</time>
      </trkpt>
      <trkpt lat="50.01257" lon="5.40617">
        <ele>478</ele>
        <time>2000-01-01T05:21:57Z</time>
      </trkpt>
      <trkpt lat="50.01277" lon="5.40669">
        <ele>481</ele>
        <time>2000-01-01T05:22:07Z</time>
      </trkpt>
      <trkpt lat="50.01292" lon="5.40701">
        <ele>482</ele>
        <time>2000-01-01T05:22:17Z</time>
      </trkpt>
      <trkpt lat="50.01313" lon="5.40745">
        <ele>481</ele>
        <time>2000-01-01T05:22:27Z</time>
      </trkpt>
      <trkpt lat="50.01333" lon="5.40761">
        <ele>480</ele>
        <time>2000-01-01T05:22:37Z</time>
      </trkpt>
      <trkpt lat="50.01352" lon="5.4077">
        <ele>477</ele>
        <time>2000-01-01T05:22:47Z</time>
      </trkpt>
      <trkpt lat="50.01356" lon="5.40747">
        <ele>481.8</ele>
        <time>2000-01-01T05:22:57Z</time>
      </trkpt>
      <trkpt lat="50.01359" lon="5.40696">
        <ele>476</ele>
        <time>2000-01-01T05:23:07Z</time>
      </trkpt>
      <trkpt lat="50.01361" lon="5.40653">
        <ele>476</ele>
        <time>2000-01-01T05:23:17Z</time>
      </trkpt>
      <trkpt lat="50.01363" lon="5.40618">
        <ele>478</ele>
        <time>2000-01-01T05:23:27Z</time>
      </trkpt>
      <trkpt lat="50.01365" lon="5.4058">
        <ele>478</ele>
        <time>2000-01-01T05:23:37Z</time>
      </trkpt>
      <trkpt lat="50.01372" lon="5.40561">
        <ele>482.5</ele>
        <time>2000-01-01T05:23:47Z</time>
      </trkpt>
      <trkpt lat="50.01392" lon="5.40546">
        <ele>478</ele>
        <time>2000-01-01T05:23:57Z</time>
      </trkpt>
      <trkpt lat="50.01417" lon="5.40532">
        <ele>481</ele>
        <time>2000-01-01T05:24:07Z</time>
      </trkpt>
      <trkpt lat="50.01457" lon="5.4051">
        <ele>482</ele>
        <time>2000-01-01T05:24:17Z</time>
      </trkpt>
      <trkpt lat="50.01467" lon="5.40493">
        <ele>488.1</ele>
        <time>2000-01-01T05:24:27Z</time>
      </trkpt>
      <trkpt lat="50.01476" lon="5.40471">
        <ele>482</ele>
        <time>2000-01-01T05:24:37Z</time>
      </trkpt>
      <trkpt lat="50.01484" lon="5.4044">
        <ele>483</ele>
        <time>2000-01-01T05:24:47Z</time>
      </trkpt>
      <trkpt lat="50.01492" lon="5.40408">
        <ele>492</ele>
        <time>2000-01-01T05:24:57Z</time>
      </trkpt>
      <trkpt lat="50.01513" lon="5.40353">
        <ele>494</ele>
        <time>2000-01-01T05:25:07Z</time>
      </trkpt>
      <trkpt lat="50.01541" lon="5.40309">
        <ele>496</ele>
        <time>2000-01-01T05:25:17Z</time>
      </trkpt>
      <trkpt lat="50.01557" lon="5.40277">
        <ele>510</ele>
        <time>2000-01-01T05:25:27Z</time>
      </trkpt>
      <trkpt lat="50.01568" lon="5.40241">
        <ele>513</ele>
        <time>2000-01-01T05:25:37Z</time>
      </trkpt>
      <trkpt lat="50.01585" lon="5.40187">
        <ele>522</ele>
        <time>2000-01-01T05:25:47Z</time>
      </trkpt>
      <trkpt lat="50.01597" lon="5.40132">
        <ele>523</ele>
        <time>2000-01-01T05:25:57Z</time>
      </trkpt>
      <trkpt lat="50.01615" lon="5.4008">
        <ele>525</ele>
        <time>2000-01-01T05:26:07Z</time>
      </trkpt>
      <trkpt lat="50.01622" lon="5.40044">
        <ele>527</ele>
        <time>2000-01-01T05:26:17Z</time>
      </trkpt>
      <trkpt lat="50.01632" lon="5.39997">
        <ele>528</ele>
        <time>2000-01-01T05:26:27Z</time>
      </trkpt>
      <trkpt lat="50.01639" lon="5.39961">
        <ele>527</ele>
        <time>2000-01-01T05:26:37Z</time>
      </trkpt>
      <trkpt lat="50.01647" lon="5.39917">
        <ele>527</ele>
        <time>2000-01-01T05:26:47Z</time>
      </trkpt>
      <trkpt lat="50.0165" lon="5.39883">
        <ele>526</ele>
        <time>2000-01-01T05:26:57Z</time>
      </trkpt>
      <trkpt lat="50.01654" lon="5.39846">
        <ele>526</ele>
        <time>2000-01-01T05:27:07Z</time>
      </trkpt>
      <trkpt lat="50.01664" lon="5.39807">
        <ele>527</ele>
        <time>2000-01-01T05:27:17Z</time>
      </trkpt>
      <trkpt lat="50.01672" lon="5.39775">
        <ele>529</ele>
        <time>2000-01-01T05:27:27Z</time>
      </trkpt>
      <trkpt lat="50.0168" lon="5.39743">
        <ele>530</ele>
        <time>2000-01-01T05:27:37Z</time>
      </trkpt>
      <trkpt lat="50.01692" lon="5.39711">
        <ele>532</ele>
        <time>2000-01-01T05:27:47Z</time>
      </trkpt>
      <trkpt lat="50.01707" lon="5.3967">
        <ele>535</ele>
        <time>2000-01-01T05:27:57Z</time>
      </trkpt>
      <trkpt lat="50.01724" lon="5.3964">
        <ele>534</ele>
        <time>2000-01-01T05:28:07Z</time>
      </trkpt>
      <trkpt lat="50.01748" lon="5.39598">
        <ele>533</ele>
        <time>2000-01-01T05:28:17Z</time>
      </trkpt>
      <trkpt lat="50.01764" lon="5.39564">
        <ele>529</ele>
        <time>2000-01-01T05:28:27Z</time>
      </trkpt>
      <trkpt lat="50.01789" lon="5.3951">
        <ele>527</ele>
        <time>2000-01-01T05:28:37Z</time>
      </trkpt>
      <trkpt lat="50.01802" lon="5.39478">
        <ele>524</ele>
        <time>2000-01-01T05:28:47Z</time>
      </trkpt>
      <trkpt lat="50.0182" lon="5.39437">
        <ele>516</ele>
        <time>2000-01-01T05:28:57Z</time>
      </trkpt>
      <trkpt lat="50.01826" lon="5.39403">
        <ele>509</ele>
        <time>2000-01-01T05:29:07Z</time>
      </trkpt>
      <trkpt lat="50.01833" lon="5.39364">
        <ele>507</ele>
        <time>2000-01-01T05:29:17Z</time>
      </trkpt>
      <trkpt lat="50.01844" lon="5.39319">
        <ele>506</ele>
        <time>2000-01-01T05:29:27Z</time>
      </trkpt>
      <trkpt lat="50.01855" lon="5.39275">
        <ele>505</ele>
        <time>2000-01-01T05:29:37Z</time>
      </trkpt>
      <trkpt lat="50.01863" lon="5.39242">
        <ele>505</ele>
        <time>2000-01-01T05:29:47Z</time>
      </trkpt>
      <trkpt lat="50.01872" lon="5.39208">
        <ele>508</ele>
        <time>2000-01-01T05:29:57Z</time>
      </trkpt>
      <trkpt lat="50.01884" lon="5.39171">
        <ele>511</ele>
        <time>2000-01-01T05:30:07Z</time>
      </trkpt>
      <trkpt lat="50.01902" lon="5.39148">
        <ele>509</ele>
        <time>2000-01-01T05:30:17Z</time>
      </trkpt>
      <trkpt lat="50.01931" lon="5.39115">
        <ele>508</ele>
        <time>2000-01-01T05:30:27Z</time>
      </trkpt>
      <trkpt lat="50.01962" lon="5.39091">
        <ele>496</ele>
        <time>2000-01-01T05:30:37Z</time>
      </trkpt>
      <trkpt lat="50.01989" lon="5.39083">
        <ele>496</ele>
        <time>2000-01-01T05:30:47Z</time>
      </trkpt>
      <trkpt lat="50.02011" lon="5.39076">
        <ele>495</ele>
        <time>2000-01-01T05:30:57Z</time>
      </trkpt>
      <trkpt lat="50.02037" lon="5.39069">
        <ele>495</ele>
        <time>2000-01-01T05:31:07Z</time>
      </trkpt>
      <trkpt lat="50.0206" lon="5.39048">
        <ele>497</ele>
        <time>2000-01-01T05:31:17Z</time>
      </trkpt>
      <trkpt lat="50.02097" lon="5.39016">
        <ele>493</ele>
        <time>2000-01-01T05:31:27Z</time>
      </trkpt>
      <trkpt lat="50.02118" lon="5.39009">
        <ele>490</ele>
        <time>2000-01-01T05:31:37Z</time>
      </trkpt>
      <trkpt lat="50.0214" lon="5.39003">
        <ele>485</ele>
        <time>2000-01-01T05:31:47Z</time>
      </trkpt>
      <trkpt lat="50.02157" lon="5.38994">
        <ele>485</ele>
        <time>2000-01-01T05:31:57Z</time>
      </trkpt>
      <trkpt lat="50.02176" lon="5.38962">
        <ele>478</ele>
        <time>2000-01-01T05:32:07Z</time>
      </trkpt>
      <trkpt lat="50.02191" lon="5.38935">
        <ele>476</ele>
        <time>2000-01-01T05:32:17Z</time>
      </trkpt>
      <trkpt lat="50.02209" lon="5.38903">
        <ele>475</ele>
        <time>2000-01-01T05:32:27Z</time>
      </trkpt>
      <trkpt lat="50.02227" lon="5.38868">
        <ele>470</ele>
        <time>2000-01-01T05:32:37Z</time>
      </trkpt>
      <trkpt lat="50.02245" lon="5.3884">
        <ele>470</ele>
        <time>2000-01-01T05:32:47Z</time>
      </trkpt>
      <trkpt lat="50.02269" lon="5.38815">
        <ele>470</ele>
        <time>2000-01-01T05:32:57Z</time>
      </trkpt>
      <trkpt lat="50.02293" lon="5.3879">
        <ele>470</ele>
        <time>2000-01-01T05:33:07Z</time>
      </trkpt>
      <trkpt lat="50.02317" lon="5.38764">
        <ele>470</ele>
        <time>2000-01-01T05:33:17Z</time>
      </trkpt>
      <trkpt lat="50.02333" lon="5.38733">
        <ele>470</ele>
        <time>2000-01-01T05:33:27Z</time>
      </trkpt>
      <trkpt lat="50.02346" lon="5.38704">
        <ele>468</ele>
        <time>2000-01-01T05:33:37Z</time>
      </trkpt>
      <trkpt lat="50.02361" lon="5.38671">
        <ele>467</ele>
        <time>2000-01-01T05:33:47Z</time>
      </trkpt>
      <trkpt lat="50.02375" lon="5.38623">
        <ele>467</ele>
        <time>2000-01-01T05:33:57Z</time>
      </trkpt>
      <trkpt lat="50.02382" lon="5.38589">
        <ele>465</ele>
        <time>2000-01-01T05:34:07Z</time>
      </trkpt>
      <trkpt lat="50.02389" lon="5.3855">
        <ele>465</ele>
        <time>2000-01-01T05:34:17Z</time>
      </trkpt>
      <trkpt lat="50.02401" lon="5.38496">
        <ele>464</ele>
        <time>2000-01-01T05:34:27Z</time>
      </trkpt>
      <trkpt lat="50.02418" lon="5.38443">
        <ele>463</ele>
        <time>2000-01-01T05:34:37Z</time>
      </trkpt>
      <trkpt lat="50.02427" lon="5.38411">
        <ele>461</ele>
        <time>2000-01-01T05:34:47Z</time>
      </trkpt>
      <trkpt lat="50.02436" lon="5.38375">
        <ele>461</ele>
        <time>2000-01-01T05:34:57Z</time>
      </trkpt>
      <trkpt lat="50.02442" lon="5.38363">
        <ele>465.3</ele>
        <time>2000-01-01T05:35:07Z</time>
      </trkpt>
      <trkpt lat="50.02446" lon="5.38359">
        <ele>464.9</ele>
        <time>2000-01-01T05:35:17Z</time>
      </trkpt>
      <trkpt lat="50.02447" lon="5.38349">
        <ele>461</ele>
        <time>2000-01-01T05:35:27Z</time>
      </trkpt>
      <trkpt lat="50.02457" lon="5.3831">
        <ele>461</ele>
        <time>2000-01-01T05:35:37Z</time>
      </trkpt>
      <trkpt lat="50.02457" lon="5.38301">
        <ele>464.7</ele>
        <time>2000-01-01T05:35:47Z</time>
      </trkpt>
      <trkpt lat="50.02454" lon="5.38294">
        <ele>465.1</ele>
        <time>2000-01-01T05:35:57Z</time>
      </trkpt>
      <trkpt lat="50.0245" lon="5.38288">
        <ele>465.5</ele>
        <time>2000-01-01T05:36:07Z</time>
      </trkpt>
      <trkpt lat="50.02445" lon="5.38285">
        <ele>462</ele>
        <time>2000-01-01T05:36:17Z</time>
      </trkpt>
      <trkpt lat="50.02411" lon="5.38275">
        <ele>466</ele>
        <time>2000-01-01T05:36:27Z</time>
      </trkpt>
      <trkpt lat="50.02376" lon="5.38266">
        <ele>469</ele>
        <time>2000-01-01T05:36:37Z</time>
      </trkpt>
      <trkpt lat="50.02341" lon="5.38256">
        <ele>475</ele>
        <time>2000-01-01T05:36:47Z</time>
      </trkpt>
      <trkpt lat="50.02307" lon="5.38247">
        <ele>476</ele>
        <time>2000-01-01T05:36:57Z</time>
      </trkpt>
      <trkpt lat="50.02285" lon="5.3824">
        <ele>477</ele>
        <time>2000-01-01T05:37:07Z</time>
      </trkpt>
      <trkpt lat="50.02262" lon="5.38234">
        <ele>475</ele>
        <time>2000-01-01T05:37:17Z</time>
      </trkpt>
      <trkpt lat="50.02267" lon="5.38198">
        <ele>474</ele>
        <time>2000-01-01T05:37:27Z</time>
      </trkpt>
      <trkpt lat="50.02274" lon="5.38156">
        <ele>474</ele>
        <time>2000-01-01T05:37:37Z</time>
      </trkpt>
      <trkpt lat="50.02286" lon="5.38129">
        <ele>474</ele>
        <time>2000-01-01T05:37:47Z</time>
      </trkpt>
      <trkpt lat="50.02289" lon="5.38119">
        <ele>479.6</ele>
        <time>2000-01-01T05:37:57Z</time>
      </trkpt>
      <trkpt lat="50.02296" lon="5.38109">
        <ele>478.6</ele>
        <time>2000-01-01T05:38:07Z</time>
      </trkpt>
      <trkpt lat="50.0237" lon="5.38033">
        <ele>470</ele>
        <time>2000-01-01T05:38:17Z</time>
      </trkpt>
      <trkpt lat="50.02391" lon="5.38018">
        <ele>467</ele>
        <time>2000-01-01T05:38:27Z</time>
      </trkpt>
      <trkpt lat="50.02414" lon="5.38">
        <ele>465</ele>
        <time>2000-01-01T05:38:37Z</time>
      </trkpt>
      <trkpt lat="50.02434" lon="5.37982">
        <ele>463</ele>
        <time>2000-01-01T05:38:47Z</time>
      </trkpt>
      <trkpt lat="50.02459" lon="5.37959">
        <ele>461</ele>
        <time>2000-01-01T05:38:57Z</time>
      </trkpt>
      <trkpt lat="50.02493" lon="5.37923">
        <ele>459</ele>
        <time>2000-01-01T05:39:07Z</time>
      </trkpt>
      <trkpt lat="50.02513" lon="5.379">
        <ele>457</ele>
        <time>2000-01-01T05:39:17Z</time>
      </trkpt>
      <trkpt lat="50.02539" lon="5.37869">
        <ele>453</ele>
        <time>2000-01-01T05:39:27Z</time>
      </trkpt>
      <trkpt lat="50.02561" lon="5.37853">
        <ele>452</ele>
        <time>2000-01-01T05:39:37Z</time>
      </trkpt>
      <trkpt lat="50.02567" lon="5.37836">
        <ele>459.3</ele>
        <time>2000-01-01T05:39:47Z</time>
      </trkpt>
      <trkpt lat="50.02573" lon="5.37804">
        <ele>451</ele>
        <time>2000-01-01T05:39:57Z</time>
      </trkpt>
      <trkpt lat="50.02574" lon="5.37767">
        <ele>450</ele>
        <time>2000-01-01T05:40:07Z</time>
      </trkpt>
      <trkpt lat="50.02576" lon="5.3772">
        <ele>448</ele>
        <time>2000-01-01T05:40:17Z</time>
      </trkpt>
      <trkpt lat="50.02579" lon="5.37699">
        <ele>451.5</ele>
        <time>2000-01-01T05:40:27Z</time>
      </trkpt>
      <trkpt lat="50.02571" lon="5.3767">
        <ele>444</ele>
        <time>2000-01-01T05:40:37Z</time>
      </trkpt>
      <trkpt lat="50.02562" lon="5.37628">
        <ele>444</ele>
        <time>2000-01-01T05:40:47Z</time>
      </trkpt>
      <trkpt lat="50.02552" lon="5.37585">
        <ele>444</ele>
        <time>2000-01-01T05:40:57Z</time>
      </trkpt>
      <trkpt lat="50.02542" lon="5.37542">
        <ele>438</ele>
        <time>2000-01-01T05:41:07Z</time>
      </trkpt>
      <trkpt lat="50.02537" lon="5.37498">
        <ele>436</ele>
        <time>2000-01-01T05:41:17Z</time>
      </trkpt>
      <trkpt lat="50.02531" lon="5.37453">
        <ele>435</ele>
        <time>2000-01-01T05:41:27Z</time>
      </trkpt>
      <trkpt lat="50.02526" lon="5.37406">
        <ele>431</ele>
        <time>2000-01-01T05:41:37Z</time>
      </trkpt>
      <trkpt lat="50.02526" lon="5.37399">
        <ele>437.4</ele>
        <time>2000-01-01T05:41:47Z</time>
      </trkpt>
    </trkseg>
  </trk>
</gpx>